<?xml version="1.0" encoding="UTF-8" standalone="no" ?>
<gpx xmlns="http://www.topografix.com/GPX/1/1" xmlns:xsi="http://www.w3.org/2001/XMLSchema-instance" xsi:schemaLocation="http://www.topografix.com/GPX/1/1 http://www.topografix.com/GPX/1/1/gpx.xsd" version="1.1" creator="VisuGPX - https://www.visugpx.com">
  <metadata>
    <name>de St Amarin à Kruth</name>
    <desc><![CDATA[De Saint-Amarin à Kruth en passant par la ferme auberge du Haag et Markstein]]></desc>
  </metadata>
  <trk>
    <name><![CDATA[Track 15]]></name>
    <trkseg>
      <trkpt lat="47.87293" lon="7.02861">
        <ele>415</ele>
        <time>2016-12-29T07:39:12Z</time>
      </trkpt>
      <trkpt lat="47.87302" lon="7.0288">
        <ele>427</ele>
        <time>2016-12-29T07:39:51Z</time>
      </trkpt>
      <trkpt lat="47.8731" lon="7.02869">
        <ele>425</ele>
        <time>2016-12-29T07:40:27Z</time>
      </trkpt>
      <trkpt lat="47.87323" lon="7.02847">
        <ele>430</ele>
        <time>2016-12-29T07:40:46Z</time>
      </trkpt>
      <trkpt lat="47.87332" lon="7.0284">
        <ele>422</ele>
        <time>2016-12-29T07:41:36Z</time>
      </trkpt>
      <trkpt lat="47.87349" lon="7.02821">
        <ele>417</ele>
        <time>2016-12-29T07:41:56Z</time>
      </trkpt>
      <trkpt lat="47.87359" lon="7.0282">
        <ele>416</ele>
        <time>2016-12-29T07:42:04Z</time>
      </trkpt>
      <trkpt lat="47.87367" lon="7.02826">
        <ele>414</ele>
        <time>2016-12-29T07:42:10Z</time>
      </trkpt>
      <trkpt lat="47.87407" lon="7.0285">
        <ele>419</ele>
        <time>2016-12-29T07:42:42Z</time>
      </trkpt>
      <trkpt lat="47.87424" lon="7.02853">
        <ele>418</ele>
        <time>2016-12-29T07:42:56Z</time>
      </trkpt>
      <trkpt lat="47.87435" lon="7.02861">
        <ele>421</ele>
        <time>2016-12-29T07:43:08Z</time>
      </trkpt>
      <trkpt lat="47.87443" lon="7.02869">
        <ele>423</ele>
        <time>2016-12-29T07:43:16Z</time>
      </trkpt>
      <trkpt lat="47.87451" lon="7.02878">
        <ele>424</ele>
        <time>2016-12-29T07:43:24Z</time>
      </trkpt>
      <trkpt lat="47.87449" lon="7.02895">
        <ele>421</ele>
        <time>2016-12-29T07:43:40Z</time>
      </trkpt>
      <trkpt lat="47.87443" lon="7.02908">
        <ele>420</ele>
        <time>2016-12-29T07:43:48Z</time>
      </trkpt>
      <trkpt lat="47.87438" lon="7.02924">
        <ele>420</ele>
        <time>2016-12-29T07:43:58Z</time>
      </trkpt>
      <trkpt lat="47.87424" lon="7.02983">
        <ele>419</ele>
        <time>2016-12-29T07:44:32Z</time>
      </trkpt>
      <trkpt lat="47.87419" lon="7.02997">
        <ele>417</ele>
        <time>2016-12-29T07:44:40Z</time>
      </trkpt>
      <trkpt lat="47.87412" lon="7.03024">
        <ele>414</ele>
        <time>2016-12-29T07:44:56Z</time>
      </trkpt>
      <trkpt lat="47.87424" lon="7.03046">
        <ele>433</ele>
        <time>2016-12-29T07:50:18Z</time>
      </trkpt>
      <trkpt lat="47.87427" lon="7.03061">
        <ele>433</ele>
        <time>2016-12-29T07:50:24Z</time>
      </trkpt>
      <trkpt lat="47.87429" lon="7.03078">
        <ele>430</ele>
        <time>2016-12-29T07:50:34Z</time>
      </trkpt>
      <trkpt lat="47.87435" lon="7.0309">
        <ele>428</ele>
        <time>2016-12-29T07:50:42Z</time>
      </trkpt>
      <trkpt lat="47.87442" lon="7.031">
        <ele>428</ele>
        <time>2016-12-29T07:50:50Z</time>
      </trkpt>
      <trkpt lat="47.8745" lon="7.03108">
        <ele>427</ele>
        <time>2016-12-29T07:50:58Z</time>
      </trkpt>
      <trkpt lat="47.87451" lon="7.03122">
        <ele>429</ele>
        <time>2016-12-29T07:51:12Z</time>
      </trkpt>
      <trkpt lat="47.87437" lon="7.0318">
        <ele>428</ele>
        <time>2016-12-29T07:51:42Z</time>
      </trkpt>
      <trkpt lat="47.87447" lon="7.03187">
        <ele>425</ele>
        <time>2016-12-29T07:51:50Z</time>
      </trkpt>
      <trkpt lat="47.87452" lon="7.032">
        <ele>424</ele>
        <time>2016-12-29T07:51:56Z</time>
      </trkpt>
      <trkpt lat="47.87463" lon="7.03207">
        <ele>421</ele>
        <time>2016-12-29T07:52:08Z</time>
      </trkpt>
      <trkpt lat="47.8747" lon="7.03216">
        <ele>421</ele>
        <time>2016-12-29T07:52:16Z</time>
      </trkpt>
      <trkpt lat="47.87479" lon="7.03228">
        <ele>421</ele>
        <time>2016-12-29T07:52:24Z</time>
      </trkpt>
      <trkpt lat="47.8749" lon="7.03236">
        <ele>424</ele>
        <time>2016-12-29T07:52:32Z</time>
      </trkpt>
      <trkpt lat="47.87512" lon="7.03248">
        <ele>426</ele>
        <time>2016-12-29T07:52:48Z</time>
      </trkpt>
      <trkpt lat="47.8752" lon="7.03257">
        <ele>427</ele>
        <time>2016-12-29T07:52:56Z</time>
      </trkpt>
      <trkpt lat="47.87529" lon="7.03273">
        <ele>427</ele>
        <time>2016-12-29T07:53:08Z</time>
      </trkpt>
      <trkpt lat="47.87532" lon="7.03286">
        <ele>426</ele>
        <time>2016-12-29T07:53:16Z</time>
      </trkpt>
      <trkpt lat="47.87528" lon="7.03302">
        <ele>425</ele>
        <time>2016-12-29T07:53:44Z</time>
      </trkpt>
      <trkpt lat="47.87524" lon="7.03315">
        <ele>426</ele>
        <time>2016-12-29T07:53:52Z</time>
      </trkpt>
      <trkpt lat="47.87517" lon="7.03325">
        <ele>427</ele>
        <time>2016-12-29T07:54:00Z</time>
      </trkpt>
      <trkpt lat="47.8751" lon="7.03335">
        <ele>430</ele>
        <time>2016-12-29T07:54:08Z</time>
      </trkpt>
      <trkpt lat="47.87502" lon="7.03342">
        <ele>432</ele>
        <time>2016-12-29T07:54:16Z</time>
      </trkpt>
      <trkpt lat="47.87475" lon="7.03372">
        <ele>439</ele>
        <time>2016-12-29T07:54:42Z</time>
      </trkpt>
      <trkpt lat="47.87467" lon="7.03386">
        <ele>437</ele>
        <time>2016-12-29T07:54:52Z</time>
      </trkpt>
      <trkpt lat="47.87462" lon="7.03399">
        <ele>439</ele>
        <time>2016-12-29T07:55:00Z</time>
      </trkpt>
      <trkpt lat="47.87455" lon="7.03429">
        <ele>442</ele>
        <time>2016-12-29T07:55:18Z</time>
      </trkpt>
      <trkpt lat="47.8745" lon="7.03445">
        <ele>451</ele>
        <time>2016-12-29T07:55:26Z</time>
      </trkpt>
      <trkpt lat="47.87444" lon="7.03462">
        <ele>451</ele>
        <time>2016-12-29T07:55:36Z</time>
      </trkpt>
      <trkpt lat="47.87439" lon="7.03476">
        <ele>447</ele>
        <time>2016-12-29T07:55:46Z</time>
      </trkpt>
      <trkpt lat="47.87432" lon="7.03486">
        <ele>445</ele>
        <time>2016-12-29T07:55:54Z</time>
      </trkpt>
      <trkpt lat="47.87424" lon="7.03496">
        <ele>448</ele>
        <time>2016-12-29T07:56:02Z</time>
      </trkpt>
      <trkpt lat="47.87416" lon="7.03508">
        <ele>450</ele>
        <time>2016-12-29T07:56:10Z</time>
      </trkpt>
      <trkpt lat="47.87406" lon="7.03518">
        <ele>451</ele>
        <time>2016-12-29T07:56:18Z</time>
      </trkpt>
      <trkpt lat="47.87373" lon="7.03546">
        <ele>454</ele>
        <time>2016-12-29T07:56:44Z</time>
      </trkpt>
      <trkpt lat="47.87359" lon="7.03565">
        <ele>455</ele>
        <time>2016-12-29T07:57:00Z</time>
      </trkpt>
      <trkpt lat="47.8735" lon="7.03583">
        <ele>452</ele>
        <time>2016-12-29T07:57:12Z</time>
      </trkpt>
      <trkpt lat="47.87356" lon="7.03594">
        <ele>460</ele>
        <time>2016-12-29T07:57:26Z</time>
      </trkpt>
      <trkpt lat="47.87365" lon="7.03598">
        <ele>460</ele>
        <time>2016-12-29T07:57:38Z</time>
      </trkpt>
      <trkpt lat="47.87361" lon="7.03611">
        <ele>471</ele>
        <time>2016-12-29T07:58:24Z</time>
      </trkpt>
      <trkpt lat="47.87352" lon="7.03613">
        <ele>471</ele>
        <time>2016-12-29T07:58:32Z</time>
      </trkpt>
      <trkpt lat="47.87343" lon="7.03613">
        <ele>476</ele>
        <time>2016-12-29T07:58:40Z</time>
      </trkpt>
      <trkpt lat="47.87334" lon="7.03619">
        <ele>470</ele>
        <time>2016-12-29T07:58:52Z</time>
      </trkpt>
      <trkpt lat="47.87325" lon="7.03628">
        <ele>470</ele>
        <time>2016-12-29T07:59:00Z</time>
      </trkpt>
      <trkpt lat="47.87316" lon="7.0363">
        <ele>470</ele>
        <time>2016-12-29T07:59:08Z</time>
      </trkpt>
      <trkpt lat="47.87307" lon="7.03637">
        <ele>472</ele>
        <time>2016-12-29T07:59:16Z</time>
      </trkpt>
      <trkpt lat="47.87297" lon="7.03639">
        <ele>475</ele>
        <time>2016-12-29T07:59:26Z</time>
      </trkpt>
      <trkpt lat="47.87286" lon="7.03639">
        <ele>477</ele>
        <time>2016-12-29T07:59:38Z</time>
      </trkpt>
      <trkpt lat="47.87278" lon="7.0365">
        <ele>479</ele>
        <time>2016-12-29T07:59:56Z</time>
      </trkpt>
      <trkpt lat="47.8727" lon="7.03664">
        <ele>486</ele>
        <time>2016-12-29T08:00:08Z</time>
      </trkpt>
      <trkpt lat="47.87262" lon="7.03676">
        <ele>486</ele>
        <time>2016-12-29T08:00:22Z</time>
      </trkpt>
      <trkpt lat="47.87254" lon="7.03686">
        <ele>488</ele>
        <time>2016-12-29T08:00:28Z</time>
      </trkpt>
      <trkpt lat="47.87244" lon="7.03701">
        <ele>490</ele>
        <time>2016-12-29T08:00:38Z</time>
      </trkpt>
      <trkpt lat="47.87238" lon="7.03713">
        <ele>491</ele>
        <time>2016-12-29T08:00:46Z</time>
      </trkpt>
      <trkpt lat="47.87235" lon="7.03726">
        <ele>491</ele>
        <time>2016-12-29T08:00:56Z</time>
      </trkpt>
      <trkpt lat="47.87233" lon="7.03739">
        <ele>491</ele>
        <time>2016-12-29T08:01:06Z</time>
      </trkpt>
      <trkpt lat="47.87255" lon="7.03745">
        <ele>493</ele>
        <time>2016-12-29T08:01:48Z</time>
      </trkpt>
      <trkpt lat="47.87265" lon="7.03748">
        <ele>489</ele>
        <time>2016-12-29T08:01:58Z</time>
      </trkpt>
      <trkpt lat="47.87278" lon="7.03739">
        <ele>494</ele>
        <time>2016-12-29T08:02:10Z</time>
      </trkpt>
      <trkpt lat="47.87293" lon="7.03735">
        <ele>502</ele>
        <time>2016-12-29T08:02:44Z</time>
      </trkpt>
      <trkpt lat="47.87308" lon="7.03741">
        <ele>503</ele>
        <time>2016-12-29T08:02:56Z</time>
      </trkpt>
      <trkpt lat="47.87318" lon="7.03746">
        <ele>507</ele>
        <time>2016-12-29T08:03:06Z</time>
      </trkpt>
      <trkpt lat="47.87325" lon="7.03755">
        <ele>512</ele>
        <time>2016-12-29T08:03:14Z</time>
      </trkpt>
      <trkpt lat="47.87334" lon="7.03761">
        <ele>517</ele>
        <time>2016-12-29T08:03:32Z</time>
      </trkpt>
      <trkpt lat="47.87366" lon="7.03782">
        <ele>518</ele>
        <time>2016-12-29T08:04:22Z</time>
      </trkpt>
      <trkpt lat="47.87364" lon="7.03795">
        <ele>517</ele>
        <time>2016-12-29T08:04:34Z</time>
      </trkpt>
      <trkpt lat="47.87358" lon="7.03806">
        <ele>519</ele>
        <time>2016-12-29T08:04:48Z</time>
      </trkpt>
      <trkpt lat="47.87347" lon="7.03811">
        <ele>524</ele>
        <time>2016-12-29T08:05:00Z</time>
      </trkpt>
      <trkpt lat="47.87338" lon="7.03806">
        <ele>530</ele>
        <time>2016-12-29T08:05:08Z</time>
      </trkpt>
      <trkpt lat="47.87328" lon="7.03801">
        <ele>534</ele>
        <time>2016-12-29T08:05:16Z</time>
      </trkpt>
      <trkpt lat="47.87317" lon="7.03795">
        <ele>533</ele>
        <time>2016-12-29T08:05:34Z</time>
      </trkpt>
      <trkpt lat="47.87306" lon="7.03794">
        <ele>533</ele>
        <time>2016-12-29T08:05:46Z</time>
      </trkpt>
      <trkpt lat="47.8731" lon="7.03806">
        <ele>537</ele>
        <time>2016-12-29T08:06:28Z</time>
      </trkpt>
      <trkpt lat="47.87301" lon="7.03835">
        <ele>541</ele>
        <time>2016-12-29T08:06:56Z</time>
      </trkpt>
      <trkpt lat="47.87292" lon="7.03843">
        <ele>540</ele>
        <time>2016-12-29T08:07:06Z</time>
      </trkpt>
      <trkpt lat="47.8728" lon="7.03851">
        <ele>541</ele>
        <time>2016-12-29T08:07:20Z</time>
      </trkpt>
      <trkpt lat="47.87259" lon="7.03867">
        <ele>549</ele>
        <time>2016-12-29T08:07:38Z</time>
      </trkpt>
      <trkpt lat="47.87251" lon="7.03873">
        <ele>552</ele>
        <time>2016-12-29T08:07:48Z</time>
      </trkpt>
      <trkpt lat="47.87243" lon="7.0388">
        <ele>554</ele>
        <time>2016-12-29T08:08:08Z</time>
      </trkpt>
      <trkpt lat="47.87232" lon="7.03889">
        <ele>552</ele>
        <time>2016-12-29T08:08:22Z</time>
      </trkpt>
      <trkpt lat="47.87219" lon="7.03888">
        <ele>550</ele>
        <time>2016-12-29T08:08:32Z</time>
      </trkpt>
      <trkpt lat="47.87207" lon="7.03883">
        <ele>549</ele>
        <time>2016-12-29T08:08:48Z</time>
      </trkpt>
      <trkpt lat="47.87213" lon="7.03896">
        <ele>543</ele>
        <time>2016-12-29T08:14:35Z</time>
      </trkpt>
      <trkpt lat="47.87286" lon="7.03924">
        <ele>556</ele>
        <time>2016-12-29T08:16:05Z</time>
      </trkpt>
      <trkpt lat="47.87289" lon="7.03939">
        <ele>560</ele>
        <time>2016-12-29T08:16:13Z</time>
      </trkpt>
      <trkpt lat="47.87292" lon="7.03952">
        <ele>559</ele>
        <time>2016-12-29T08:16:21Z</time>
      </trkpt>
      <trkpt lat="47.87298" lon="7.03964">
        <ele>562</ele>
        <time>2016-12-29T08:16:35Z</time>
      </trkpt>
      <trkpt lat="47.87395" lon="7.04047">
        <ele>591</ele>
        <time>2016-12-29T08:18:37Z</time>
      </trkpt>
      <trkpt lat="47.87382" lon="7.04056">
        <ele>595</ele>
        <time>2016-12-29T08:19:13Z</time>
      </trkpt>
      <trkpt lat="47.87356" lon="7.04063">
        <ele>589</ele>
        <time>2016-12-29T08:19:31Z</time>
      </trkpt>
      <trkpt lat="47.87344" lon="7.04067">
        <ele>593</ele>
        <time>2016-12-29T08:19:39Z</time>
      </trkpt>
      <trkpt lat="47.87331" lon="7.0407">
        <ele>593</ele>
        <time>2016-12-29T08:19:55Z</time>
      </trkpt>
      <trkpt lat="47.87336" lon="7.04082">
        <ele>592</ele>
        <time>2016-12-29T08:20:11Z</time>
      </trkpt>
      <trkpt lat="47.87344" lon="7.04091">
        <ele>593</ele>
        <time>2016-12-29T08:20:21Z</time>
      </trkpt>
      <trkpt lat="47.8735" lon="7.04102">
        <ele>593</ele>
        <time>2016-12-29T08:20:31Z</time>
      </trkpt>
      <trkpt lat="47.87359" lon="7.04107">
        <ele>600</ele>
        <time>2016-12-29T08:20:39Z</time>
      </trkpt>
      <trkpt lat="47.8737" lon="7.04114">
        <ele>600</ele>
        <time>2016-12-29T08:20:49Z</time>
      </trkpt>
      <trkpt lat="47.87384" lon="7.04123">
        <ele>601</ele>
        <time>2016-12-29T08:21:03Z</time>
      </trkpt>
      <trkpt lat="47.87394" lon="7.0412">
        <ele>603</ele>
        <time>2016-12-29T08:21:13Z</time>
      </trkpt>
      <trkpt lat="47.87403" lon="7.04122">
        <ele>602</ele>
        <time>2016-12-29T08:21:23Z</time>
      </trkpt>
      <trkpt lat="47.87413" lon="7.04124">
        <ele>606</ele>
        <time>2016-12-29T08:21:31Z</time>
      </trkpt>
      <trkpt lat="47.87422" lon="7.04122">
        <ele>606</ele>
        <time>2016-12-29T08:21:39Z</time>
      </trkpt>
      <trkpt lat="47.87446" lon="7.04133">
        <ele>612</ele>
        <time>2016-12-29T08:22:03Z</time>
      </trkpt>
      <trkpt lat="47.87455" lon="7.04142">
        <ele>611</ele>
        <time>2016-12-29T08:22:11Z</time>
      </trkpt>
      <trkpt lat="47.87468" lon="7.04153">
        <ele>612</ele>
        <time>2016-12-29T08:22:23Z</time>
      </trkpt>
      <trkpt lat="47.87475" lon="7.04163">
        <ele>616</ele>
        <time>2016-12-29T08:22:51Z</time>
      </trkpt>
      <trkpt lat="47.87484" lon="7.04176">
        <ele>617</ele>
        <time>2016-12-29T08:23:03Z</time>
      </trkpt>
      <trkpt lat="47.87491" lon="7.04186">
        <ele>617</ele>
        <time>2016-12-29T08:23:15Z</time>
      </trkpt>
      <trkpt lat="47.87497" lon="7.04199">
        <ele>617</ele>
        <time>2016-12-29T08:23:27Z</time>
      </trkpt>
      <trkpt lat="47.87504" lon="7.0421">
        <ele>618</ele>
        <time>2016-12-29T08:23:37Z</time>
      </trkpt>
      <trkpt lat="47.87508" lon="7.04222">
        <ele>620</ele>
        <time>2016-12-29T08:23:45Z</time>
      </trkpt>
      <trkpt lat="47.87514" lon="7.04233">
        <ele>624</ele>
        <time>2016-12-29T08:23:55Z</time>
      </trkpt>
      <trkpt lat="47.87521" lon="7.04244">
        <ele>625</ele>
        <time>2016-12-29T08:24:05Z</time>
      </trkpt>
      <trkpt lat="47.8753" lon="7.0426">
        <ele>627</ele>
        <time>2016-12-29T08:24:21Z</time>
      </trkpt>
      <trkpt lat="47.87537" lon="7.04273">
        <ele>623</ele>
        <time>2016-12-29T08:24:33Z</time>
      </trkpt>
      <trkpt lat="47.87546" lon="7.0428">
        <ele>626</ele>
        <time>2016-12-29T08:24:41Z</time>
      </trkpt>
      <trkpt lat="47.87556" lon="7.0429">
        <ele>627</ele>
        <time>2016-12-29T08:24:51Z</time>
      </trkpt>
      <trkpt lat="47.87585" lon="7.04332">
        <ele>636</ele>
        <time>2016-12-29T08:25:43Z</time>
      </trkpt>
      <trkpt lat="47.87592" lon="7.04343">
        <ele>639</ele>
        <time>2016-12-29T08:25:55Z</time>
      </trkpt>
      <trkpt lat="47.87597" lon="7.04355">
        <ele>640</ele>
        <time>2016-12-29T08:26:03Z</time>
      </trkpt>
      <trkpt lat="47.87606" lon="7.04382">
        <ele>641</ele>
        <time>2016-12-29T08:26:23Z</time>
      </trkpt>
      <trkpt lat="47.87604" lon="7.04397">
        <ele>642</ele>
        <time>2016-12-29T08:26:33Z</time>
      </trkpt>
      <trkpt lat="47.87609" lon="7.0441">
        <ele>643</ele>
        <time>2016-12-29T08:26:45Z</time>
      </trkpt>
      <trkpt lat="47.87616" lon="7.04421">
        <ele>645</ele>
        <time>2016-12-29T08:26:57Z</time>
      </trkpt>
      <trkpt lat="47.87627" lon="7.04425">
        <ele>650</ele>
        <time>2016-12-29T08:27:07Z</time>
      </trkpt>
      <trkpt lat="47.87638" lon="7.04425">
        <ele>650</ele>
        <time>2016-12-29T08:27:15Z</time>
      </trkpt>
      <trkpt lat="47.87649" lon="7.04418">
        <ele>655</ele>
        <time>2016-12-29T08:27:23Z</time>
      </trkpt>
      <trkpt lat="47.87676" lon="7.04405">
        <ele>664</ele>
        <time>2016-12-29T08:27:45Z</time>
      </trkpt>
      <trkpt lat="47.87687" lon="7.04401">
        <ele>666</ele>
        <time>2016-12-29T08:27:59Z</time>
      </trkpt>
      <trkpt lat="47.87703" lon="7.04399">
        <ele>666</ele>
        <time>2016-12-29T08:28:13Z</time>
      </trkpt>
      <trkpt lat="47.87712" lon="7.04396">
        <ele>668</ele>
        <time>2016-12-29T08:28:21Z</time>
      </trkpt>
      <trkpt lat="47.87721" lon="7.04394">
        <ele>670</ele>
        <time>2016-12-29T08:28:29Z</time>
      </trkpt>
      <trkpt lat="47.87729" lon="7.04387">
        <ele>673</ele>
        <time>2016-12-29T08:28:39Z</time>
      </trkpt>
      <trkpt lat="47.87739" lon="7.04383">
        <ele>672</ele>
        <time>2016-12-29T08:28:49Z</time>
      </trkpt>
      <trkpt lat="47.87748" lon="7.04381">
        <ele>672</ele>
        <time>2016-12-29T08:28:59Z</time>
      </trkpt>
      <trkpt lat="47.87758" lon="7.04381">
        <ele>671</ele>
        <time>2016-12-29T08:29:07Z</time>
      </trkpt>
      <trkpt lat="47.87767" lon="7.04378">
        <ele>675</ele>
        <time>2016-12-29T08:29:19Z</time>
      </trkpt>
      <trkpt lat="47.87778" lon="7.04377">
        <ele>674</ele>
        <time>2016-12-29T08:29:45Z</time>
      </trkpt>
      <trkpt lat="47.87787" lon="7.04375">
        <ele>677</ele>
        <time>2016-12-29T08:29:51Z</time>
      </trkpt>
      <trkpt lat="47.87818" lon="7.04369">
        <ele>680</ele>
        <time>2016-12-29T08:30:23Z</time>
      </trkpt>
      <trkpt lat="47.8783" lon="7.04365">
        <ele>680</ele>
        <time>2016-12-29T08:30:33Z</time>
      </trkpt>
      <trkpt lat="47.87841" lon="7.04361">
        <ele>681</ele>
        <time>2016-12-29T08:30:45Z</time>
      </trkpt>
      <trkpt lat="47.87861" lon="7.04352">
        <ele>683</ele>
        <time>2016-12-29T08:31:05Z</time>
      </trkpt>
      <trkpt lat="47.87872" lon="7.04348">
        <ele>684</ele>
        <time>2016-12-29T08:31:15Z</time>
      </trkpt>
      <trkpt lat="47.87881" lon="7.04343">
        <ele>683</ele>
        <time>2016-12-29T08:31:23Z</time>
      </trkpt>
      <trkpt lat="47.87893" lon="7.04333">
        <ele>686</ele>
        <time>2016-12-29T08:31:35Z</time>
      </trkpt>
      <trkpt lat="47.87902" lon="7.04326">
        <ele>690</ele>
        <time>2016-12-29T08:31:43Z</time>
      </trkpt>
      <trkpt lat="47.87912" lon="7.04322">
        <ele>690</ele>
        <time>2016-12-29T08:31:53Z</time>
      </trkpt>
      <trkpt lat="47.87921" lon="7.04315">
        <ele>689</ele>
        <time>2016-12-29T08:32:03Z</time>
      </trkpt>
      <trkpt lat="47.87934" lon="7.0431">
        <ele>693</ele>
        <time>2016-12-29T08:32:13Z</time>
      </trkpt>
      <trkpt lat="47.87944" lon="7.04301">
        <ele>694</ele>
        <time>2016-12-29T08:32:23Z</time>
      </trkpt>
      <trkpt lat="47.87957" lon="7.04292">
        <ele>693</ele>
        <time>2016-12-29T08:32:35Z</time>
      </trkpt>
      <trkpt lat="47.87971" lon="7.04279">
        <ele>694</ele>
        <time>2016-12-29T08:32:51Z</time>
      </trkpt>
      <trkpt lat="47.87978" lon="7.0427">
        <ele>697</ele>
        <time>2016-12-29T08:33:07Z</time>
      </trkpt>
      <trkpt lat="47.87988" lon="7.04265">
        <ele>694</ele>
        <time>2016-12-29T08:33:19Z</time>
      </trkpt>
      <trkpt lat="47.87998" lon="7.04257">
        <ele>694</ele>
        <time>2016-12-29T08:33:31Z</time>
      </trkpt>
      <trkpt lat="47.88008" lon="7.04254">
        <ele>697</ele>
        <time>2016-12-29T08:33:41Z</time>
      </trkpt>
      <trkpt lat="47.88042" lon="7.04255">
        <ele>696</ele>
        <time>2016-12-29T08:34:19Z</time>
      </trkpt>
      <trkpt lat="47.88051" lon="7.04257">
        <ele>700</ele>
        <time>2016-12-29T08:34:27Z</time>
      </trkpt>
      <trkpt lat="47.88061" lon="7.0426">
        <ele>702</ele>
        <time>2016-12-29T08:34:37Z</time>
      </trkpt>
      <trkpt lat="47.88071" lon="7.04267">
        <ele>702</ele>
        <time>2016-12-29T08:34:51Z</time>
      </trkpt>
      <trkpt lat="47.8808" lon="7.04274">
        <ele>705</ele>
        <time>2016-12-29T08:35:07Z</time>
      </trkpt>
      <trkpt lat="47.88088" lon="7.0428">
        <ele>705</ele>
        <time>2016-12-29T08:35:13Z</time>
      </trkpt>
      <trkpt lat="47.88096" lon="7.04288">
        <ele>703</ele>
        <time>2016-12-29T08:35:27Z</time>
      </trkpt>
      <trkpt lat="47.8811" lon="7.0429">
        <ele>709</ele>
        <time>2016-12-29T08:35:50Z</time>
      </trkpt>
      <trkpt lat="47.88121" lon="7.04301">
        <ele>713</ele>
        <time>2016-12-29T08:36:00Z</time>
      </trkpt>
      <trkpt lat="47.88125" lon="7.04314">
        <ele>711</ele>
        <time>2016-12-29T08:36:12Z</time>
      </trkpt>
      <trkpt lat="47.88131" lon="7.04326">
        <ele>712</ele>
        <time>2016-12-29T08:36:26Z</time>
      </trkpt>
      <trkpt lat="47.88143" lon="7.04337">
        <ele>710</ele>
        <time>2016-12-29T08:36:40Z</time>
      </trkpt>
      <trkpt lat="47.88152" lon="7.04349">
        <ele>711</ele>
        <time>2016-12-29T08:36:48Z</time>
      </trkpt>
      <trkpt lat="47.88164" lon="7.04363">
        <ele>712</ele>
        <time>2016-12-29T08:37:00Z</time>
      </trkpt>
      <trkpt lat="47.88171" lon="7.04373">
        <ele>711</ele>
        <time>2016-12-29T08:37:10Z</time>
      </trkpt>
      <trkpt lat="47.8818" lon="7.04387">
        <ele>709</ele>
        <time>2016-12-29T08:37:22Z</time>
      </trkpt>
      <trkpt lat="47.88185" lon="7.04399">
        <ele>711</ele>
        <time>2016-12-29T08:37:30Z</time>
      </trkpt>
      <trkpt lat="47.8819" lon="7.04411">
        <ele>713</ele>
        <time>2016-12-29T08:37:38Z</time>
      </trkpt>
      <trkpt lat="47.88194" lon="7.04427">
        <ele>713</ele>
        <time>2016-12-29T08:37:48Z</time>
      </trkpt>
      <trkpt lat="47.88198" lon="7.04441">
        <ele>715</ele>
        <time>2016-12-29T08:37:56Z</time>
      </trkpt>
      <trkpt lat="47.88205" lon="7.04456">
        <ele>717</ele>
        <time>2016-12-29T08:38:04Z</time>
      </trkpt>
      <trkpt lat="47.88211" lon="7.04467">
        <ele>717</ele>
        <time>2016-12-29T08:38:10Z</time>
      </trkpt>
      <trkpt lat="47.88223" lon="7.04488">
        <ele>723</ele>
        <time>2016-12-29T08:38:26Z</time>
      </trkpt>
      <trkpt lat="47.88229" lon="7.04499">
        <ele>725</ele>
        <time>2016-12-29T08:38:32Z</time>
      </trkpt>
      <trkpt lat="47.88235" lon="7.0451">
        <ele>725</ele>
        <time>2016-12-29T08:38:40Z</time>
      </trkpt>
      <trkpt lat="47.88245" lon="7.04524">
        <ele>728</ele>
        <time>2016-12-29T08:38:50Z</time>
      </trkpt>
      <trkpt lat="47.88253" lon="7.04535">
        <ele>729</ele>
        <time>2016-12-29T08:39:00Z</time>
      </trkpt>
      <trkpt lat="47.88267" lon="7.04555">
        <ele>733</ele>
        <time>2016-12-29T08:39:16Z</time>
      </trkpt>
      <trkpt lat="47.88273" lon="7.04567">
        <ele>733</ele>
        <time>2016-12-29T08:39:24Z</time>
      </trkpt>
      <trkpt lat="47.8828" lon="7.04578">
        <ele>734</ele>
        <time>2016-12-29T08:39:32Z</time>
      </trkpt>
      <trkpt lat="47.88281" lon="7.04592">
        <ele>732</ele>
        <time>2016-12-29T08:39:44Z</time>
      </trkpt>
      <trkpt lat="47.88283" lon="7.04606">
        <ele>733</ele>
        <time>2016-12-29T08:39:54Z</time>
      </trkpt>
      <trkpt lat="47.88285" lon="7.04624">
        <ele>733</ele>
        <time>2016-12-29T08:40:04Z</time>
      </trkpt>
      <trkpt lat="47.88286" lon="7.04638">
        <ele>734</ele>
        <time>2016-12-29T08:40:12Z</time>
      </trkpt>
      <trkpt lat="47.8829" lon="7.04666">
        <ele>738</ele>
        <time>2016-12-29T08:40:28Z</time>
      </trkpt>
      <trkpt lat="47.88293" lon="7.04679">
        <ele>739</ele>
        <time>2016-12-29T08:40:36Z</time>
      </trkpt>
      <trkpt lat="47.88295" lon="7.04702">
        <ele>738</ele>
        <time>2016-12-29T08:40:50Z</time>
      </trkpt>
      <trkpt lat="47.883" lon="7.04723">
        <ele>739</ele>
        <time>2016-12-29T08:41:04Z</time>
      </trkpt>
      <trkpt lat="47.88305" lon="7.04738">
        <ele>739</ele>
        <time>2016-12-29T08:41:14Z</time>
      </trkpt>
      <trkpt lat="47.88308" lon="7.04752">
        <ele>739</ele>
        <time>2016-12-29T08:41:40Z</time>
      </trkpt>
      <trkpt lat="47.88316" lon="7.04779">
        <ele>739</ele>
        <time>2016-12-29T08:41:58Z</time>
      </trkpt>
      <trkpt lat="47.88331" lon="7.04812">
        <ele>744</ele>
        <time>2016-12-29T08:42:16Z</time>
      </trkpt>
      <trkpt lat="47.88335" lon="7.04824">
        <ele>742</ele>
        <time>2016-12-29T08:42:26Z</time>
      </trkpt>
      <trkpt lat="47.88349" lon="7.04853">
        <ele>750</ele>
        <time>2016-12-29T08:42:48Z</time>
      </trkpt>
      <trkpt lat="47.88355" lon="7.04866">
        <ele>753</ele>
        <time>2016-12-29T08:42:58Z</time>
      </trkpt>
      <trkpt lat="47.88365" lon="7.0488">
        <ele>755</ele>
        <time>2016-12-29T08:43:14Z</time>
      </trkpt>
      <trkpt lat="47.88375" lon="7.0489">
        <ele>760</ele>
        <time>2016-12-29T08:43:26Z</time>
      </trkpt>
      <trkpt lat="47.88383" lon="7.04902">
        <ele>759</ele>
        <time>2016-12-29T08:43:34Z</time>
      </trkpt>
      <trkpt lat="47.88391" lon="7.04915">
        <ele>761</ele>
        <time>2016-12-29T08:43:44Z</time>
      </trkpt>
      <trkpt lat="47.88397" lon="7.04925">
        <ele>761</ele>
        <time>2016-12-29T08:43:52Z</time>
      </trkpt>
      <trkpt lat="47.88405" lon="7.04948">
        <ele>766</ele>
        <time>2016-12-29T08:44:10Z</time>
      </trkpt>
      <trkpt lat="47.88412" lon="7.04957">
        <ele>770</ele>
        <time>2016-12-29T08:44:28Z</time>
      </trkpt>
      <trkpt lat="47.88421" lon="7.04959">
        <ele>772</ele>
        <time>2016-12-29T08:45:14Z</time>
      </trkpt>
      <trkpt lat="47.88442" lon="7.04969">
        <ele>774</ele>
        <time>2016-12-29T08:45:36Z</time>
      </trkpt>
      <trkpt lat="47.88449" lon="7.04978">
        <ele>771</ele>
        <time>2016-12-29T08:45:42Z</time>
      </trkpt>
      <trkpt lat="47.8847" lon="7.04992">
        <ele>770</ele>
        <time>2016-12-29T08:46:04Z</time>
      </trkpt>
      <trkpt lat="47.88481" lon="7.04995">
        <ele>772</ele>
        <time>2016-12-29T08:46:20Z</time>
      </trkpt>
      <trkpt lat="47.88491" lon="7.04998">
        <ele>780</ele>
        <time>2016-12-29T08:46:40Z</time>
      </trkpt>
      <trkpt lat="47.885" lon="7.04998">
        <ele>783</ele>
        <time>2016-12-29T08:46:50Z</time>
      </trkpt>
      <trkpt lat="47.88511" lon="7.04997">
        <ele>783</ele>
        <time>2016-12-29T08:46:58Z</time>
      </trkpt>
      <trkpt lat="47.8852" lon="7.05">
        <ele>777</ele>
        <time>2016-12-29T08:51:26Z</time>
      </trkpt>
      <trkpt lat="47.88514" lon="7.05012">
        <ele>778</ele>
        <time>2016-12-29T08:58:13Z</time>
      </trkpt>
      <trkpt lat="47.88523" lon="7.0502">
        <ele>777</ele>
        <time>2016-12-29T08:58:39Z</time>
      </trkpt>
      <trkpt lat="47.88533" lon="7.05024">
        <ele>778</ele>
        <time>2016-12-29T08:59:01Z</time>
      </trkpt>
      <trkpt lat="47.88544" lon="7.05029">
        <ele>782</ele>
        <time>2016-12-29T08:59:11Z</time>
      </trkpt>
      <trkpt lat="47.88554" lon="7.05031">
        <ele>784</ele>
        <time>2016-12-29T08:59:17Z</time>
      </trkpt>
      <trkpt lat="47.88572" lon="7.05034">
        <ele>787</ele>
        <time>2016-12-29T08:59:33Z</time>
      </trkpt>
      <trkpt lat="47.88582" lon="7.05032">
        <ele>791</ele>
        <time>2016-12-29T08:59:45Z</time>
      </trkpt>
      <trkpt lat="47.88592" lon="7.05033">
        <ele>791</ele>
        <time>2016-12-29T08:59:53Z</time>
      </trkpt>
      <trkpt lat="47.88605" lon="7.05037">
        <ele>789</ele>
        <time>2016-12-29T09:00:03Z</time>
      </trkpt>
      <trkpt lat="47.88621" lon="7.05032">
        <ele>797</ele>
        <time>2016-12-29T09:00:23Z</time>
      </trkpt>
      <trkpt lat="47.88635" lon="7.05035">
        <ele>803</ele>
        <time>2016-12-29T09:00:43Z</time>
      </trkpt>
      <trkpt lat="47.88644" lon="7.05035">
        <ele>804</ele>
        <time>2016-12-29T09:00:51Z</time>
      </trkpt>
      <trkpt lat="47.88654" lon="7.05034">
        <ele>805</ele>
        <time>2016-12-29T09:01:01Z</time>
      </trkpt>
      <trkpt lat="47.88671" lon="7.05034">
        <ele>807</ele>
        <time>2016-12-29T09:01:13Z</time>
      </trkpt>
      <trkpt lat="47.88685" lon="7.05037">
        <ele>806</ele>
        <time>2016-12-29T09:01:25Z</time>
      </trkpt>
      <trkpt lat="47.88694" lon="7.05033">
        <ele>809</ele>
        <time>2016-12-29T09:01:37Z</time>
      </trkpt>
      <trkpt lat="47.88704" lon="7.05034">
        <ele>812</ele>
        <time>2016-12-29T09:01:49Z</time>
      </trkpt>
      <trkpt lat="47.88715" lon="7.05035">
        <ele>815</ele>
        <time>2016-12-29T09:01:59Z</time>
      </trkpt>
      <trkpt lat="47.88725" lon="7.05035">
        <ele>815</ele>
        <time>2016-12-29T09:02:07Z</time>
      </trkpt>
      <trkpt lat="47.88735" lon="7.05035">
        <ele>817</ele>
        <time>2016-12-29T09:02:15Z</time>
      </trkpt>
      <trkpt lat="47.88745" lon="7.05038">
        <ele>821</ele>
        <time>2016-12-29T09:02:31Z</time>
      </trkpt>
      <trkpt lat="47.88754" lon="7.05039">
        <ele>822</ele>
        <time>2016-12-29T09:02:45Z</time>
      </trkpt>
      <trkpt lat="47.8877" lon="7.05037">
        <ele>821</ele>
        <time>2016-12-29T09:02:57Z</time>
      </trkpt>
      <trkpt lat="47.88781" lon="7.05037">
        <ele>825</ele>
        <time>2016-12-29T09:03:05Z</time>
      </trkpt>
      <trkpt lat="47.88791" lon="7.05032">
        <ele>829</ele>
        <time>2016-12-29T09:03:13Z</time>
      </trkpt>
      <trkpt lat="47.88801" lon="7.05031">
        <ele>829</ele>
        <time>2016-12-29T09:03:25Z</time>
      </trkpt>
      <trkpt lat="47.88811" lon="7.05035">
        <ele>832</ele>
        <time>2016-12-29T09:03:33Z</time>
      </trkpt>
      <trkpt lat="47.8882" lon="7.05041">
        <ele>832</ele>
        <time>2016-12-29T09:03:45Z</time>
      </trkpt>
      <trkpt lat="47.88833" lon="7.05046">
        <ele>831</ele>
        <time>2016-12-29T09:03:59Z</time>
      </trkpt>
      <trkpt lat="47.88842" lon="7.05056">
        <ele>829</ele>
        <time>2016-12-29T09:04:15Z</time>
      </trkpt>
      <trkpt lat="47.88852" lon="7.05064">
        <ele>834</ele>
        <time>2016-12-29T09:04:23Z</time>
      </trkpt>
      <trkpt lat="47.88858" lon="7.05076">
        <ele>836</ele>
        <time>2016-12-29T09:04:35Z</time>
      </trkpt>
      <trkpt lat="47.88866" lon="7.05087">
        <ele>838</ele>
        <time>2016-12-29T09:04:43Z</time>
      </trkpt>
      <trkpt lat="47.88874" lon="7.05094">
        <ele>840</ele>
        <time>2016-12-29T09:04:53Z</time>
      </trkpt>
      <trkpt lat="47.88884" lon="7.05097">
        <ele>844</ele>
        <time>2016-12-29T09:05:05Z</time>
      </trkpt>
      <trkpt lat="47.88908" lon="7.05106">
        <ele>852</ele>
        <time>2016-12-29T09:05:29Z</time>
      </trkpt>
      <trkpt lat="47.88918" lon="7.05108">
        <ele>850</ele>
        <time>2016-12-29T09:05:43Z</time>
      </trkpt>
      <trkpt lat="47.88928" lon="7.0511">
        <ele>852</ele>
        <time>2016-12-29T09:05:51Z</time>
      </trkpt>
      <trkpt lat="47.88937" lon="7.05115">
        <ele>851</ele>
        <time>2016-12-29T09:06:05Z</time>
      </trkpt>
      <trkpt lat="47.88951" lon="7.05126">
        <ele>844</ele>
        <time>2016-12-29T09:06:17Z</time>
      </trkpt>
      <trkpt lat="47.8896" lon="7.05131">
        <ele>845</ele>
        <time>2016-12-29T09:06:25Z</time>
      </trkpt>
      <trkpt lat="47.88972" lon="7.05139">
        <ele>844</ele>
        <time>2016-12-29T09:06:39Z</time>
      </trkpt>
      <trkpt lat="47.88985" lon="7.05143">
        <ele>846</ele>
        <time>2016-12-29T09:06:51Z</time>
      </trkpt>
      <trkpt lat="47.88995" lon="7.05146">
        <ele>848</ele>
        <time>2016-12-29T09:07:01Z</time>
      </trkpt>
      <trkpt lat="47.89006" lon="7.05145">
        <ele>850</ele>
        <time>2016-12-29T09:07:09Z</time>
      </trkpt>
      <trkpt lat="47.89028" lon="7.05143">
        <ele>852</ele>
        <time>2016-12-29T09:07:27Z</time>
      </trkpt>
      <trkpt lat="47.89043" lon="7.05144">
        <ele>853</ele>
        <time>2016-12-29T09:07:41Z</time>
      </trkpt>
      <trkpt lat="47.89053" lon="7.0514">
        <ele>859</ele>
        <time>2016-12-29T09:07:49Z</time>
      </trkpt>
      <trkpt lat="47.89063" lon="7.05137">
        <ele>864</ele>
        <time>2016-12-29T09:07:57Z</time>
      </trkpt>
      <trkpt lat="47.89074" lon="7.05136">
        <ele>862</ele>
        <time>2016-12-29T09:08:05Z</time>
      </trkpt>
      <trkpt lat="47.8909" lon="7.05135">
        <ele>864</ele>
        <time>2016-12-29T09:08:17Z</time>
      </trkpt>
      <trkpt lat="47.89104" lon="7.05135">
        <ele>865</ele>
        <time>2016-12-29T09:09:55Z</time>
      </trkpt>
      <trkpt lat="47.89113" lon="7.05132">
        <ele>866</ele>
        <time>2016-12-29T09:10:15Z</time>
      </trkpt>
      <trkpt lat="47.89122" lon="7.05137">
        <ele>864</ele>
        <time>2016-12-29T09:10:33Z</time>
      </trkpt>
      <trkpt lat="47.89162" lon="7.05183">
        <ele>854</ele>
        <time>2016-12-29T09:11:13Z</time>
      </trkpt>
      <trkpt lat="47.89172" lon="7.05198">
        <ele>858</ele>
        <time>2016-12-29T09:11:33Z</time>
      </trkpt>
      <trkpt lat="47.89187" lon="7.05238">
        <ele>871</ele>
        <time>2016-12-29T09:11:57Z</time>
      </trkpt>
      <trkpt lat="47.89185" lon="7.05274">
        <ele>879</ele>
        <time>2016-12-29T09:12:11Z</time>
      </trkpt>
      <trkpt lat="47.89187" lon="7.05287">
        <ele>881</ele>
        <time>2016-12-29T09:12:17Z</time>
      </trkpt>
      <trkpt lat="47.89191" lon="7.05332">
        <ele>873</ele>
        <time>2016-12-29T09:12:43Z</time>
      </trkpt>
      <trkpt lat="47.89191" lon="7.05347">
        <ele>872</ele>
        <time>2016-12-29T09:12:49Z</time>
      </trkpt>
      <trkpt lat="47.89189" lon="7.0536">
        <ele>872</ele>
        <time>2016-12-29T09:12:59Z</time>
      </trkpt>
      <trkpt lat="47.8918" lon="7.05372">
        <ele>872</ele>
        <time>2016-12-29T09:13:13Z</time>
      </trkpt>
      <trkpt lat="47.8917" lon="7.05377">
        <ele>875</ele>
        <time>2016-12-29T09:13:35Z</time>
      </trkpt>
      <trkpt lat="47.89172" lon="7.05392">
        <ele>874</ele>
        <time>2016-12-29T09:16:31Z</time>
      </trkpt>
      <trkpt lat="47.89176" lon="7.05404">
        <ele>874</ele>
        <time>2016-12-29T09:16:39Z</time>
      </trkpt>
      <trkpt lat="47.8918" lon="7.05417">
        <ele>876</ele>
        <time>2016-12-29T09:16:47Z</time>
      </trkpt>
      <trkpt lat="47.89189" lon="7.05445">
        <ele>881</ele>
        <time>2016-12-29T09:17:07Z</time>
      </trkpt>
      <trkpt lat="47.89231" lon="7.0553">
        <ele>899</ele>
        <time>2016-12-29T09:18:26Z</time>
      </trkpt>
      <trkpt lat="47.89251" lon="7.05582">
        <ele>904</ele>
        <time>2016-12-29T09:18:46Z</time>
      </trkpt>
      <trkpt lat="47.89259" lon="7.05594">
        <ele>903</ele>
        <time>2016-12-29T09:18:58Z</time>
      </trkpt>
      <trkpt lat="47.89267" lon="7.05603">
        <ele>899</ele>
        <time>2016-12-29T09:19:10Z</time>
      </trkpt>
      <trkpt lat="47.89273" lon="7.05614">
        <ele>898</ele>
        <time>2016-12-29T09:19:22Z</time>
      </trkpt>
      <trkpt lat="47.89281" lon="7.05624">
        <ele>902</ele>
        <time>2016-12-29T09:19:34Z</time>
      </trkpt>
      <trkpt lat="47.89284" lon="7.0564">
        <ele>906</ele>
        <time>2016-12-29T09:19:46Z</time>
      </trkpt>
      <trkpt lat="47.89292" lon="7.05649">
        <ele>909</ele>
        <time>2016-12-29T09:19:56Z</time>
      </trkpt>
      <trkpt lat="47.893" lon="7.0566">
        <ele>913</ele>
        <time>2016-12-29T09:20:08Z</time>
      </trkpt>
      <trkpt lat="47.89308" lon="7.05673">
        <ele>918</ele>
        <time>2016-12-29T09:20:24Z</time>
      </trkpt>
      <trkpt lat="47.89316" lon="7.05691">
        <ele>924</ele>
        <time>2016-12-29T09:20:40Z</time>
      </trkpt>
      <trkpt lat="47.89323" lon="7.05722">
        <ele>927</ele>
        <time>2016-12-29T09:21:40Z</time>
      </trkpt>
      <trkpt lat="47.89326" lon="7.05735">
        <ele>936</ele>
        <time>2016-12-29T09:24:34Z</time>
      </trkpt>
      <trkpt lat="47.89333" lon="7.05746">
        <ele>933</ele>
        <time>2016-12-29T09:26:18Z</time>
      </trkpt>
      <trkpt lat="47.89345" lon="7.05769">
        <ele>937</ele>
        <time>2016-12-29T09:26:42Z</time>
      </trkpt>
      <trkpt lat="47.8935" lon="7.058">
        <ele>947</ele>
        <time>2016-12-29T09:27:00Z</time>
      </trkpt>
      <trkpt lat="47.89354" lon="7.05813">
        <ele>948</ele>
        <time>2016-12-29T09:27:10Z</time>
      </trkpt>
      <trkpt lat="47.89358" lon="7.05827">
        <ele>952</ele>
        <time>2016-12-29T09:27:24Z</time>
      </trkpt>
      <trkpt lat="47.89362" lon="7.0584">
        <ele>953</ele>
        <time>2016-12-29T09:27:36Z</time>
      </trkpt>
      <trkpt lat="47.89366" lon="7.05854">
        <ele>952</ele>
        <time>2016-12-29T09:27:50Z</time>
      </trkpt>
      <trkpt lat="47.8937" lon="7.05866">
        <ele>959</ele>
        <time>2016-12-29T09:28:02Z</time>
      </trkpt>
      <trkpt lat="47.89373" lon="7.05884">
        <ele>960</ele>
        <time>2016-12-29T09:28:32Z</time>
      </trkpt>
      <trkpt lat="47.89379" lon="7.05895">
        <ele>962</ele>
        <time>2016-12-29T09:28:44Z</time>
      </trkpt>
      <trkpt lat="47.89382" lon="7.05908">
        <ele>962</ele>
        <time>2016-12-29T09:28:52Z</time>
      </trkpt>
      <trkpt lat="47.89383" lon="7.05925">
        <ele>964</ele>
        <time>2016-12-29T09:29:06Z</time>
      </trkpt>
      <trkpt lat="47.89385" lon="7.05938">
        <ele>965</ele>
        <time>2016-12-29T09:29:16Z</time>
      </trkpt>
      <trkpt lat="47.89388" lon="7.05951">
        <ele>967</ele>
        <time>2016-12-29T09:29:28Z</time>
      </trkpt>
      <trkpt lat="47.89394" lon="7.05963">
        <ele>965</ele>
        <time>2016-12-29T09:29:40Z</time>
      </trkpt>
      <trkpt lat="47.89394" lon="7.0599">
        <ele>968</ele>
        <time>2016-12-29T09:30:00Z</time>
      </trkpt>
      <trkpt lat="47.89391" lon="7.06059">
        <ele>993</ele>
        <time>2016-12-29T09:30:23Z</time>
      </trkpt>
      <trkpt lat="47.89385" lon="7.06082">
        <ele>1021</ele>
        <time>2016-12-29T09:30:41Z</time>
      </trkpt>
      <trkpt lat="47.89383" lon="7.06109">
        <ele>979</ele>
        <time>2016-12-29T09:30:57Z</time>
      </trkpt>
      <trkpt lat="47.89351" lon="7.063">
        <ele>1029</ele>
        <time>2016-12-29T09:34:23Z</time>
      </trkpt>
      <trkpt lat="47.89363" lon="7.06322">
        <ele>1012</ele>
        <time>2016-12-29T09:35:58Z</time>
      </trkpt>
      <trkpt lat="47.8937" lon="7.06332">
        <ele>1010</ele>
        <time>2016-12-29T09:36:08Z</time>
      </trkpt>
      <trkpt lat="47.89374" lon="7.06344">
        <ele>1013</ele>
        <time>2016-12-29T09:36:18Z</time>
      </trkpt>
      <trkpt lat="47.8938" lon="7.06354">
        <ele>1013</ele>
        <time>2016-12-29T09:36:26Z</time>
      </trkpt>
      <trkpt lat="47.89387" lon="7.06365">
        <ele>1014</ele>
        <time>2016-12-29T09:36:34Z</time>
      </trkpt>
      <trkpt lat="47.89395" lon="7.06377">
        <ele>1017</ele>
        <time>2016-12-29T09:36:44Z</time>
      </trkpt>
      <trkpt lat="47.89399" lon="7.06389">
        <ele>1018</ele>
        <time>2016-12-29T09:36:52Z</time>
      </trkpt>
      <trkpt lat="47.89404" lon="7.06402">
        <ele>1018</ele>
        <time>2016-12-29T09:37:02Z</time>
      </trkpt>
      <trkpt lat="47.8941" lon="7.06427">
        <ele>1019</ele>
        <time>2016-12-29T09:37:20Z</time>
      </trkpt>
      <trkpt lat="47.89415" lon="7.06439">
        <ele>1019</ele>
        <time>2016-12-29T09:37:34Z</time>
      </trkpt>
      <trkpt lat="47.89428" lon="7.06455">
        <ele>1022</ele>
        <time>2016-12-29T09:37:48Z</time>
      </trkpt>
      <trkpt lat="47.89437" lon="7.06464">
        <ele>1018</ele>
        <time>2016-12-29T09:37:54Z</time>
      </trkpt>
      <trkpt lat="47.89443" lon="7.06481">
        <ele>1022</ele>
        <time>2016-12-29T09:38:04Z</time>
      </trkpt>
      <trkpt lat="47.89449" lon="7.06492">
        <ele>1024</ele>
        <time>2016-12-29T09:38:12Z</time>
      </trkpt>
      <trkpt lat="47.89456" lon="7.06504">
        <ele>1025</ele>
        <time>2016-12-29T09:38:20Z</time>
      </trkpt>
      <trkpt lat="47.8946" lon="7.06516">
        <ele>1028</ele>
        <time>2016-12-29T09:38:28Z</time>
      </trkpt>
      <trkpt lat="47.89464" lon="7.06529">
        <ele>1034</ele>
        <time>2016-12-29T09:38:46Z</time>
      </trkpt>
      <trkpt lat="47.89469" lon="7.06563">
        <ele>1031</ele>
        <time>2016-12-29T09:39:08Z</time>
      </trkpt>
      <trkpt lat="47.89477" lon="7.06587">
        <ele>1029</ele>
        <time>2016-12-29T09:39:20Z</time>
      </trkpt>
      <trkpt lat="47.89486" lon="7.06608">
        <ele>1027</ele>
        <time>2016-12-29T09:39:34Z</time>
      </trkpt>
      <trkpt lat="47.89495" lon="7.06626">
        <ele>1028</ele>
        <time>2016-12-29T09:39:48Z</time>
      </trkpt>
      <trkpt lat="47.89499" lon="7.0664">
        <ele>1029</ele>
        <time>2016-12-29T09:39:56Z</time>
      </trkpt>
      <trkpt lat="47.8951" lon="7.06669">
        <ele>1033</ele>
        <time>2016-12-29T09:40:14Z</time>
      </trkpt>
      <trkpt lat="47.89514" lon="7.06682">
        <ele>1034</ele>
        <time>2016-12-29T09:40:22Z</time>
      </trkpt>
      <trkpt lat="47.8952" lon="7.06696">
        <ele>1035</ele>
        <time>2016-12-29T09:40:36Z</time>
      </trkpt>
      <trkpt lat="47.89529" lon="7.06707">
        <ele>1038</ele>
        <time>2016-12-29T09:40:44Z</time>
      </trkpt>
      <trkpt lat="47.89536" lon="7.06719">
        <ele>1036</ele>
        <time>2016-12-29T09:40:52Z</time>
      </trkpt>
      <trkpt lat="47.89544" lon="7.06728">
        <ele>1034</ele>
        <time>2016-12-29T09:41:02Z</time>
      </trkpt>
      <trkpt lat="47.89553" lon="7.06737">
        <ele>1036</ele>
        <time>2016-12-29T09:41:10Z</time>
      </trkpt>
      <trkpt lat="47.89556" lon="7.0675">
        <ele>1036</ele>
        <time>2016-12-29T09:41:28Z</time>
      </trkpt>
      <trkpt lat="47.8956" lon="7.06762">
        <ele>1034</ele>
        <time>2016-12-29T09:41:42Z</time>
      </trkpt>
      <trkpt lat="47.89577" lon="7.06773">
        <ele>1034</ele>
        <time>2016-12-29T09:41:56Z</time>
      </trkpt>
      <trkpt lat="47.89589" lon="7.06781">
        <ele>1036</ele>
        <time>2016-12-29T09:42:04Z</time>
      </trkpt>
      <trkpt lat="47.896" lon="7.0679">
        <ele>1035</ele>
        <time>2016-12-29T09:42:14Z</time>
      </trkpt>
      <trkpt lat="47.89608" lon="7.068">
        <ele>1034</ele>
        <time>2016-12-29T09:42:22Z</time>
      </trkpt>
      <trkpt lat="47.89614" lon="7.06811">
        <ele>1035</ele>
        <time>2016-12-29T09:42:30Z</time>
      </trkpt>
      <trkpt lat="47.89617" lon="7.06826">
        <ele>1032</ele>
        <time>2016-12-29T09:42:40Z</time>
      </trkpt>
      <trkpt lat="47.89621" lon="7.06841">
        <ele>1034</ele>
        <time>2016-12-29T09:42:50Z</time>
      </trkpt>
      <trkpt lat="47.89625" lon="7.06853">
        <ele>1039</ele>
        <time>2016-12-29T09:43:00Z</time>
      </trkpt>
      <trkpt lat="47.8963" lon="7.06877">
        <ele>1047</ele>
        <time>2016-12-29T09:43:28Z</time>
      </trkpt>
      <trkpt lat="47.89634" lon="7.06892">
        <ele>1048</ele>
        <time>2016-12-29T09:43:34Z</time>
      </trkpt>
      <trkpt lat="47.8964" lon="7.06907">
        <ele>1048</ele>
        <time>2016-12-29T09:43:42Z</time>
      </trkpt>
      <trkpt lat="47.89646" lon="7.06924">
        <ele>1049</ele>
        <time>2016-12-29T09:44:00Z</time>
      </trkpt>
      <trkpt lat="47.8965" lon="7.06937">
        <ele>1052</ele>
        <time>2016-12-29T09:44:50Z</time>
      </trkpt>
      <trkpt lat="47.89607" lon="7.07202">
        <ele>1071</ele>
        <time>2016-12-29T09:47:44Z</time>
      </trkpt>
      <trkpt lat="47.89606" lon="7.0722">
        <ele>1067</ele>
        <time>2016-12-29T09:47:54Z</time>
      </trkpt>
      <trkpt lat="47.89603" lon="7.07233">
        <ele>1065</ele>
        <time>2016-12-29T09:48:02Z</time>
      </trkpt>
      <trkpt lat="47.89598" lon="7.0725">
        <ele>1072</ele>
        <time>2016-12-29T09:48:22Z</time>
      </trkpt>
      <trkpt lat="47.89594" lon="7.07264">
        <ele>1060</ele>
        <time>2016-12-29T09:49:36Z</time>
      </trkpt>
      <trkpt lat="47.89587" lon="7.07315">
        <ele>1068</ele>
        <time>2016-12-29T09:50:06Z</time>
      </trkpt>
      <trkpt lat="47.89585" lon="7.0733">
        <ele>1067</ele>
        <time>2016-12-29T09:50:14Z</time>
      </trkpt>
      <trkpt lat="47.89581" lon="7.07342">
        <ele>1070</ele>
        <time>2016-12-29T09:50:22Z</time>
      </trkpt>
      <trkpt lat="47.89575" lon="7.07362">
        <ele>1072</ele>
        <time>2016-12-29T09:50:36Z</time>
      </trkpt>
      <trkpt lat="47.89571" lon="7.07376">
        <ele>1072</ele>
        <time>2016-12-29T09:50:48Z</time>
      </trkpt>
      <trkpt lat="47.89552" lon="7.07437">
        <ele>1089</ele>
        <time>2016-12-29T09:51:22Z</time>
      </trkpt>
      <trkpt lat="47.8955" lon="7.07452">
        <ele>1090</ele>
        <time>2016-12-29T09:51:30Z</time>
      </trkpt>
      <trkpt lat="47.8955" lon="7.07466">
        <ele>1090</ele>
        <time>2016-12-29T09:51:39Z</time>
      </trkpt>
      <trkpt lat="47.89551" lon="7.07492">
        <ele>1095</ele>
        <time>2016-12-29T09:51:55Z</time>
      </trkpt>
      <trkpt lat="47.89554" lon="7.07506">
        <ele>1097</ele>
        <time>2016-12-29T09:52:07Z</time>
      </trkpt>
      <trkpt lat="47.89559" lon="7.07522">
        <ele>1098</ele>
        <time>2016-12-29T09:52:17Z</time>
      </trkpt>
      <trkpt lat="47.89566" lon="7.07534">
        <ele>1099</ele>
        <time>2016-12-29T09:52:25Z</time>
      </trkpt>
      <trkpt lat="47.89571" lon="7.07549">
        <ele>1101</ele>
        <time>2016-12-29T09:52:33Z</time>
      </trkpt>
      <trkpt lat="47.89576" lon="7.07561">
        <ele>1100</ele>
        <time>2016-12-29T09:52:41Z</time>
      </trkpt>
      <trkpt lat="47.89582" lon="7.07573">
        <ele>1102</ele>
        <time>2016-12-29T09:52:49Z</time>
      </trkpt>
      <trkpt lat="47.89586" lon="7.07586">
        <ele>1105</ele>
        <time>2016-12-29T09:52:55Z</time>
      </trkpt>
      <trkpt lat="47.89596" lon="7.07606">
        <ele>1109</ele>
        <time>2016-12-29T09:53:09Z</time>
      </trkpt>
      <trkpt lat="47.89605" lon="7.07614">
        <ele>1111</ele>
        <time>2016-12-29T09:53:17Z</time>
      </trkpt>
      <trkpt lat="47.8961" lon="7.07627">
        <ele>1114</ele>
        <time>2016-12-29T09:53:25Z</time>
      </trkpt>
      <trkpt lat="47.89615" lon="7.07639">
        <ele>1115</ele>
        <time>2016-12-29T09:53:33Z</time>
      </trkpt>
      <trkpt lat="47.8962" lon="7.07655">
        <ele>1117</ele>
        <time>2016-12-29T09:53:43Z</time>
      </trkpt>
      <trkpt lat="47.89627" lon="7.07664">
        <ele>1118</ele>
        <time>2016-12-29T09:53:51Z</time>
      </trkpt>
      <trkpt lat="47.89634" lon="7.07676">
        <ele>1120</ele>
        <time>2016-12-29T09:54:01Z</time>
      </trkpt>
      <trkpt lat="47.89641" lon="7.07688">
        <ele>1119</ele>
        <time>2016-12-29T09:54:11Z</time>
      </trkpt>
      <trkpt lat="47.89658" lon="7.07705">
        <ele>1118</ele>
        <time>2016-12-29T09:54:51Z</time>
      </trkpt>
      <trkpt lat="47.89665" lon="7.07714">
        <ele>1117</ele>
        <time>2016-12-29T09:55:05Z</time>
      </trkpt>
      <trkpt lat="47.89696" lon="7.07774">
        <ele>1135</ele>
        <time>2016-12-29T09:55:51Z</time>
      </trkpt>
      <trkpt lat="47.89705" lon="7.07783">
        <ele>1135</ele>
        <time>2016-12-29T09:56:07Z</time>
      </trkpt>
      <trkpt lat="47.89762" lon="7.07832">
        <ele>1134</ele>
        <time>2016-12-29T09:57:05Z</time>
      </trkpt>
      <trkpt lat="47.89771" lon="7.07832">
        <ele>1140</ele>
        <time>2016-12-29T09:58:07Z</time>
      </trkpt>
      <trkpt lat="47.89794" lon="7.07846">
        <ele>1137</ele>
        <time>2016-12-29T09:58:25Z</time>
      </trkpt>
      <trkpt lat="47.89807" lon="7.07863">
        <ele>1139</ele>
        <time>2016-12-29T09:58:39Z</time>
      </trkpt>
      <trkpt lat="47.89812" lon="7.07875">
        <ele>1142</ele>
        <time>2016-12-29T09:58:57Z</time>
      </trkpt>
      <trkpt lat="47.89822" lon="7.07892">
        <ele>1139</ele>
        <time>2016-12-29T09:59:11Z</time>
      </trkpt>
      <trkpt lat="47.89829" lon="7.07905">
        <ele>1136</ele>
        <time>2016-12-29T09:59:21Z</time>
      </trkpt>
      <trkpt lat="47.89843" lon="7.0794">
        <ele>1137</ele>
        <time>2016-12-29T09:59:43Z</time>
      </trkpt>
      <trkpt lat="47.89854" lon="7.07961">
        <ele>1137</ele>
        <time>2016-12-29T09:59:57Z</time>
      </trkpt>
      <trkpt lat="47.89864" lon="7.07993">
        <ele>1139</ele>
        <time>2016-12-29T10:00:23Z</time>
      </trkpt>
      <trkpt lat="47.8987" lon="7.08006">
        <ele>1139</ele>
        <time>2016-12-29T10:00:33Z</time>
      </trkpt>
      <trkpt lat="47.89873" lon="7.08019">
        <ele>1140</ele>
        <time>2016-12-29T10:00:41Z</time>
      </trkpt>
      <trkpt lat="47.89877" lon="7.08031">
        <ele>1138</ele>
        <time>2016-12-29T10:00:49Z</time>
      </trkpt>
      <trkpt lat="47.89885" lon="7.08046">
        <ele>1136</ele>
        <time>2016-12-29T10:01:01Z</time>
      </trkpt>
      <trkpt lat="47.89889" lon="7.08059">
        <ele>1136</ele>
        <time>2016-12-29T10:01:09Z</time>
      </trkpt>
      <trkpt lat="47.89894" lon="7.08071">
        <ele>1133</ele>
        <time>2016-12-29T10:01:17Z</time>
      </trkpt>
      <trkpt lat="47.89897" lon="7.08085">
        <ele>1135</ele>
        <time>2016-12-29T10:01:25Z</time>
      </trkpt>
      <trkpt lat="47.89899" lon="7.08102">
        <ele>1142</ele>
        <time>2016-12-29T10:01:35Z</time>
      </trkpt>
      <trkpt lat="47.89904" lon="7.08116">
        <ele>1144</ele>
        <time>2016-12-29T10:01:43Z</time>
      </trkpt>
      <trkpt lat="47.89909" lon="7.0813">
        <ele>1146</ele>
        <time>2016-12-29T10:01:51Z</time>
      </trkpt>
      <trkpt lat="47.89915" lon="7.08146">
        <ele>1142</ele>
        <time>2016-12-29T10:02:01Z</time>
      </trkpt>
      <trkpt lat="47.89922" lon="7.08166">
        <ele>1143</ele>
        <time>2016-12-29T10:02:11Z</time>
      </trkpt>
      <trkpt lat="47.89927" lon="7.08179">
        <ele>1142</ele>
        <time>2016-12-29T10:02:17Z</time>
      </trkpt>
      <trkpt lat="47.89934" lon="7.08195">
        <ele>1146</ele>
        <time>2016-12-29T10:02:29Z</time>
      </trkpt>
      <trkpt lat="47.89938" lon="7.08209">
        <ele>1151</ele>
        <time>2016-12-29T10:02:39Z</time>
      </trkpt>
      <trkpt lat="47.89941" lon="7.08223">
        <ele>1148</ele>
        <time>2016-12-29T10:02:47Z</time>
      </trkpt>
      <trkpt lat="47.89945" lon="7.08236">
        <ele>1151</ele>
        <time>2016-12-29T10:02:57Z</time>
      </trkpt>
      <trkpt lat="47.89949" lon="7.08249">
        <ele>1158</ele>
        <time>2016-12-29T10:03:05Z</time>
      </trkpt>
      <trkpt lat="47.89958" lon="7.08272">
        <ele>1163</ele>
        <time>2016-12-29T10:03:19Z</time>
      </trkpt>
      <trkpt lat="47.89962" lon="7.08285">
        <ele>1162</ele>
        <time>2016-12-29T10:03:27Z</time>
      </trkpt>
      <trkpt lat="47.89968" lon="7.083">
        <ele>1161</ele>
        <time>2016-12-29T10:03:37Z</time>
      </trkpt>
      <trkpt lat="47.89976" lon="7.08317">
        <ele>1159</ele>
        <time>2016-12-29T10:03:49Z</time>
      </trkpt>
      <trkpt lat="47.89982" lon="7.08333">
        <ele>1158</ele>
        <time>2016-12-29T10:03:59Z</time>
      </trkpt>
      <trkpt lat="47.89989" lon="7.08343">
        <ele>1156</ele>
        <time>2016-12-29T10:04:09Z</time>
      </trkpt>
      <trkpt lat="47.89994" lon="7.08364">
        <ele>1159</ele>
        <time>2016-12-29T10:04:19Z</time>
      </trkpt>
      <trkpt lat="47.89998" lon="7.08381">
        <ele>1164</ele>
        <time>2016-12-29T10:04:27Z</time>
      </trkpt>
      <trkpt lat="47.90005" lon="7.08391">
        <ele>1165</ele>
        <time>2016-12-29T10:04:37Z</time>
      </trkpt>
      <trkpt lat="47.90012" lon="7.08401">
        <ele>1165</ele>
        <time>2016-12-29T10:04:45Z</time>
      </trkpt>
      <trkpt lat="47.9002" lon="7.08409">
        <ele>1162</ele>
        <time>2016-12-29T10:04:53Z</time>
      </trkpt>
      <trkpt lat="47.90027" lon="7.08419">
        <ele>1163</ele>
        <time>2016-12-29T10:05:01Z</time>
      </trkpt>
      <trkpt lat="47.90037" lon="7.08437">
        <ele>1168</ele>
        <time>2016-12-29T10:05:15Z</time>
      </trkpt>
      <trkpt lat="47.90045" lon="7.08444">
        <ele>1171</ele>
        <time>2016-12-29T10:05:25Z</time>
      </trkpt>
      <trkpt lat="47.9007" lon="7.08471">
        <ele>1163</ele>
        <time>2016-12-29T10:05:53Z</time>
      </trkpt>
      <trkpt lat="47.90079" lon="7.0848">
        <ele>1167</ele>
        <time>2016-12-29T10:06:03Z</time>
      </trkpt>
      <trkpt lat="47.90106" lon="7.08512">
        <ele>1176</ele>
        <time>2016-12-29T10:06:31Z</time>
      </trkpt>
      <trkpt lat="47.90115" lon="7.08517">
        <ele>1170</ele>
        <time>2016-12-29T10:07:03Z</time>
      </trkpt>
      <trkpt lat="47.90131" lon="7.08527">
        <ele>1166</ele>
        <time>2016-12-29T10:07:23Z</time>
      </trkpt>
      <trkpt lat="47.90144" lon="7.08527">
        <ele>1162</ele>
        <time>2016-12-29T10:07:35Z</time>
      </trkpt>
      <trkpt lat="47.90152" lon="7.08536">
        <ele>1170</ele>
        <time>2016-12-29T10:07:42Z</time>
      </trkpt>
      <trkpt lat="47.90174" lon="7.08556">
        <ele>1172</ele>
        <time>2016-12-29T10:08:02Z</time>
      </trkpt>
      <trkpt lat="47.90183" lon="7.08563">
        <ele>1175</ele>
        <time>2016-12-29T10:08:08Z</time>
      </trkpt>
      <trkpt lat="47.90191" lon="7.08572">
        <ele>1176</ele>
        <time>2016-12-29T10:08:14Z</time>
      </trkpt>
      <trkpt lat="47.902" lon="7.08585">
        <ele>1180</ele>
        <time>2016-12-29T10:08:22Z</time>
      </trkpt>
      <trkpt lat="47.90282" lon="7.08656">
        <ele>1187</ele>
        <time>2016-12-29T10:09:46Z</time>
      </trkpt>
      <trkpt lat="47.90289" lon="7.08665">
        <ele>1190</ele>
        <time>2016-12-29T10:09:54Z</time>
      </trkpt>
      <trkpt lat="47.90315" lon="7.08685">
        <ele>1188</ele>
        <time>2016-12-29T10:10:22Z</time>
      </trkpt>
      <trkpt lat="47.90324" lon="7.08691">
        <ele>1187</ele>
        <time>2016-12-29T10:10:32Z</time>
      </trkpt>
      <trkpt lat="47.90339" lon="7.0871">
        <ele>1192</ele>
        <time>2016-12-29T10:10:46Z</time>
      </trkpt>
      <trkpt lat="47.90344" lon="7.08722">
        <ele>1194</ele>
        <time>2016-12-29T10:11:50Z</time>
      </trkpt>
      <trkpt lat="47.9037" lon="7.08741">
        <ele>1198</ele>
        <time>2016-12-29T10:12:14Z</time>
      </trkpt>
      <trkpt lat="47.90379" lon="7.0875">
        <ele>1198</ele>
        <time>2016-12-29T10:12:24Z</time>
      </trkpt>
      <trkpt lat="47.90386" lon="7.0876">
        <ele>1198</ele>
        <time>2016-12-29T10:12:34Z</time>
      </trkpt>
      <trkpt lat="47.90393" lon="7.0877">
        <ele>1198</ele>
        <time>2016-12-29T10:12:44Z</time>
      </trkpt>
      <trkpt lat="47.90404" lon="7.08788">
        <ele>1202</ele>
        <time>2016-12-29T10:13:00Z</time>
      </trkpt>
      <trkpt lat="47.9041" lon="7.08801">
        <ele>1206</ele>
        <time>2016-12-29T10:13:10Z</time>
      </trkpt>
      <trkpt lat="47.90415" lon="7.08813">
        <ele>1209</ele>
        <time>2016-12-29T10:13:18Z</time>
      </trkpt>
      <trkpt lat="47.90418" lon="7.08827">
        <ele>1211</ele>
        <time>2016-12-29T10:13:26Z</time>
      </trkpt>
      <trkpt lat="47.90422" lon="7.08844">
        <ele>1213</ele>
        <time>2016-12-29T10:13:40Z</time>
      </trkpt>
      <trkpt lat="47.90425" lon="7.08861">
        <ele>1214</ele>
        <time>2016-12-29T10:13:52Z</time>
      </trkpt>
      <trkpt lat="47.90437" lon="7.08897">
        <ele>1219</ele>
        <time>2016-12-29T10:14:16Z</time>
      </trkpt>
      <trkpt lat="47.90441" lon="7.08911">
        <ele>1221</ele>
        <time>2016-12-29T10:14:26Z</time>
      </trkpt>
      <trkpt lat="47.9045" lon="7.08938">
        <ele>1224</ele>
        <time>2016-12-29T10:15:06Z</time>
      </trkpt>
      <trkpt lat="47.90463" lon="7.08961">
        <ele>1226</ele>
        <time>2016-12-29T10:15:26Z</time>
      </trkpt>
      <trkpt lat="47.90469" lon="7.08971">
        <ele>1227</ele>
        <time>2016-12-29T10:15:36Z</time>
      </trkpt>
      <trkpt lat="47.90477" lon="7.0898">
        <ele>1229</ele>
        <time>2016-12-29T10:15:46Z</time>
      </trkpt>
      <trkpt lat="47.90486" lon="7.08978">
        <ele>1231</ele>
        <time>2016-12-29T10:16:00Z</time>
      </trkpt>
      <trkpt lat="47.90495" lon="7.08982">
        <ele>1233</ele>
        <time>2016-12-29T10:16:24Z</time>
      </trkpt>
      <trkpt lat="47.90503" lon="7.0899">
        <ele>1235</ele>
        <time>2016-12-29T10:17:10Z</time>
      </trkpt>
      <trkpt lat="47.90512" lon="7.08993">
        <ele>1235</ele>
        <time>2016-12-29T10:17:22Z</time>
      </trkpt>
      <trkpt lat="47.9052" lon="7.09">
        <ele>1235</ele>
        <time>2016-12-29T10:17:38Z</time>
      </trkpt>
      <trkpt lat="47.90524" lon="7.08984">
        <ele>1232</ele>
        <time>2016-12-29T10:27:03Z</time>
      </trkpt>
      <trkpt lat="47.9053" lon="7.08973">
        <ele>1233</ele>
        <time>2016-12-29T10:27:11Z</time>
      </trkpt>
      <trkpt lat="47.90534" lon="7.08961">
        <ele>1236</ele>
        <time>2016-12-29T10:27:21Z</time>
      </trkpt>
      <trkpt lat="47.90538" lon="7.08941">
        <ele>1238</ele>
        <time>2016-12-29T10:27:35Z</time>
      </trkpt>
      <trkpt lat="47.90555" lon="7.08887">
        <ele>1250</ele>
        <time>2016-12-29T10:28:15Z</time>
      </trkpt>
      <trkpt lat="47.90558" lon="7.08873">
        <ele>1252</ele>
        <time>2016-12-29T10:28:29Z</time>
      </trkpt>
      <trkpt lat="47.90559" lon="7.08856">
        <ele>1252</ele>
        <time>2016-12-29T10:28:45Z</time>
      </trkpt>
      <trkpt lat="47.90558" lon="7.08842">
        <ele>1252</ele>
        <time>2016-12-29T10:28:53Z</time>
      </trkpt>
      <trkpt lat="47.9056" lon="7.08815">
        <ele>1252</ele>
        <time>2016-12-29T10:29:09Z</time>
      </trkpt>
      <trkpt lat="47.9056" lon="7.08792">
        <ele>1253</ele>
        <time>2016-12-29T10:29:23Z</time>
      </trkpt>
      <trkpt lat="47.90561" lon="7.08753">
        <ele>1260</ele>
        <time>2016-12-29T10:29:45Z</time>
      </trkpt>
      <trkpt lat="47.90561" lon="7.08737">
        <ele>1258</ele>
        <time>2016-12-29T10:29:55Z</time>
      </trkpt>
      <trkpt lat="47.90562" lon="7.08719">
        <ele>1260</ele>
        <time>2016-12-29T10:30:11Z</time>
      </trkpt>
      <trkpt lat="47.90563" lon="7.08692">
        <ele>1265</ele>
        <time>2016-12-29T10:30:27Z</time>
      </trkpt>
      <trkpt lat="47.90563" lon="7.08676">
        <ele>1270</ele>
        <time>2016-12-29T10:30:35Z</time>
      </trkpt>
      <trkpt lat="47.90562" lon="7.08661">
        <ele>1268</ele>
        <time>2016-12-29T10:30:44Z</time>
      </trkpt>
      <trkpt lat="47.9056" lon="7.08648">
        <ele>1273</ele>
        <time>2016-12-29T10:30:52Z</time>
      </trkpt>
      <trkpt lat="47.90568" lon="7.08577">
        <ele>1292</ele>
        <time>2016-12-29T10:32:18Z</time>
      </trkpt>
      <trkpt lat="47.90567" lon="7.08563">
        <ele>1298</ele>
        <time>2016-12-29T10:32:38Z</time>
      </trkpt>
      <trkpt lat="47.90568" lon="7.08544">
        <ele>1304</ele>
        <time>2016-12-29T10:32:58Z</time>
      </trkpt>
      <trkpt lat="47.90571" lon="7.08531">
        <ele>1310</ele>
        <time>2016-12-29T10:34:19Z</time>
      </trkpt>
      <trkpt lat="47.90572" lon="7.08508">
        <ele>1315</ele>
        <time>2016-12-29T10:34:51Z</time>
      </trkpt>
      <trkpt lat="47.90566" lon="7.08498">
        <ele>1312</ele>
        <time>2016-12-29T10:35:17Z</time>
      </trkpt>
      <trkpt lat="47.90555" lon="7.08468">
        <ele>1312</ele>
        <time>2016-12-29T10:35:39Z</time>
      </trkpt>
      <trkpt lat="47.90551" lon="7.08456">
        <ele>1312</ele>
        <time>2016-12-29T10:35:55Z</time>
      </trkpt>
      <trkpt lat="47.90547" lon="7.08441">
        <ele>1315</ele>
        <time>2016-12-29T10:36:07Z</time>
      </trkpt>
      <trkpt lat="47.90546" lon="7.08426">
        <ele>1322</ele>
        <time>2016-12-29T10:36:29Z</time>
      </trkpt>
      <trkpt lat="47.90549" lon="7.08407">
        <ele>1333</ele>
        <time>2016-12-29T10:36:43Z</time>
      </trkpt>
      <trkpt lat="47.90547" lon="7.08393">
        <ele>1331</ele>
        <time>2016-12-29T10:36:55Z</time>
      </trkpt>
      <trkpt lat="47.90534" lon="7.08358">
        <ele>1342</ele>
        <time>2016-12-29T10:37:37Z</time>
      </trkpt>
      <trkpt lat="47.90527" lon="7.08347">
        <ele>1346</ele>
        <time>2016-12-29T10:37:53Z</time>
      </trkpt>
      <trkpt lat="47.90519" lon="7.08339">
        <ele>1350</ele>
        <time>2016-12-29T10:38:05Z</time>
      </trkpt>
      <trkpt lat="47.9052" lon="7.08325">
        <ele>1352</ele>
        <time>2016-12-29T10:38:15Z</time>
      </trkpt>
      <trkpt lat="47.90515" lon="7.08312">
        <ele>1354</ele>
        <time>2016-12-29T10:38:37Z</time>
      </trkpt>
      <trkpt lat="47.9051" lon="7.08297">
        <ele>1356</ele>
        <time>2016-12-29T10:38:49Z</time>
      </trkpt>
      <trkpt lat="47.90508" lon="7.08282">
        <ele>1356</ele>
        <time>2016-12-29T10:38:59Z</time>
      </trkpt>
      <trkpt lat="47.90502" lon="7.0827">
        <ele>1358</ele>
        <time>2016-12-29T10:39:13Z</time>
      </trkpt>
      <trkpt lat="47.90498" lon="7.08256">
        <ele>1360</ele>
        <time>2016-12-29T10:39:25Z</time>
      </trkpt>
      <trkpt lat="47.9049" lon="7.08231">
        <ele>1362</ele>
        <time>2016-12-29T10:39:43Z</time>
      </trkpt>
      <trkpt lat="47.90486" lon="7.08218">
        <ele>1365</ele>
        <time>2016-12-29T10:39:55Z</time>
      </trkpt>
      <trkpt lat="47.90487" lon="7.08209">
        <ele>1346</ele>
        <time>2016-12-29T10:42:25Z</time>
      </trkpt>
      <trkpt lat="47.9049" lon="7.08196">
        <ele>1364</ele>
        <time>2016-12-29T10:49:55Z</time>
      </trkpt>
      <trkpt lat="47.90482" lon="7.08163">
        <ele>1356</ele>
        <time>2016-12-29T10:50:23Z</time>
      </trkpt>
      <trkpt lat="47.90479" lon="7.0815">
        <ele>1355</ele>
        <time>2016-12-29T10:50:34Z</time>
      </trkpt>
      <trkpt lat="47.90474" lon="7.08137">
        <ele>1351</ele>
        <time>2016-12-29T10:51:03Z</time>
      </trkpt>
      <trkpt lat="47.90468" lon="7.08127">
        <ele>1347</ele>
        <time>2016-12-29T10:51:11Z</time>
      </trkpt>
      <trkpt lat="47.90459" lon="7.08116">
        <ele>1342</ele>
        <time>2016-12-29T10:51:21Z</time>
      </trkpt>
      <trkpt lat="47.9045" lon="7.081">
        <ele>1340</ele>
        <time>2016-12-29T10:51:33Z</time>
      </trkpt>
      <trkpt lat="47.9044" lon="7.08094">
        <ele>1341</ele>
        <time>2016-12-29T10:51:41Z</time>
      </trkpt>
      <trkpt lat="47.90432" lon="7.081">
        <ele>1339</ele>
        <time>2016-12-29T10:52:43Z</time>
      </trkpt>
      <trkpt lat="47.90424" lon="7.08109">
        <ele>1344</ele>
        <time>2016-12-29T10:53:03Z</time>
      </trkpt>
      <trkpt lat="47.9042" lon="7.08123">
        <ele>1345</ele>
        <time>2016-12-29T10:53:19Z</time>
      </trkpt>
      <trkpt lat="47.90413" lon="7.08133">
        <ele>1351</ele>
        <time>2016-12-29T11:41:19Z</time>
      </trkpt>
      <trkpt lat="47.90405" lon="7.08142">
        <ele>1349</ele>
        <time>2016-12-29T11:41:27Z</time>
      </trkpt>
      <trkpt lat="47.90413" lon="7.08136">
        <ele>1347</ele>
        <time>2016-12-29T11:42:41Z</time>
      </trkpt>
      <trkpt lat="47.90419" lon="7.08126">
        <ele>1346</ele>
        <time>2016-12-29T11:46:51Z</time>
      </trkpt>
      <trkpt lat="47.90415" lon="7.08103">
        <ele>1347</ele>
        <time>2016-12-29T11:47:15Z</time>
      </trkpt>
      <trkpt lat="47.90412" lon="7.08088">
        <ele>1345</ele>
        <time>2016-12-29T11:47:25Z</time>
      </trkpt>
      <trkpt lat="47.90405" lon="7.08077">
        <ele>1344</ele>
        <time>2016-12-29T11:47:35Z</time>
      </trkpt>
      <trkpt lat="47.90397" lon="7.08063">
        <ele>1345</ele>
        <time>2016-12-29T11:47:53Z</time>
      </trkpt>
      <trkpt lat="47.9039" lon="7.08051">
        <ele>1345</ele>
        <time>2016-12-29T11:48:03Z</time>
      </trkpt>
      <trkpt lat="47.90384" lon="7.0804">
        <ele>1345</ele>
        <time>2016-12-29T11:48:15Z</time>
      </trkpt>
      <trkpt lat="47.9038" lon="7.08027">
        <ele>1343</ele>
        <time>2016-12-29T11:48:29Z</time>
      </trkpt>
      <trkpt lat="47.90374" lon="7.08015">
        <ele>1344</ele>
        <time>2016-12-29T11:48:39Z</time>
      </trkpt>
      <trkpt lat="47.9034" lon="7.07946">
        <ele>1342</ele>
        <time>2016-12-29T11:49:31Z</time>
      </trkpt>
      <trkpt lat="47.90332" lon="7.07929">
        <ele>1344</ele>
        <time>2016-12-29T11:49:45Z</time>
      </trkpt>
      <trkpt lat="47.90327" lon="7.07915">
        <ele>1344</ele>
        <time>2016-12-29T11:49:57Z</time>
      </trkpt>
      <trkpt lat="47.90326" lon="7.07901">
        <ele>1346</ele>
        <time>2016-12-29T11:50:27Z</time>
      </trkpt>
      <trkpt lat="47.90335" lon="7.07888">
        <ele>1346</ele>
        <time>2016-12-29T11:50:49Z</time>
      </trkpt>
      <trkpt lat="47.90347" lon="7.07879">
        <ele>1346</ele>
        <time>2016-12-29T11:51:03Z</time>
      </trkpt>
      <trkpt lat="47.90368" lon="7.07855">
        <ele>1344</ele>
        <time>2016-12-29T11:51:34Z</time>
      </trkpt>
      <trkpt lat="47.90376" lon="7.07844">
        <ele>1343</ele>
        <time>2016-12-29T11:51:46Z</time>
      </trkpt>
      <trkpt lat="47.90385" lon="7.07839">
        <ele>1343</ele>
        <time>2016-12-29T11:51:58Z</time>
      </trkpt>
      <trkpt lat="47.90395" lon="7.07844">
        <ele>1341</ele>
        <time>2016-12-29T11:52:22Z</time>
      </trkpt>
      <trkpt lat="47.90404" lon="7.07853">
        <ele>1340</ele>
        <time>2016-12-29T11:52:32Z</time>
      </trkpt>
      <trkpt lat="47.90393" lon="7.07846">
        <ele>1340</ele>
        <time>2016-12-29T11:54:12Z</time>
      </trkpt>
      <trkpt lat="47.90387" lon="7.07835">
        <ele>1339</ele>
        <time>2016-12-29T11:54:22Z</time>
      </trkpt>
      <trkpt lat="47.90388" lon="7.07818">
        <ele>1337</ele>
        <time>2016-12-29T11:54:34Z</time>
      </trkpt>
      <trkpt lat="47.90387" lon="7.07803">
        <ele>1333</ele>
        <time>2016-12-29T11:54:44Z</time>
      </trkpt>
      <trkpt lat="47.90384" lon="7.07787">
        <ele>1328</ele>
        <time>2016-12-29T11:54:54Z</time>
      </trkpt>
      <trkpt lat="47.90384" lon="7.07773">
        <ele>1322</ele>
        <time>2016-12-29T11:55:06Z</time>
      </trkpt>
      <trkpt lat="47.90388" lon="7.0776">
        <ele>1323</ele>
        <time>2016-12-29T11:55:28Z</time>
      </trkpt>
      <trkpt lat="47.90395" lon="7.07746">
        <ele>1322</ele>
        <time>2016-12-29T11:55:38Z</time>
      </trkpt>
      <trkpt lat="47.90404" lon="7.07732">
        <ele>1321</ele>
        <time>2016-12-29T11:55:52Z</time>
      </trkpt>
      <trkpt lat="47.90405" lon="7.07718">
        <ele>1317</ele>
        <time>2016-12-29T11:56:02Z</time>
      </trkpt>
      <trkpt lat="47.90406" lon="7.07702">
        <ele>1315</ele>
        <time>2016-12-29T11:56:12Z</time>
      </trkpt>
      <trkpt lat="47.90402" lon="7.07679">
        <ele>1312</ele>
        <time>2016-12-29T11:56:32Z</time>
      </trkpt>
      <trkpt lat="47.90395" lon="7.0767">
        <ele>1309</ele>
        <time>2016-12-29T11:57:32Z</time>
      </trkpt>
      <trkpt lat="47.90404" lon="7.07662">
        <ele>1306</ele>
        <time>2016-12-29T11:58:38Z</time>
      </trkpt>
      <trkpt lat="47.90408" lon="7.07648">
        <ele>1301</ele>
        <time>2016-12-29T11:58:48Z</time>
      </trkpt>
      <trkpt lat="47.90412" lon="7.07632">
        <ele>1299</ele>
        <time>2016-12-29T11:58:58Z</time>
      </trkpt>
      <trkpt lat="47.90416" lon="7.0762">
        <ele>1297</ele>
        <time>2016-12-29T11:59:06Z</time>
      </trkpt>
      <trkpt lat="47.90419" lon="7.07598">
        <ele>1293</ele>
        <time>2016-12-29T11:59:18Z</time>
      </trkpt>
      <trkpt lat="47.9042" lon="7.07584">
        <ele>1292</ele>
        <time>2016-12-29T11:59:24Z</time>
      </trkpt>
      <trkpt lat="47.90425" lon="7.07559">
        <ele>1292</ele>
        <time>2016-12-29T11:59:36Z</time>
      </trkpt>
      <trkpt lat="47.90429" lon="7.07546">
        <ele>1288</ele>
        <time>2016-12-29T11:59:46Z</time>
      </trkpt>
      <trkpt lat="47.90432" lon="7.07531">
        <ele>1285</ele>
        <time>2016-12-29T11:59:54Z</time>
      </trkpt>
      <trkpt lat="47.90438" lon="7.07505">
        <ele>1286</ele>
        <time>2016-12-29T12:00:06Z</time>
      </trkpt>
      <trkpt lat="47.9044" lon="7.07492">
        <ele>1284</ele>
        <time>2016-12-29T12:00:14Z</time>
      </trkpt>
      <trkpt lat="47.9044" lon="7.07478">
        <ele>1286</ele>
        <time>2016-12-29T12:00:20Z</time>
      </trkpt>
      <trkpt lat="47.90442" lon="7.07462">
        <ele>1285</ele>
        <time>2016-12-29T12:00:28Z</time>
      </trkpt>
      <trkpt lat="47.90444" lon="7.07448">
        <ele>1287</ele>
        <time>2016-12-29T12:00:34Z</time>
      </trkpt>
      <trkpt lat="47.90448" lon="7.07433">
        <ele>1286</ele>
        <time>2016-12-29T12:00:42Z</time>
      </trkpt>
      <trkpt lat="47.90452" lon="7.07415">
        <ele>1286</ele>
        <time>2016-12-29T12:00:54Z</time>
      </trkpt>
      <trkpt lat="47.90454" lon="7.07375">
        <ele>1288</ele>
        <time>2016-12-29T12:01:10Z</time>
      </trkpt>
      <trkpt lat="47.90459" lon="7.07339">
        <ele>1289</ele>
        <time>2016-12-29T12:01:26Z</time>
      </trkpt>
      <trkpt lat="47.90459" lon="7.07324">
        <ele>1287</ele>
        <time>2016-12-29T12:01:36Z</time>
      </trkpt>
      <trkpt lat="47.90467" lon="7.07314">
        <ele>1282</ele>
        <time>2016-12-29T12:02:08Z</time>
      </trkpt>
      <trkpt lat="47.9048" lon="7.07286">
        <ele>1281</ele>
        <time>2016-12-29T12:02:24Z</time>
      </trkpt>
      <trkpt lat="47.90487" lon="7.07275">
        <ele>1283</ele>
        <time>2016-12-29T12:02:32Z</time>
      </trkpt>
      <trkpt lat="47.90492" lon="7.07237">
        <ele>1275</ele>
        <time>2016-12-29T12:03:12Z</time>
      </trkpt>
      <trkpt lat="47.905" lon="7.07219">
        <ele>1274</ele>
        <time>2016-12-29T12:03:26Z</time>
      </trkpt>
      <trkpt lat="47.90495" lon="7.07205">
        <ele>1271</ele>
        <time>2016-12-29T12:03:34Z</time>
      </trkpt>
      <trkpt lat="47.90496" lon="7.07189">
        <ele>1271</ele>
        <time>2016-12-29T12:03:42Z</time>
      </trkpt>
      <trkpt lat="47.90499" lon="7.07175">
        <ele>1271</ele>
        <time>2016-12-29T12:03:48Z</time>
      </trkpt>
      <trkpt lat="47.90503" lon="7.0716">
        <ele>1271</ele>
        <time>2016-12-29T12:03:56Z</time>
      </trkpt>
      <trkpt lat="47.90505" lon="7.07147">
        <ele>1270</ele>
        <time>2016-12-29T12:04:04Z</time>
      </trkpt>
      <trkpt lat="47.90502" lon="7.07125">
        <ele>1270</ele>
        <time>2016-12-29T12:04:14Z</time>
      </trkpt>
      <trkpt lat="47.90504" lon="7.07105">
        <ele>1269</ele>
        <time>2016-12-29T12:04:24Z</time>
      </trkpt>
      <trkpt lat="47.90509" lon="7.07093">
        <ele>1266</ele>
        <time>2016-12-29T12:04:34Z</time>
      </trkpt>
      <trkpt lat="47.9051" lon="7.07077">
        <ele>1264</ele>
        <time>2016-12-29T12:04:44Z</time>
      </trkpt>
      <trkpt lat="47.90511" lon="7.07057">
        <ele>1261</ele>
        <time>2016-12-29T12:04:56Z</time>
      </trkpt>
      <trkpt lat="47.90519" lon="7.07049">
        <ele>1257</ele>
        <time>2016-12-29T12:05:06Z</time>
      </trkpt>
      <trkpt lat="47.90531" lon="7.07039">
        <ele>1255</ele>
        <time>2016-12-29T12:05:20Z</time>
      </trkpt>
      <trkpt lat="47.9054" lon="7.07035">
        <ele>1254</ele>
        <time>2016-12-29T12:05:32Z</time>
      </trkpt>
      <trkpt lat="47.90546" lon="7.07024">
        <ele>1245</ele>
        <time>2016-12-29T12:05:50Z</time>
      </trkpt>
      <trkpt lat="47.90556" lon="7.07018">
        <ele>1239</ele>
        <time>2016-12-29T12:06:06Z</time>
      </trkpt>
      <trkpt lat="47.90566" lon="7.07013">
        <ele>1234</ele>
        <time>2016-12-29T12:06:20Z</time>
      </trkpt>
      <trkpt lat="47.90576" lon="7.07008">
        <ele>1232</ele>
        <time>2016-12-29T12:06:30Z</time>
      </trkpt>
      <trkpt lat="47.90593" lon="7.07003">
        <ele>1236</ele>
        <time>2016-12-29T12:06:44Z</time>
      </trkpt>
      <trkpt lat="47.90606" lon="7.07002">
        <ele>1234</ele>
        <time>2016-12-29T12:06:54Z</time>
      </trkpt>
      <trkpt lat="47.90615" lon="7.06997">
        <ele>1239</ele>
        <time>2016-12-29T12:07:02Z</time>
      </trkpt>
      <trkpt lat="47.90652" lon="7.06978">
        <ele>1227</ele>
        <time>2016-12-29T12:07:36Z</time>
      </trkpt>
      <trkpt lat="47.90668" lon="7.06965">
        <ele>1230</ele>
        <time>2016-12-29T12:07:52Z</time>
      </trkpt>
      <trkpt lat="47.90672" lon="7.06952">
        <ele>1258</ele>
        <time>2016-12-29T12:08:00Z</time>
      </trkpt>
      <trkpt lat="47.90679" lon="7.0694">
        <ele>1219</ele>
        <time>2016-12-29T12:08:08Z</time>
      </trkpt>
      <trkpt lat="47.90685" lon="7.0693">
        <ele>1219</ele>
        <time>2016-12-29T12:08:16Z</time>
      </trkpt>
      <trkpt lat="47.90701" lon="7.06896">
        <ele>1214</ele>
        <time>2016-12-29T12:08:39Z</time>
      </trkpt>
      <trkpt lat="47.9071" lon="7.06886">
        <ele>1219</ele>
        <time>2016-12-29T12:08:53Z</time>
      </trkpt>
      <trkpt lat="47.90718" lon="7.06878">
        <ele>1250</ele>
        <time>2016-12-29T12:09:09Z</time>
      </trkpt>
      <trkpt lat="47.90728" lon="7.06867">
        <ele>1225</ele>
        <time>2016-12-29T12:09:21Z</time>
      </trkpt>
      <trkpt lat="47.9074" lon="7.06856">
        <ele>1215</ele>
        <time>2016-12-29T12:09:33Z</time>
      </trkpt>
      <trkpt lat="47.90784" lon="7.06814">
        <ele>1242</ele>
        <time>2016-12-29T12:10:19Z</time>
      </trkpt>
      <trkpt lat="47.90795" lon="7.06806">
        <ele>1242</ele>
        <time>2016-12-29T12:10:29Z</time>
      </trkpt>
      <trkpt lat="47.90804" lon="7.06795">
        <ele>1241</ele>
        <time>2016-12-29T12:10:39Z</time>
      </trkpt>
      <trkpt lat="47.90826" lon="7.06778">
        <ele>1240</ele>
        <time>2016-12-29T12:10:59Z</time>
      </trkpt>
      <trkpt lat="47.90839" lon="7.06761">
        <ele>1213</ele>
        <time>2016-12-29T12:11:13Z</time>
      </trkpt>
      <trkpt lat="47.90848" lon="7.06762">
        <ele>1200</ele>
        <time>2016-12-29T12:11:27Z</time>
      </trkpt>
      <trkpt lat="47.90857" lon="7.06758">
        <ele>1200</ele>
        <time>2016-12-29T12:11:37Z</time>
      </trkpt>
      <trkpt lat="47.90864" lon="7.06749">
        <ele>1204</ele>
        <time>2016-12-29T12:11:45Z</time>
      </trkpt>
      <trkpt lat="47.9088" lon="7.06729">
        <ele>1206</ele>
        <time>2016-12-29T12:12:05Z</time>
      </trkpt>
      <trkpt lat="47.90894" lon="7.0672">
        <ele>1225</ele>
        <time>2016-12-29T12:12:19Z</time>
      </trkpt>
      <trkpt lat="47.9091" lon="7.06709">
        <ele>1201</ele>
        <time>2016-12-29T12:12:35Z</time>
      </trkpt>
      <trkpt lat="47.90919" lon="7.06698">
        <ele>1201</ele>
        <time>2016-12-29T12:12:45Z</time>
      </trkpt>
      <trkpt lat="47.90927" lon="7.0669">
        <ele>1205</ele>
        <time>2016-12-29T12:12:53Z</time>
      </trkpt>
      <trkpt lat="47.90943" lon="7.06669">
        <ele>1207</ele>
        <time>2016-12-29T12:13:13Z</time>
      </trkpt>
      <trkpt lat="47.90951" lon="7.06658">
        <ele>1203</ele>
        <time>2016-12-29T12:13:25Z</time>
      </trkpt>
      <trkpt lat="47.90958" lon="7.06648">
        <ele>1203</ele>
        <time>2016-12-29T12:13:37Z</time>
      </trkpt>
      <trkpt lat="47.90968" lon="7.06636">
        <ele>1213</ele>
        <time>2016-12-29T12:13:51Z</time>
      </trkpt>
      <trkpt lat="47.90977" lon="7.06625">
        <ele>1214</ele>
        <time>2016-12-29T12:14:01Z</time>
      </trkpt>
      <trkpt lat="47.90983" lon="7.06614">
        <ele>1229</ele>
        <time>2016-12-29T12:14:09Z</time>
      </trkpt>
      <trkpt lat="47.90993" lon="7.066">
        <ele>1216</ele>
        <time>2016-12-29T12:14:21Z</time>
      </trkpt>
      <trkpt lat="47.91028" lon="7.06537">
        <ele>1205</ele>
        <time>2016-12-29T12:15:09Z</time>
      </trkpt>
      <trkpt lat="47.91037" lon="7.06521">
        <ele>1215</ele>
        <time>2016-12-29T12:15:21Z</time>
      </trkpt>
      <trkpt lat="47.91045" lon="7.06507">
        <ele>1215</ele>
        <time>2016-12-29T12:15:31Z</time>
      </trkpt>
      <trkpt lat="47.9105" lon="7.06495">
        <ele>1206</ele>
        <time>2016-12-29T12:15:39Z</time>
      </trkpt>
      <trkpt lat="47.91056" lon="7.06483">
        <ele>1207</ele>
        <time>2016-12-29T12:15:47Z</time>
      </trkpt>
      <trkpt lat="47.91063" lon="7.06474">
        <ele>1208</ele>
        <time>2016-12-29T12:15:55Z</time>
      </trkpt>
      <trkpt lat="47.91067" lon="7.06461">
        <ele>1208</ele>
        <time>2016-12-29T12:16:05Z</time>
      </trkpt>
      <trkpt lat="47.91074" lon="7.06448">
        <ele>1206</ele>
        <time>2016-12-29T12:16:15Z</time>
      </trkpt>
      <trkpt lat="47.91087" lon="7.0642">
        <ele>1208</ele>
        <time>2016-12-29T12:16:37Z</time>
      </trkpt>
      <trkpt lat="47.91094" lon="7.06401">
        <ele>1215</ele>
        <time>2016-12-29T12:16:49Z</time>
      </trkpt>
      <trkpt lat="47.91102" lon="7.06383">
        <ele>1212</ele>
        <time>2016-12-29T12:17:05Z</time>
      </trkpt>
      <trkpt lat="47.91105" lon="7.0637">
        <ele>1208</ele>
        <time>2016-12-29T12:17:13Z</time>
      </trkpt>
      <trkpt lat="47.9111" lon="7.06349">
        <ele>1254</ele>
        <time>2016-12-29T12:17:25Z</time>
      </trkpt>
      <trkpt lat="47.91114" lon="7.06327">
        <ele>1249</ele>
        <time>2016-12-29T12:17:37Z</time>
      </trkpt>
      <trkpt lat="47.91114" lon="7.06312">
        <ele>1213</ele>
        <time>2016-12-29T12:17:47Z</time>
      </trkpt>
      <trkpt lat="47.91112" lon="7.06295">
        <ele>1213</ele>
        <time>2016-12-29T12:17:57Z</time>
      </trkpt>
      <trkpt lat="47.91112" lon="7.0628">
        <ele>1219</ele>
        <time>2016-12-29T12:18:05Z</time>
      </trkpt>
      <trkpt lat="47.91115" lon="7.06261">
        <ele>1226</ele>
        <time>2016-12-29T12:18:17Z</time>
      </trkpt>
      <trkpt lat="47.91116" lon="7.06245">
        <ele>1211</ele>
        <time>2016-12-29T12:18:27Z</time>
      </trkpt>
      <trkpt lat="47.91118" lon="7.06228">
        <ele>1212</ele>
        <time>2016-12-29T12:18:37Z</time>
      </trkpt>
      <trkpt lat="47.9112" lon="7.06214">
        <ele>1213</ele>
        <time>2016-12-29T12:18:47Z</time>
      </trkpt>
      <trkpt lat="47.91124" lon="7.06199">
        <ele>1221</ele>
        <time>2016-12-29T12:18:57Z</time>
      </trkpt>
      <trkpt lat="47.91127" lon="7.06184">
        <ele>1218</ele>
        <time>2016-12-29T12:19:07Z</time>
      </trkpt>
      <trkpt lat="47.91135" lon="7.06144">
        <ele>1222</ele>
        <time>2016-12-29T12:19:31Z</time>
      </trkpt>
      <trkpt lat="47.91144" lon="7.06112">
        <ele>1240</ele>
        <time>2016-12-29T12:19:51Z</time>
      </trkpt>
      <trkpt lat="47.9115" lon="7.06084">
        <ele>1216</ele>
        <time>2016-12-29T12:20:09Z</time>
      </trkpt>
      <trkpt lat="47.91151" lon="7.0607">
        <ele>1212</ele>
        <time>2016-12-29T12:20:19Z</time>
      </trkpt>
      <trkpt lat="47.91152" lon="7.06056">
        <ele>1211</ele>
        <time>2016-12-29T12:20:29Z</time>
      </trkpt>
      <trkpt lat="47.91153" lon="7.06022">
        <ele>1209</ele>
        <time>2016-12-29T12:20:47Z</time>
      </trkpt>
      <trkpt lat="47.91147" lon="7.05987">
        <ele>1233</ele>
        <time>2016-12-29T12:21:07Z</time>
      </trkpt>
      <trkpt lat="47.91146" lon="7.05973">
        <ele>1231</ele>
        <time>2016-12-29T12:21:19Z</time>
      </trkpt>
      <trkpt lat="47.91143" lon="7.05958">
        <ele>1208</ele>
        <time>2016-12-29T12:21:33Z</time>
      </trkpt>
      <trkpt lat="47.91139" lon="7.05939">
        <ele>1221</ele>
        <time>2016-12-29T12:22:01Z</time>
      </trkpt>
      <trkpt lat="47.91134" lon="7.05927">
        <ele>1235</ele>
        <time>2016-12-29T12:22:45Z</time>
      </trkpt>
      <trkpt lat="47.91098" lon="7.05851">
        <ele>1224</ele>
        <time>2016-12-29T12:23:55Z</time>
      </trkpt>
      <trkpt lat="47.91092" lon="7.05836">
        <ele>1251</ele>
        <time>2016-12-29T12:24:03Z</time>
      </trkpt>
      <trkpt lat="47.91092" lon="7.05821">
        <ele>1248</ele>
        <time>2016-12-29T12:24:13Z</time>
      </trkpt>
      <trkpt lat="47.91092" lon="7.05807">
        <ele>1271</ele>
        <time>2016-12-29T12:24:27Z</time>
      </trkpt>
      <trkpt lat="47.9109" lon="7.0579">
        <ele>1256</ele>
        <time>2016-12-29T12:24:39Z</time>
      </trkpt>
      <trkpt lat="47.91087" lon="7.05777">
        <ele>1224</ele>
        <time>2016-12-29T12:24:47Z</time>
      </trkpt>
      <trkpt lat="47.91084" lon="7.05761">
        <ele>1228</ele>
        <time>2016-12-29T12:24:59Z</time>
      </trkpt>
      <trkpt lat="47.91082" lon="7.05745">
        <ele>1238</ele>
        <time>2016-12-29T12:25:11Z</time>
      </trkpt>
      <trkpt lat="47.91081" lon="7.0573">
        <ele>1253</ele>
        <time>2016-12-29T12:25:19Z</time>
      </trkpt>
      <trkpt lat="47.91078" lon="7.05711">
        <ele>1236</ele>
        <time>2016-12-29T12:25:31Z</time>
      </trkpt>
      <trkpt lat="47.91078" lon="7.05696">
        <ele>1230</ele>
        <time>2016-12-29T12:25:41Z</time>
      </trkpt>
      <trkpt lat="47.9108" lon="7.05682">
        <ele>1242</ele>
        <time>2016-12-29T12:25:49Z</time>
      </trkpt>
      <trkpt lat="47.91077" lon="7.05667">
        <ele>1246</ele>
        <time>2016-12-29T12:25:59Z</time>
      </trkpt>
      <trkpt lat="47.91077" lon="7.05648">
        <ele>1228</ele>
        <time>2016-12-29T12:26:11Z</time>
      </trkpt>
      <trkpt lat="47.9108" lon="7.05634">
        <ele>1259</ele>
        <time>2016-12-29T12:27:15Z</time>
      </trkpt>
      <trkpt lat="47.91081" lon="7.05608">
        <ele>1224</ele>
        <time>2016-12-29T12:27:27Z</time>
      </trkpt>
      <trkpt lat="47.91083" lon="7.05582">
        <ele>1233</ele>
        <time>2016-12-29T12:27:41Z</time>
      </trkpt>
      <trkpt lat="47.91081" lon="7.05545">
        <ele>1224</ele>
        <time>2016-12-29T12:28:01Z</time>
      </trkpt>
      <trkpt lat="47.9108" lon="7.05531">
        <ele>1215</ele>
        <time>2016-12-29T12:28:09Z</time>
      </trkpt>
      <trkpt lat="47.91081" lon="7.05516">
        <ele>1215</ele>
        <time>2016-12-29T12:28:19Z</time>
      </trkpt>
      <trkpt lat="47.91079" lon="7.05502">
        <ele>1218</ele>
        <time>2016-12-29T12:28:29Z</time>
      </trkpt>
      <trkpt lat="47.91075" lon="7.0548">
        <ele>1219</ele>
        <time>2016-12-29T12:28:41Z</time>
      </trkpt>
      <trkpt lat="47.91071" lon="7.05467">
        <ele>1220</ele>
        <time>2016-12-29T12:28:49Z</time>
      </trkpt>
      <trkpt lat="47.91071" lon="7.05451">
        <ele>1218</ele>
        <time>2016-12-29T12:28:59Z</time>
      </trkpt>
      <trkpt lat="47.91069" lon="7.05413">
        <ele>1215</ele>
        <time>2016-12-29T12:29:21Z</time>
      </trkpt>
      <trkpt lat="47.91067" lon="7.05399">
        <ele>1212</ele>
        <time>2016-12-29T12:29:29Z</time>
      </trkpt>
      <trkpt lat="47.91067" lon="7.05384">
        <ele>1212</ele>
        <time>2016-12-29T12:29:39Z</time>
      </trkpt>
      <trkpt lat="47.91063" lon="7.05371">
        <ele>1210</ele>
        <time>2016-12-29T12:29:47Z</time>
      </trkpt>
      <trkpt lat="47.91063" lon="7.05332">
        <ele>1204</ele>
        <time>2016-12-29T12:30:09Z</time>
      </trkpt>
      <trkpt lat="47.9107" lon="7.0532">
        <ele>1201</ele>
        <time>2016-12-29T12:30:19Z</time>
      </trkpt>
      <trkpt lat="47.9107" lon="7.05306">
        <ele>1198</ele>
        <time>2016-12-29T12:30:29Z</time>
      </trkpt>
      <trkpt lat="47.9107" lon="7.05291">
        <ele>1194</ele>
        <time>2016-12-29T12:30:39Z</time>
      </trkpt>
      <trkpt lat="47.91063" lon="7.05276">
        <ele>1192</ele>
        <time>2016-12-29T12:30:47Z</time>
      </trkpt>
      <trkpt lat="47.91064" lon="7.05261">
        <ele>1189</ele>
        <time>2016-12-29T12:30:55Z</time>
      </trkpt>
      <trkpt lat="47.91064" lon="7.05244">
        <ele>1186</ele>
        <time>2016-12-29T12:31:05Z</time>
      </trkpt>
      <trkpt lat="47.91063" lon="7.05221">
        <ele>1187</ele>
        <time>2016-12-29T12:31:19Z</time>
      </trkpt>
      <trkpt lat="47.91064" lon="7.0519">
        <ele>1185</ele>
        <time>2016-12-29T12:31:39Z</time>
      </trkpt>
      <trkpt lat="47.91066" lon="7.05174">
        <ele>1186</ele>
        <time>2016-12-29T12:31:51Z</time>
      </trkpt>
      <trkpt lat="47.91068" lon="7.05137">
        <ele>1190</ele>
        <time>2016-12-29T12:32:15Z</time>
      </trkpt>
      <trkpt lat="47.91069" lon="7.05114">
        <ele>1192</ele>
        <time>2016-12-29T12:32:31Z</time>
      </trkpt>
      <trkpt lat="47.91071" lon="7.05093">
        <ele>1192</ele>
        <time>2016-12-29T12:32:45Z</time>
      </trkpt>
      <trkpt lat="47.91075" lon="7.0508">
        <ele>1192</ele>
        <time>2016-12-29T12:32:54Z</time>
      </trkpt>
      <trkpt lat="47.91084" lon="7.05058">
        <ele>1192</ele>
        <time>2016-12-29T12:33:12Z</time>
      </trkpt>
      <trkpt lat="47.91093" lon="7.05048">
        <ele>1191</ele>
        <time>2016-12-29T12:33:22Z</time>
      </trkpt>
      <trkpt lat="47.91102" lon="7.05039">
        <ele>1189</ele>
        <time>2016-12-29T12:33:32Z</time>
      </trkpt>
      <trkpt lat="47.9111" lon="7.05032">
        <ele>1188</ele>
        <time>2016-12-29T12:33:42Z</time>
      </trkpt>
      <trkpt lat="47.91117" lon="7.05019">
        <ele>1186</ele>
        <time>2016-12-29T12:33:52Z</time>
      </trkpt>
      <trkpt lat="47.91124" lon="7.0501">
        <ele>1184</ele>
        <time>2016-12-29T12:34:02Z</time>
      </trkpt>
      <trkpt lat="47.91146" lon="7.04978">
        <ele>1179</ele>
        <time>2016-12-29T12:34:28Z</time>
      </trkpt>
      <trkpt lat="47.91173" lon="7.04947">
        <ele>1178</ele>
        <time>2016-12-29T12:34:54Z</time>
      </trkpt>
      <trkpt lat="47.91198" lon="7.04913">
        <ele>1177</ele>
        <time>2016-12-29T12:35:24Z</time>
      </trkpt>
      <trkpt lat="47.91205" lon="7.04901">
        <ele>1179</ele>
        <time>2016-12-29T12:35:34Z</time>
      </trkpt>
      <trkpt lat="47.91212" lon="7.04889">
        <ele>1178</ele>
        <time>2016-12-29T12:35:42Z</time>
      </trkpt>
      <trkpt lat="47.91221" lon="7.04879">
        <ele>1180</ele>
        <time>2016-12-29T12:35:52Z</time>
      </trkpt>
      <trkpt lat="47.91227" lon="7.04869">
        <ele>1179</ele>
        <time>2016-12-29T12:36:00Z</time>
      </trkpt>
      <trkpt lat="47.9125" lon="7.0484">
        <ele>1179</ele>
        <time>2016-12-29T12:36:26Z</time>
      </trkpt>
      <trkpt lat="47.91257" lon="7.04826">
        <ele>1179</ele>
        <time>2016-12-29T12:36:36Z</time>
      </trkpt>
      <trkpt lat="47.91262" lon="7.04804">
        <ele>1180</ele>
        <time>2016-12-29T12:36:50Z</time>
      </trkpt>
      <trkpt lat="47.91271" lon="7.04768">
        <ele>1185</ele>
        <time>2016-12-29T12:37:16Z</time>
      </trkpt>
      <trkpt lat="47.91275" lon="7.04754">
        <ele>1187</ele>
        <time>2016-12-29T12:37:26Z</time>
      </trkpt>
      <trkpt lat="47.91283" lon="7.04729">
        <ele>1191</ele>
        <time>2016-12-29T12:37:46Z</time>
      </trkpt>
      <trkpt lat="47.91286" lon="7.04716">
        <ele>1193</ele>
        <time>2016-12-29T12:37:56Z</time>
      </trkpt>
      <trkpt lat="47.91293" lon="7.04697">
        <ele>1192</ele>
        <time>2016-12-29T12:39:32Z</time>
      </trkpt>
      <trkpt lat="47.91301" lon="7.04703">
        <ele>1194</ele>
        <time>2016-12-29T12:39:50Z</time>
      </trkpt>
      <trkpt lat="47.91329" lon="7.04707">
        <ele>1200</ele>
        <time>2016-12-29T12:40:16Z</time>
      </trkpt>
      <trkpt lat="47.91338" lon="7.04704">
        <ele>1204</ele>
        <time>2016-12-29T12:40:28Z</time>
      </trkpt>
      <trkpt lat="47.9137" lon="7.04667">
        <ele>1208</ele>
        <time>2016-12-29T12:41:04Z</time>
      </trkpt>
      <trkpt lat="47.91379" lon="7.04658">
        <ele>1210</ele>
        <time>2016-12-29T12:41:20Z</time>
      </trkpt>
      <trkpt lat="47.91391" lon="7.04641">
        <ele>1208</ele>
        <time>2016-12-29T12:41:34Z</time>
      </trkpt>
      <trkpt lat="47.91403" lon="7.04623">
        <ele>1209</ele>
        <time>2016-12-29T12:41:48Z</time>
      </trkpt>
      <trkpt lat="47.91412" lon="7.04615">
        <ele>1210</ele>
        <time>2016-12-29T12:41:56Z</time>
      </trkpt>
      <trkpt lat="47.91422" lon="7.04605">
        <ele>1208</ele>
        <time>2016-12-29T12:42:06Z</time>
      </trkpt>
      <trkpt lat="47.91433" lon="7.046">
        <ele>1208</ele>
        <time>2016-12-29T12:42:16Z</time>
      </trkpt>
      <trkpt lat="47.91504" lon="7.04573">
        <ele>1215</ele>
        <time>2016-12-29T12:43:16Z</time>
      </trkpt>
      <trkpt lat="47.91514" lon="7.04568">
        <ele>1217</ele>
        <time>2016-12-29T12:43:34Z</time>
      </trkpt>
      <trkpt lat="47.91523" lon="7.04566">
        <ele>1218</ele>
        <time>2016-12-29T12:43:42Z</time>
      </trkpt>
      <trkpt lat="47.91538" lon="7.04559">
        <ele>1219</ele>
        <time>2016-12-29T12:43:58Z</time>
      </trkpt>
      <trkpt lat="47.91566" lon="7.04548">
        <ele>1223</ele>
        <time>2016-12-29T12:44:24Z</time>
      </trkpt>
      <trkpt lat="47.91577" lon="7.04543">
        <ele>1222</ele>
        <time>2016-12-29T12:44:34Z</time>
      </trkpt>
      <trkpt lat="47.91592" lon="7.04536">
        <ele>1222</ele>
        <time>2016-12-29T12:44:48Z</time>
      </trkpt>
      <trkpt lat="47.91618" lon="7.04528">
        <ele>1226</ele>
        <time>2016-12-29T12:45:12Z</time>
      </trkpt>
      <trkpt lat="47.91635" lon="7.04522">
        <ele>1232</ele>
        <time>2016-12-29T12:45:28Z</time>
      </trkpt>
      <trkpt lat="47.91641" lon="7.04519">
        <ele>1236</ele>
        <time>2016-12-29T12:45:44Z</time>
      </trkpt>
      <trkpt lat="47.91651" lon="7.04513">
        <ele>1237</ele>
        <time>2016-12-29T12:46:57Z</time>
      </trkpt>
      <trkpt lat="47.91661" lon="7.04507">
        <ele>1238</ele>
        <time>2016-12-29T12:47:07Z</time>
      </trkpt>
      <trkpt lat="47.91684" lon="7.0449">
        <ele>1236</ele>
        <time>2016-12-29T12:47:27Z</time>
      </trkpt>
      <trkpt lat="47.91692" lon="7.04483">
        <ele>1237</ele>
        <time>2016-12-29T12:48:01Z</time>
      </trkpt>
      <trkpt lat="47.91713" lon="7.04467">
        <ele>1240</ele>
        <time>2016-12-29T12:48:19Z</time>
      </trkpt>
      <trkpt lat="47.91727" lon="7.04454">
        <ele>1239</ele>
        <time>2016-12-29T12:48:33Z</time>
      </trkpt>
      <trkpt lat="47.9174" lon="7.04445">
        <ele>1241</ele>
        <time>2016-12-29T12:48:47Z</time>
      </trkpt>
      <trkpt lat="47.9175" lon="7.04437">
        <ele>1241</ele>
        <time>2016-12-29T12:48:59Z</time>
      </trkpt>
      <trkpt lat="47.91761" lon="7.04428">
        <ele>1240</ele>
        <time>2016-12-29T12:49:09Z</time>
      </trkpt>
      <trkpt lat="47.91771" lon="7.04419">
        <ele>1297</ele>
        <time>2016-12-29T12:49:31Z</time>
      </trkpt>
      <trkpt lat="47.91778" lon="7.0441">
        <ele>1248</ele>
        <time>2016-12-29T12:52:23Z</time>
      </trkpt>
      <trkpt lat="47.91785" lon="7.04399">
        <ele>1261</ele>
        <time>2016-12-29T12:52:51Z</time>
      </trkpt>
      <trkpt lat="47.91792" lon="7.04389">
        <ele>1265</ele>
        <time>2016-12-29T12:53:05Z</time>
      </trkpt>
      <trkpt lat="47.91799" lon="7.0438">
        <ele>1242</ele>
        <time>2016-12-29T12:53:13Z</time>
      </trkpt>
      <trkpt lat="47.91809" lon="7.04371">
        <ele>1245</ele>
        <time>2016-12-29T12:53:23Z</time>
      </trkpt>
      <trkpt lat="47.91838" lon="7.04339">
        <ele>1281</ele>
        <time>2016-12-29T12:53:49Z</time>
      </trkpt>
      <trkpt lat="47.91847" lon="7.04328">
        <ele>1246</ele>
        <time>2016-12-29T12:53:57Z</time>
      </trkpt>
      <trkpt lat="47.91855" lon="7.04322">
        <ele>1262</ele>
        <time>2016-12-29T12:54:03Z</time>
      </trkpt>
      <trkpt lat="47.91864" lon="7.04314">
        <ele>1284</ele>
        <time>2016-12-29T12:54:11Z</time>
      </trkpt>
      <trkpt lat="47.91873" lon="7.04306">
        <ele>1287</ele>
        <time>2016-12-29T12:54:19Z</time>
      </trkpt>
      <trkpt lat="47.91911" lon="7.0427">
        <ele>1247</ele>
        <time>2016-12-29T12:55:01Z</time>
      </trkpt>
      <trkpt lat="47.91927" lon="7.04258">
        <ele>1243</ele>
        <time>2016-12-29T12:55:17Z</time>
      </trkpt>
      <trkpt lat="47.91937" lon="7.04249">
        <ele>1246</ele>
        <time>2016-12-29T12:55:25Z</time>
      </trkpt>
      <trkpt lat="47.91957" lon="7.0424">
        <ele>1261</ele>
        <time>2016-12-29T12:55:39Z</time>
      </trkpt>
      <trkpt lat="47.91969" lon="7.04235">
        <ele>1255</ele>
        <time>2016-12-29T12:55:49Z</time>
      </trkpt>
      <trkpt lat="47.92012" lon="7.04216">
        <ele>1238</ele>
        <time>2016-12-29T12:56:45Z</time>
      </trkpt>
      <trkpt lat="47.9202" lon="7.04207">
        <ele>1258</ele>
        <time>2016-12-29T12:56:53Z</time>
      </trkpt>
      <trkpt lat="47.92028" lon="7.042">
        <ele>1250</ele>
        <time>2016-12-29T12:57:01Z</time>
      </trkpt>
      <trkpt lat="47.92036" lon="7.04194">
        <ele>1252</ele>
        <time>2016-12-29T12:57:11Z</time>
      </trkpt>
      <trkpt lat="47.92054" lon="7.04164">
        <ele>1262</ele>
        <time>2016-12-29T12:57:43Z</time>
      </trkpt>
      <trkpt lat="47.92074" lon="7.04128">
        <ele>1227</ele>
        <time>2016-12-29T12:58:09Z</time>
      </trkpt>
      <trkpt lat="47.92081" lon="7.04116">
        <ele>1267</ele>
        <time>2016-12-29T12:58:19Z</time>
      </trkpt>
      <trkpt lat="47.9209" lon="7.04107">
        <ele>1226</ele>
        <time>2016-12-29T12:58:27Z</time>
      </trkpt>
      <trkpt lat="47.92099" lon="7.04098">
        <ele>1231</ele>
        <time>2016-12-29T12:58:35Z</time>
      </trkpt>
      <trkpt lat="47.92112" lon="7.04092">
        <ele>1247</ele>
        <time>2016-12-29T12:58:45Z</time>
      </trkpt>
      <trkpt lat="47.92121" lon="7.04088">
        <ele>1252</ele>
        <time>2016-12-29T12:58:53Z</time>
      </trkpt>
      <trkpt lat="47.92158" lon="7.04056">
        <ele>1253</ele>
        <time>2016-12-29T12:59:27Z</time>
      </trkpt>
      <trkpt lat="47.92166" lon="7.04045">
        <ele>1260</ele>
        <time>2016-12-29T12:59:35Z</time>
      </trkpt>
      <trkpt lat="47.92179" lon="7.04023">
        <ele>1248</ele>
        <time>2016-12-29T12:59:53Z</time>
      </trkpt>
      <trkpt lat="47.92185" lon="7.04013">
        <ele>1269</ele>
        <time>2016-12-29T13:00:03Z</time>
      </trkpt>
      <trkpt lat="47.92189" lon="7.04001">
        <ele>1225</ele>
        <time>2016-12-29T13:00:11Z</time>
      </trkpt>
      <trkpt lat="47.92199" lon="7.03972">
        <ele>1237</ele>
        <time>2016-12-29T13:00:27Z</time>
      </trkpt>
      <trkpt lat="47.92209" lon="7.03957">
        <ele>1242</ele>
        <time>2016-12-29T13:00:39Z</time>
      </trkpt>
      <trkpt lat="47.92216" lon="7.03943">
        <ele>1255</ele>
        <time>2016-12-29T13:00:47Z</time>
      </trkpt>
      <trkpt lat="47.92234" lon="7.03909">
        <ele>1237</ele>
        <time>2016-12-29T13:01:11Z</time>
      </trkpt>
      <trkpt lat="47.92243" lon="7.03876">
        <ele>1221</ele>
        <time>2016-12-29T13:01:31Z</time>
      </trkpt>
      <trkpt lat="47.92248" lon="7.03862">
        <ele>1225</ele>
        <time>2016-12-29T13:01:41Z</time>
      </trkpt>
      <trkpt lat="47.92253" lon="7.03849">
        <ele>1220</ele>
        <time>2016-12-29T13:01:51Z</time>
      </trkpt>
      <trkpt lat="47.92258" lon="7.03832">
        <ele>1207</ele>
        <time>2016-12-29T13:01:59Z</time>
      </trkpt>
      <trkpt lat="47.92269" lon="7.03808">
        <ele>1203</ele>
        <time>2016-12-29T13:02:17Z</time>
      </trkpt>
      <trkpt lat="47.92281" lon="7.0376">
        <ele>1202</ele>
        <time>2016-12-29T13:02:43Z</time>
      </trkpt>
      <trkpt lat="47.92284" lon="7.03739">
        <ele>1201</ele>
        <time>2016-12-29T13:02:53Z</time>
      </trkpt>
      <trkpt lat="47.92288" lon="7.03723">
        <ele>1203</ele>
        <time>2016-12-29T13:03:03Z</time>
      </trkpt>
      <trkpt lat="47.92295" lon="7.0371">
        <ele>1197</ele>
        <time>2016-12-29T13:03:11Z</time>
      </trkpt>
      <trkpt lat="47.92303" lon="7.03681">
        <ele>1204</ele>
        <time>2016-12-29T13:03:27Z</time>
      </trkpt>
      <trkpt lat="47.92305" lon="7.03658">
        <ele>1193</ele>
        <time>2016-12-29T13:03:39Z</time>
      </trkpt>
      <trkpt lat="47.92299" lon="7.03645">
        <ele>1199</ele>
        <time>2016-12-29T13:03:47Z</time>
      </trkpt>
      <trkpt lat="47.92294" lon="7.03632">
        <ele>1188</ele>
        <time>2016-12-29T13:03:55Z</time>
      </trkpt>
      <trkpt lat="47.92293" lon="7.03602">
        <ele>1185</ele>
        <time>2016-12-29T13:04:11Z</time>
      </trkpt>
      <trkpt lat="47.92291" lon="7.03588">
        <ele>1185</ele>
        <time>2016-12-29T13:04:19Z</time>
      </trkpt>
      <trkpt lat="47.9229" lon="7.03563">
        <ele>1187</ele>
        <time>2016-12-29T13:04:31Z</time>
      </trkpt>
      <trkpt lat="47.92288" lon="7.03545">
        <ele>1211</ele>
        <time>2016-12-29T13:04:43Z</time>
      </trkpt>
      <trkpt lat="47.92287" lon="7.0353">
        <ele>1227</ele>
        <time>2016-12-29T13:04:49Z</time>
      </trkpt>
      <trkpt lat="47.92278" lon="7.03519">
        <ele>1181</ele>
        <time>2016-12-29T13:04:59Z</time>
      </trkpt>
      <trkpt lat="47.9227" lon="7.0351">
        <ele>1181</ele>
        <time>2016-12-29T13:05:07Z</time>
      </trkpt>
      <trkpt lat="47.92263" lon="7.03499">
        <ele>1178</ele>
        <time>2016-12-29T13:05:15Z</time>
      </trkpt>
      <trkpt lat="47.92257" lon="7.03489">
        <ele>1243</ele>
        <time>2016-12-29T13:05:23Z</time>
      </trkpt>
      <trkpt lat="47.92251" lon="7.03472">
        <ele>1185</ele>
        <time>2016-12-29T13:05:39Z</time>
      </trkpt>
      <trkpt lat="47.92242" lon="7.03461">
        <ele>1169</ele>
        <time>2016-12-29T13:05:52Z</time>
      </trkpt>
      <trkpt lat="47.92238" lon="7.03449">
        <ele>1172</ele>
        <time>2016-12-29T13:07:06Z</time>
      </trkpt>
      <trkpt lat="47.92241" lon="7.03464">
        <ele>1169</ele>
        <time>2016-12-29T14:03:41Z</time>
      </trkpt>
      <trkpt lat="47.9225" lon="7.03456">
        <ele>1172</ele>
        <time>2016-12-29T14:04:09Z</time>
      </trkpt>
      <trkpt lat="47.92253" lon="7.0344">
        <ele>1179</ele>
        <time>2016-12-29T14:04:21Z</time>
      </trkpt>
      <trkpt lat="47.92259" lon="7.03429">
        <ele>1176</ele>
        <time>2016-12-29T14:04:55Z</time>
      </trkpt>
      <trkpt lat="47.92263" lon="7.03411">
        <ele>1175</ele>
        <time>2016-12-29T14:05:05Z</time>
      </trkpt>
      <trkpt lat="47.92261" lon="7.03397">
        <ele>1180</ele>
        <time>2016-12-29T14:05:15Z</time>
      </trkpt>
      <trkpt lat="47.92264" lon="7.03384">
        <ele>1177</ele>
        <time>2016-12-29T14:06:23Z</time>
      </trkpt>
      <trkpt lat="47.92273" lon="7.03347">
        <ele>1180</ele>
        <time>2016-12-29T14:06:41Z</time>
      </trkpt>
      <trkpt lat="47.92278" lon="7.03324">
        <ele>1182</ele>
        <time>2016-12-29T14:06:53Z</time>
      </trkpt>
      <trkpt lat="47.92276" lon="7.03308">
        <ele>1184</ele>
        <time>2016-12-29T14:07:03Z</time>
      </trkpt>
      <trkpt lat="47.92282" lon="7.03295">
        <ele>1184</ele>
        <time>2016-12-29T14:07:11Z</time>
      </trkpt>
      <trkpt lat="47.92289" lon="7.03274">
        <ele>1184</ele>
        <time>2016-12-29T14:07:27Z</time>
      </trkpt>
      <trkpt lat="47.92295" lon="7.03247">
        <ele>1186</ele>
        <time>2016-12-29T14:07:41Z</time>
      </trkpt>
      <trkpt lat="47.92298" lon="7.0322">
        <ele>1190</ele>
        <time>2016-12-29T14:07:57Z</time>
      </trkpt>
      <trkpt lat="47.92285" lon="7.03189">
        <ele>1191</ele>
        <time>2016-12-29T14:08:17Z</time>
      </trkpt>
      <trkpt lat="47.92273" lon="7.03163">
        <ele>1187</ele>
        <time>2016-12-29T14:08:35Z</time>
      </trkpt>
      <trkpt lat="47.9227" lon="7.03148">
        <ele>1189</ele>
        <time>2016-12-29T14:08:43Z</time>
      </trkpt>
      <trkpt lat="47.92271" lon="7.03133">
        <ele>1197</ele>
        <time>2016-12-29T14:08:51Z</time>
      </trkpt>
      <trkpt lat="47.92281" lon="7.03099">
        <ele>1190</ele>
        <time>2016-12-29T14:09:11Z</time>
      </trkpt>
      <trkpt lat="47.92284" lon="7.03079">
        <ele>1191</ele>
        <time>2016-12-29T14:09:35Z</time>
      </trkpt>
      <trkpt lat="47.923" lon="7.03022">
        <ele>1199</ele>
        <time>2016-12-29T14:10:07Z</time>
      </trkpt>
      <trkpt lat="47.92304" lon="7.0301">
        <ele>1208</ele>
        <time>2016-12-29T14:10:15Z</time>
      </trkpt>
      <trkpt lat="47.92315" lon="7.02989">
        <ele>1205</ele>
        <time>2016-12-29T14:10:29Z</time>
      </trkpt>
      <trkpt lat="47.9234" lon="7.02886">
        <ele>1206</ele>
        <time>2016-12-29T14:11:31Z</time>
      </trkpt>
      <trkpt lat="47.92342" lon="7.02859">
        <ele>1203</ele>
        <time>2016-12-29T14:11:47Z</time>
      </trkpt>
      <trkpt lat="47.9235" lon="7.02843">
        <ele>1204</ele>
        <time>2016-12-29T14:11:57Z</time>
      </trkpt>
      <trkpt lat="47.92356" lon="7.02829">
        <ele>1204</ele>
        <time>2016-12-29T14:12:07Z</time>
      </trkpt>
      <trkpt lat="47.92357" lon="7.02815">
        <ele>1203</ele>
        <time>2016-12-29T14:12:27Z</time>
      </trkpt>
      <trkpt lat="47.92352" lon="7.02802">
        <ele>1200</ele>
        <time>2016-12-29T14:12:37Z</time>
      </trkpt>
      <trkpt lat="47.92335" lon="7.0275">
        <ele>1189</ele>
        <time>2016-12-29T14:13:21Z</time>
      </trkpt>
      <trkpt lat="47.9233" lon="7.02718">
        <ele>1193</ele>
        <time>2016-12-29T14:13:41Z</time>
      </trkpt>
      <trkpt lat="47.92327" lon="7.02697">
        <ele>1184</ele>
        <time>2016-12-29T14:13:53Z</time>
      </trkpt>
      <trkpt lat="47.92323" lon="7.02678">
        <ele>1182</ele>
        <time>2016-12-29T14:14:05Z</time>
      </trkpt>
      <trkpt lat="47.92322" lon="7.02662">
        <ele>1182</ele>
        <time>2016-12-29T14:14:15Z</time>
      </trkpt>
      <trkpt lat="47.92318" lon="7.0265">
        <ele>1181</ele>
        <time>2016-12-29T14:14:33Z</time>
      </trkpt>
      <trkpt lat="47.92319" lon="7.02634">
        <ele>1197</ele>
        <time>2016-12-29T14:14:45Z</time>
      </trkpt>
      <trkpt lat="47.92318" lon="7.02613">
        <ele>1173</ele>
        <time>2016-12-29T14:15:07Z</time>
      </trkpt>
      <trkpt lat="47.92318" lon="7.02595">
        <ele>1212</ele>
        <time>2016-12-29T14:15:19Z</time>
      </trkpt>
      <trkpt lat="47.92308" lon="7.02558">
        <ele>1171</ele>
        <time>2016-12-29T14:15:43Z</time>
      </trkpt>
      <trkpt lat="47.92313" lon="7.02514">
        <ele>1174</ele>
        <time>2016-12-29T14:16:13Z</time>
      </trkpt>
      <trkpt lat="47.92313" lon="7.02498">
        <ele>1176</ele>
        <time>2016-12-29T14:16:23Z</time>
      </trkpt>
      <trkpt lat="47.92312" lon="7.02482">
        <ele>1175</ele>
        <time>2016-12-29T14:16:35Z</time>
      </trkpt>
      <trkpt lat="47.92304" lon="7.02426">
        <ele>1213</ele>
        <time>2016-12-29T14:17:07Z</time>
      </trkpt>
      <trkpt lat="47.92303" lon="7.02411">
        <ele>1179</ele>
        <time>2016-12-29T14:17:21Z</time>
      </trkpt>
      <trkpt lat="47.92306" lon="7.02368">
        <ele>1170</ele>
        <time>2016-12-29T14:17:47Z</time>
      </trkpt>
      <trkpt lat="47.92312" lon="7.02356">
        <ele>1173</ele>
        <time>2016-12-29T14:17:55Z</time>
      </trkpt>
      <trkpt lat="47.92315" lon="7.02343">
        <ele>1216</ele>
        <time>2016-12-29T14:18:03Z</time>
      </trkpt>
      <trkpt lat="47.92318" lon="7.02327">
        <ele>1169</ele>
        <time>2016-12-29T14:18:45Z</time>
      </trkpt>
      <trkpt lat="47.92324" lon="7.02314">
        <ele>1175</ele>
        <time>2016-12-29T14:18:53Z</time>
      </trkpt>
      <trkpt lat="47.92328" lon="7.02292">
        <ele>1176</ele>
        <time>2016-12-29T14:19:05Z</time>
      </trkpt>
      <trkpt lat="47.92337" lon="7.02282">
        <ele>1175</ele>
        <time>2016-12-29T14:19:15Z</time>
      </trkpt>
      <trkpt lat="47.92343" lon="7.02269">
        <ele>1181</ele>
        <time>2016-12-29T14:19:23Z</time>
      </trkpt>
      <trkpt lat="47.9235" lon="7.02257">
        <ele>1187</ele>
        <time>2016-12-29T14:19:31Z</time>
      </trkpt>
      <trkpt lat="47.92356" lon="7.02247">
        <ele>1185</ele>
        <time>2016-12-29T14:19:41Z</time>
      </trkpt>
      <trkpt lat="47.92362" lon="7.02237">
        <ele>1201</ele>
        <time>2016-12-29T14:19:59Z</time>
      </trkpt>
      <trkpt lat="47.92371" lon="7.02228">
        <ele>1185</ele>
        <time>2016-12-29T14:20:07Z</time>
      </trkpt>
      <trkpt lat="47.92381" lon="7.02214">
        <ele>1185</ele>
        <time>2016-12-29T14:20:17Z</time>
      </trkpt>
      <trkpt lat="47.9239" lon="7.02201">
        <ele>1216</ele>
        <time>2016-12-29T14:20:29Z</time>
      </trkpt>
      <trkpt lat="47.92399" lon="7.02191">
        <ele>1193</ele>
        <time>2016-12-29T14:21:25Z</time>
      </trkpt>
      <trkpt lat="47.92408" lon="7.02184">
        <ele>1196</ele>
        <time>2016-12-29T14:21:37Z</time>
      </trkpt>
      <trkpt lat="47.92416" lon="7.02173">
        <ele>1201</ele>
        <time>2016-12-29T14:21:43Z</time>
      </trkpt>
      <trkpt lat="47.92424" lon="7.02167">
        <ele>1206</ele>
        <time>2016-12-29T14:21:49Z</time>
      </trkpt>
      <trkpt lat="47.92433" lon="7.02156">
        <ele>1197</ele>
        <time>2016-12-29T14:22:02Z</time>
      </trkpt>
      <trkpt lat="47.92441" lon="7.02147">
        <ele>1211</ele>
        <time>2016-12-29T14:22:08Z</time>
      </trkpt>
      <trkpt lat="47.92449" lon="7.02126">
        <ele>1212</ele>
        <time>2016-12-29T14:22:18Z</time>
      </trkpt>
      <trkpt lat="47.92454" lon="7.02108">
        <ele>1199</ele>
        <time>2016-12-29T14:22:26Z</time>
      </trkpt>
      <trkpt lat="47.92459" lon="7.02081">
        <ele>1200</ele>
        <time>2016-12-29T14:22:42Z</time>
      </trkpt>
      <trkpt lat="47.92467" lon="7.02072">
        <ele>1197</ele>
        <time>2016-12-29T14:24:26Z</time>
      </trkpt>
      <trkpt lat="47.92474" lon="7.0206">
        <ele>1217</ele>
        <time>2016-12-29T14:24:34Z</time>
      </trkpt>
      <trkpt lat="47.9248" lon="7.02043">
        <ele>1218</ele>
        <time>2016-12-29T14:24:44Z</time>
      </trkpt>
      <trkpt lat="47.92482" lon="7.02028">
        <ele>1195</ele>
        <time>2016-12-29T14:24:52Z</time>
      </trkpt>
      <trkpt lat="47.9247" lon="7.02013">
        <ele>1194</ele>
        <time>2016-12-29T14:25:02Z</time>
      </trkpt>
      <trkpt lat="47.92455" lon="7.01997">
        <ele>1198</ele>
        <time>2016-12-29T14:25:16Z</time>
      </trkpt>
      <trkpt lat="47.92449" lon="7.01987">
        <ele>1192</ele>
        <time>2016-12-29T14:25:22Z</time>
      </trkpt>
      <trkpt lat="47.92437" lon="7.01972">
        <ele>1195</ele>
        <time>2016-12-29T14:25:40Z</time>
      </trkpt>
      <trkpt lat="47.92431" lon="7.01962">
        <ele>1203</ele>
        <time>2016-12-29T14:25:46Z</time>
      </trkpt>
      <trkpt lat="47.92428" lon="7.01949">
        <ele>1196</ele>
        <time>2016-12-29T14:25:52Z</time>
      </trkpt>
      <trkpt lat="47.92427" lon="7.01933">
        <ele>1195</ele>
        <time>2016-12-29T14:26:02Z</time>
      </trkpt>
      <trkpt lat="47.92425" lon="7.01916">
        <ele>1193</ele>
        <time>2016-12-29T14:26:12Z</time>
      </trkpt>
      <trkpt lat="47.92424" lon="7.019">
        <ele>1186</ele>
        <time>2016-12-29T14:26:22Z</time>
      </trkpt>
      <trkpt lat="47.92428" lon="7.01888">
        <ele>1184</ele>
        <time>2016-12-29T14:26:32Z</time>
      </trkpt>
      <trkpt lat="47.92431" lon="7.01872">
        <ele>1169</ele>
        <time>2016-12-29T14:26:42Z</time>
      </trkpt>
      <trkpt lat="47.92436" lon="7.01853">
        <ele>1185</ele>
        <time>2016-12-29T14:26:56Z</time>
      </trkpt>
      <trkpt lat="47.92438" lon="7.01837">
        <ele>1212</ele>
        <time>2016-12-29T14:27:04Z</time>
      </trkpt>
      <trkpt lat="47.92438" lon="7.01819">
        <ele>1170</ele>
        <time>2016-12-29T14:27:12Z</time>
      </trkpt>
      <trkpt lat="47.92436" lon="7.01795">
        <ele>1175</ele>
        <time>2016-12-29T14:27:22Z</time>
      </trkpt>
      <trkpt lat="47.92439" lon="7.01778">
        <ele>1172</ele>
        <time>2016-12-29T14:27:30Z</time>
      </trkpt>
      <trkpt lat="47.92441" lon="7.01763">
        <ele>1190</ele>
        <time>2016-12-29T14:27:36Z</time>
      </trkpt>
      <trkpt lat="47.92442" lon="7.01745">
        <ele>1207</ele>
        <time>2016-12-29T14:27:44Z</time>
      </trkpt>
      <trkpt lat="47.92444" lon="7.01715">
        <ele>1211</ele>
        <time>2016-12-29T14:28:04Z</time>
      </trkpt>
      <trkpt lat="47.92446" lon="7.01698">
        <ele>1178</ele>
        <time>2016-12-29T14:28:12Z</time>
      </trkpt>
      <trkpt lat="47.92449" lon="7.01675">
        <ele>1212</ele>
        <time>2016-12-29T14:28:24Z</time>
      </trkpt>
      <trkpt lat="47.92451" lon="7.01655">
        <ele>1182</ele>
        <time>2016-12-29T14:28:32Z</time>
      </trkpt>
      <trkpt lat="47.92452" lon="7.01639">
        <ele>1181</ele>
        <time>2016-12-29T14:28:40Z</time>
      </trkpt>
      <trkpt lat="47.92454" lon="7.01619">
        <ele>1187</ele>
        <time>2016-12-29T14:28:48Z</time>
      </trkpt>
      <trkpt lat="47.92454" lon="7.01598">
        <ele>1197</ele>
        <time>2016-12-29T14:28:56Z</time>
      </trkpt>
      <trkpt lat="47.92455" lon="7.01581">
        <ele>1211</ele>
        <time>2016-12-29T14:29:04Z</time>
      </trkpt>
      <trkpt lat="47.92465" lon="7.01551">
        <ele>1183</ele>
        <time>2016-12-29T14:29:20Z</time>
      </trkpt>
      <trkpt lat="47.92468" lon="7.01521">
        <ele>1185</ele>
        <time>2016-12-29T14:29:34Z</time>
      </trkpt>
      <trkpt lat="47.92463" lon="7.01506">
        <ele>1190</ele>
        <time>2016-12-29T14:29:42Z</time>
      </trkpt>
      <trkpt lat="47.92462" lon="7.01491">
        <ele>1200</ele>
        <time>2016-12-29T14:29:48Z</time>
      </trkpt>
      <trkpt lat="47.92458" lon="7.01477">
        <ele>1217</ele>
        <time>2016-12-29T14:29:56Z</time>
      </trkpt>
      <trkpt lat="47.92451" lon="7.01465">
        <ele>1194</ele>
        <time>2016-12-29T14:30:04Z</time>
      </trkpt>
      <trkpt lat="47.9245" lon="7.01451">
        <ele>1193</ele>
        <time>2016-12-29T14:30:12Z</time>
      </trkpt>
      <trkpt lat="47.92444" lon="7.01437">
        <ele>1196</ele>
        <time>2016-12-29T14:30:20Z</time>
      </trkpt>
      <trkpt lat="47.92434" lon="7.01418">
        <ele>1192</ele>
        <time>2016-12-29T14:30:34Z</time>
      </trkpt>
      <trkpt lat="47.92426" lon="7.0141">
        <ele>1193</ele>
        <time>2016-12-29T14:30:40Z</time>
      </trkpt>
      <trkpt lat="47.92412" lon="7.01393">
        <ele>1187</ele>
        <time>2016-12-29T14:30:54Z</time>
      </trkpt>
      <trkpt lat="47.92404" lon="7.01387">
        <ele>1184</ele>
        <time>2016-12-29T14:31:04Z</time>
      </trkpt>
      <trkpt lat="47.924" lon="7.01373">
        <ele>1193</ele>
        <time>2016-12-29T14:31:10Z</time>
      </trkpt>
      <trkpt lat="47.92396" lon="7.01356">
        <ele>1204</ele>
        <time>2016-12-29T14:31:18Z</time>
      </trkpt>
      <trkpt lat="47.92394" lon="7.01342">
        <ele>1182</ele>
        <time>2016-12-29T14:31:24Z</time>
      </trkpt>
      <trkpt lat="47.92385" lon="7.01325">
        <ele>1180</ele>
        <time>2016-12-29T14:31:34Z</time>
      </trkpt>
      <trkpt lat="47.92381" lon="7.01309">
        <ele>1181</ele>
        <time>2016-12-29T14:31:44Z</time>
      </trkpt>
      <trkpt lat="47.92376" lon="7.01296">
        <ele>1206</ele>
        <time>2016-12-29T14:31:52Z</time>
      </trkpt>
      <trkpt lat="47.92368" lon="7.01264">
        <ele>1175</ele>
        <time>2016-12-29T14:32:16Z</time>
      </trkpt>
      <trkpt lat="47.92365" lon="7.01251">
        <ele>1180</ele>
        <time>2016-12-29T14:32:24Z</time>
      </trkpt>
      <trkpt lat="47.92363" lon="7.01234">
        <ele>1179</ele>
        <time>2016-12-29T14:32:32Z</time>
      </trkpt>
      <trkpt lat="47.92366" lon="7.0122">
        <ele>1182</ele>
        <time>2016-12-29T14:32:40Z</time>
      </trkpt>
      <trkpt lat="47.92365" lon="7.01204">
        <ele>1169</ele>
        <time>2016-12-29T14:32:46Z</time>
      </trkpt>
      <trkpt lat="47.92364" lon="7.01181">
        <ele>1168</ele>
        <time>2016-12-29T14:32:56Z</time>
      </trkpt>
      <trkpt lat="47.92363" lon="7.01155">
        <ele>1175</ele>
        <time>2016-12-29T14:33:10Z</time>
      </trkpt>
      <trkpt lat="47.9236" lon="7.01142">
        <ele>1165</ele>
        <time>2016-12-29T14:33:36Z</time>
      </trkpt>
      <trkpt lat="47.92361" lon="7.01128">
        <ele>1163</ele>
        <time>2016-12-29T14:33:44Z</time>
      </trkpt>
      <trkpt lat="47.92363" lon="7.01114">
        <ele>1163</ele>
        <time>2016-12-29T14:33:52Z</time>
      </trkpt>
      <trkpt lat="47.92362" lon="7.01067">
        <ele>1179</ele>
        <time>2016-12-29T14:34:18Z</time>
      </trkpt>
      <trkpt lat="47.92362" lon="7.01045">
        <ele>1172</ele>
        <time>2016-12-29T14:34:32Z</time>
      </trkpt>
      <trkpt lat="47.92361" lon="7.01029">
        <ele>1160</ele>
        <time>2016-12-29T14:34:42Z</time>
      </trkpt>
      <trkpt lat="47.92361" lon="7.01015">
        <ele>1176</ele>
        <time>2016-12-29T14:34:58Z</time>
      </trkpt>
      <trkpt lat="47.92357" lon="7.01003">
        <ele>1171</ele>
        <time>2016-12-29T14:35:30Z</time>
      </trkpt>
      <trkpt lat="47.92347" lon="7.00971">
        <ele>1163</ele>
        <time>2016-12-29T14:35:42Z</time>
      </trkpt>
      <trkpt lat="47.92339" lon="7.0096">
        <ele>1172</ele>
        <time>2016-12-29T14:35:50Z</time>
      </trkpt>
      <trkpt lat="47.92317" lon="7.00931">
        <ele>1171</ele>
        <time>2016-12-29T14:36:18Z</time>
      </trkpt>
      <trkpt lat="47.9231" lon="7.00919">
        <ele>1170</ele>
        <time>2016-12-29T14:36:28Z</time>
      </trkpt>
      <trkpt lat="47.92306" lon="7.00896">
        <ele>1152</ele>
        <time>2016-12-29T14:36:42Z</time>
      </trkpt>
      <trkpt lat="47.92297" lon="7.00885">
        <ele>1148</ele>
        <time>2016-12-29T14:37:32Z</time>
      </trkpt>
      <trkpt lat="47.92288" lon="7.0088">
        <ele>1148</ele>
        <time>2016-12-29T14:37:38Z</time>
      </trkpt>
      <trkpt lat="47.92279" lon="7.00881">
        <ele>1141</ele>
        <time>2016-12-29T14:38:00Z</time>
      </trkpt>
      <trkpt lat="47.92273" lon="7.0087">
        <ele>1155</ele>
        <time>2016-12-29T14:39:00Z</time>
      </trkpt>
      <trkpt lat="47.92266" lon="7.00857">
        <ele>1152</ele>
        <time>2016-12-29T14:39:10Z</time>
      </trkpt>
      <trkpt lat="47.9227" lon="7.00845">
        <ele>1152</ele>
        <time>2016-12-29T14:40:19Z</time>
      </trkpt>
      <trkpt lat="47.92286" lon="7.00838">
        <ele>1136</ele>
        <time>2016-12-29T14:40:35Z</time>
      </trkpt>
      <trkpt lat="47.92295" lon="7.00835">
        <ele>1135</ele>
        <time>2016-12-29T14:40:47Z</time>
      </trkpt>
      <trkpt lat="47.92306" lon="7.00829">
        <ele>1134</ele>
        <time>2016-12-29T14:40:57Z</time>
      </trkpt>
      <trkpt lat="47.92328" lon="7.00826">
        <ele>1132</ele>
        <time>2016-12-29T14:41:17Z</time>
      </trkpt>
      <trkpt lat="47.92337" lon="7.00831">
        <ele>1133</ele>
        <time>2016-12-29T14:41:27Z</time>
      </trkpt>
      <trkpt lat="47.92347" lon="7.00825">
        <ele>1130</ele>
        <time>2016-12-29T14:41:39Z</time>
      </trkpt>
      <trkpt lat="47.92356" lon="7.0082">
        <ele>1127</ele>
        <time>2016-12-29T14:41:51Z</time>
      </trkpt>
      <trkpt lat="47.92365" lon="7.00818">
        <ele>1124</ele>
        <time>2016-12-29T14:42:01Z</time>
      </trkpt>
      <trkpt lat="47.9238" lon="7.00819">
        <ele>1126</ele>
        <time>2016-12-29T14:42:17Z</time>
      </trkpt>
      <trkpt lat="47.9239" lon="7.00817">
        <ele>1127</ele>
        <time>2016-12-29T14:42:27Z</time>
      </trkpt>
      <trkpt lat="47.924" lon="7.00819">
        <ele>1127</ele>
        <time>2016-12-29T14:42:37Z</time>
      </trkpt>
      <trkpt lat="47.92409" lon="7.00815">
        <ele>1127</ele>
        <time>2016-12-29T14:42:43Z</time>
      </trkpt>
      <trkpt lat="47.92419" lon="7.00817">
        <ele>1130</ele>
        <time>2016-12-29T14:42:53Z</time>
      </trkpt>
      <trkpt lat="47.92429" lon="7.00817">
        <ele>1129</ele>
        <time>2016-12-29T14:43:05Z</time>
      </trkpt>
      <trkpt lat="47.92467" lon="7.00804">
        <ele>1124</ele>
        <time>2016-12-29T14:43:35Z</time>
      </trkpt>
      <trkpt lat="47.92479" lon="7.00795">
        <ele>1125</ele>
        <time>2016-12-29T14:43:45Z</time>
      </trkpt>
      <trkpt lat="47.92487" lon="7.00782">
        <ele>1127</ele>
        <time>2016-12-29T14:43:55Z</time>
      </trkpt>
      <trkpt lat="47.92491" lon="7.00767">
        <ele>1124</ele>
        <time>2016-12-29T14:44:05Z</time>
      </trkpt>
      <trkpt lat="47.92495" lon="7.00751">
        <ele>1123</ele>
        <time>2016-12-29T14:44:15Z</time>
      </trkpt>
      <trkpt lat="47.92505" lon="7.00722">
        <ele>1117</ele>
        <time>2016-12-29T14:44:35Z</time>
      </trkpt>
      <trkpt lat="47.92505" lon="7.00707">
        <ele>1118</ele>
        <time>2016-12-29T14:44:43Z</time>
      </trkpt>
      <trkpt lat="47.92501" lon="7.00694">
        <ele>1116</ele>
        <time>2016-12-29T14:44:53Z</time>
      </trkpt>
      <trkpt lat="47.92499" lon="7.00679">
        <ele>1111</ele>
        <time>2016-12-29T14:45:03Z</time>
      </trkpt>
      <trkpt lat="47.925" lon="7.00662">
        <ele>1108</ele>
        <time>2016-12-29T14:45:15Z</time>
      </trkpt>
      <trkpt lat="47.92498" lon="7.00646">
        <ele>1106</ele>
        <time>2016-12-29T14:45:23Z</time>
      </trkpt>
      <trkpt lat="47.92497" lon="7.00613">
        <ele>1106</ele>
        <time>2016-12-29T14:45:41Z</time>
      </trkpt>
      <trkpt lat="47.92505" lon="7.00597">
        <ele>1116</ele>
        <time>2016-12-29T14:46:17Z</time>
      </trkpt>
      <trkpt lat="47.92514" lon="7.00593">
        <ele>1117</ele>
        <time>2016-12-29T14:46:37Z</time>
      </trkpt>
      <trkpt lat="47.92523" lon="7.0059">
        <ele>1121</ele>
        <time>2016-12-29T14:46:49Z</time>
      </trkpt>
      <trkpt lat="47.92537" lon="7.00564">
        <ele>1128</ele>
        <time>2016-12-29T14:47:21Z</time>
      </trkpt>
      <trkpt lat="47.92539" lon="7.00548">
        <ele>1132</ele>
        <time>2016-12-29T14:47:43Z</time>
      </trkpt>
      <trkpt lat="47.92539" lon="7.00534">
        <ele>1133</ele>
        <time>2016-12-29T14:47:51Z</time>
      </trkpt>
      <trkpt lat="47.92541" lon="7.0052">
        <ele>1129</ele>
        <time>2016-12-29T14:48:27Z</time>
      </trkpt>
      <trkpt lat="47.92541" lon="7.00484">
        <ele>1130</ele>
        <time>2016-12-29T14:48:57Z</time>
      </trkpt>
      <trkpt lat="47.9254" lon="7.00468">
        <ele>1130</ele>
        <time>2016-12-29T14:49:05Z</time>
      </trkpt>
      <trkpt lat="47.92541" lon="7.00452">
        <ele>1134</ele>
        <time>2016-12-29T14:49:13Z</time>
      </trkpt>
      <trkpt lat="47.9254" lon="7.00429">
        <ele>1130</ele>
        <time>2016-12-29T14:49:27Z</time>
      </trkpt>
      <trkpt lat="47.92538" lon="7.00395">
        <ele>1130</ele>
        <time>2016-12-29T14:49:49Z</time>
      </trkpt>
      <trkpt lat="47.92539" lon="7.0038">
        <ele>1128</ele>
        <time>2016-12-29T14:50:03Z</time>
      </trkpt>
      <trkpt lat="47.92536" lon="7.0035">
        <ele>1132</ele>
        <time>2016-12-29T14:50:17Z</time>
      </trkpt>
      <trkpt lat="47.92533" lon="7.00315">
        <ele>1129</ele>
        <time>2016-12-29T14:50:37Z</time>
      </trkpt>
      <trkpt lat="47.92532" lon="7.00276">
        <ele>1129</ele>
        <time>2016-12-29T14:50:55Z</time>
      </trkpt>
      <trkpt lat="47.92536" lon="7.00256">
        <ele>1126</ele>
        <time>2016-12-29T14:51:05Z</time>
      </trkpt>
      <trkpt lat="47.92543" lon="7.00231">
        <ele>1120</ele>
        <time>2016-12-29T14:51:21Z</time>
      </trkpt>
      <trkpt lat="47.92552" lon="7.00209">
        <ele>1113</ele>
        <time>2016-12-29T14:51:37Z</time>
      </trkpt>
      <trkpt lat="47.92556" lon="7.00194">
        <ele>1111</ele>
        <time>2016-12-29T14:51:45Z</time>
      </trkpt>
      <trkpt lat="47.92572" lon="7.0014">
        <ele>1106</ele>
        <time>2016-12-29T14:52:17Z</time>
      </trkpt>
      <trkpt lat="47.92575" lon="7.00127">
        <ele>1106</ele>
        <time>2016-12-29T14:52:25Z</time>
      </trkpt>
      <trkpt lat="47.92581" lon="7.00104">
        <ele>1109</ele>
        <time>2016-12-29T14:52:39Z</time>
      </trkpt>
      <trkpt lat="47.92584" lon="7.00088">
        <ele>1106</ele>
        <time>2016-12-29T14:52:47Z</time>
      </trkpt>
      <trkpt lat="47.92589" lon="7.00061">
        <ele>1109</ele>
        <time>2016-12-29T14:53:01Z</time>
      </trkpt>
      <trkpt lat="47.92583" lon="7.00049">
        <ele>1113</ele>
        <time>2016-12-29T14:53:09Z</time>
      </trkpt>
      <trkpt lat="47.92573" lon="7.00026">
        <ele>1109</ele>
        <time>2016-12-29T14:53:23Z</time>
      </trkpt>
      <trkpt lat="47.92574" lon="7.00012">
        <ele>1106</ele>
        <time>2016-12-29T14:53:33Z</time>
      </trkpt>
      <trkpt lat="47.92565" lon="7.00014">
        <ele>1108</ele>
        <time>2016-12-29T14:53:49Z</time>
      </trkpt>
      <trkpt lat="47.92555" lon="7.00024">
        <ele>1125</ele>
        <time>2016-12-29T14:53:59Z</time>
      </trkpt>
      <trkpt lat="47.92549" lon="7.00034">
        <ele>1106</ele>
        <time>2016-12-29T14:54:07Z</time>
      </trkpt>
      <trkpt lat="47.92543" lon="7.00045">
        <ele>1110</ele>
        <time>2016-12-29T14:54:13Z</time>
      </trkpt>
      <trkpt lat="47.92541" lon="7.00031">
        <ele>1106</ele>
        <time>2016-12-29T14:54:31Z</time>
      </trkpt>
      <trkpt lat="47.92542" lon="7.00017">
        <ele>1104</ele>
        <time>2016-12-29T14:54:41Z</time>
      </trkpt>
      <trkpt lat="47.92548" lon="7.00004">
        <ele>1105</ele>
        <time>2016-12-29T14:54:51Z</time>
      </trkpt>
      <trkpt lat="47.92554" lon="6.99993">
        <ele>1118</ele>
        <time>2016-12-29T14:54:59Z</time>
      </trkpt>
      <trkpt lat="47.92562" lon="6.99979">
        <ele>1119</ele>
        <time>2016-12-29T14:55:09Z</time>
      </trkpt>
      <trkpt lat="47.92569" lon="6.99965">
        <ele>1115</ele>
        <time>2016-12-29T14:55:19Z</time>
      </trkpt>
      <trkpt lat="47.92576" lon="6.99952">
        <ele>1097</ele>
        <time>2016-12-29T14:55:31Z</time>
      </trkpt>
      <trkpt lat="47.9258" lon="6.99939">
        <ele>1096</ele>
        <time>2016-12-29T14:55:41Z</time>
      </trkpt>
      <trkpt lat="47.92592" lon="6.99901">
        <ele>1083</ele>
        <time>2016-12-29T14:56:07Z</time>
      </trkpt>
      <trkpt lat="47.92597" lon="6.99881">
        <ele>1089</ele>
        <time>2016-12-29T14:56:21Z</time>
      </trkpt>
      <trkpt lat="47.92604" lon="6.99869">
        <ele>1087</ele>
        <time>2016-12-29T14:56:31Z</time>
      </trkpt>
      <trkpt lat="47.9261" lon="6.99855">
        <ele>1090</ele>
        <time>2016-12-29T14:56:41Z</time>
      </trkpt>
      <trkpt lat="47.9262" lon="6.99825">
        <ele>1084</ele>
        <time>2016-12-29T14:57:01Z</time>
      </trkpt>
      <trkpt lat="47.92625" lon="6.99808">
        <ele>1074</ele>
        <time>2016-12-29T14:57:15Z</time>
      </trkpt>
      <trkpt lat="47.92626" lon="6.99793">
        <ele>1078</ele>
        <time>2016-12-29T14:57:31Z</time>
      </trkpt>
      <trkpt lat="47.9263" lon="6.99778">
        <ele>1077</ele>
        <time>2016-12-29T14:57:41Z</time>
      </trkpt>
      <trkpt lat="47.92635" lon="6.99765">
        <ele>1069</ele>
        <time>2016-12-29T14:57:53Z</time>
      </trkpt>
      <trkpt lat="47.92626" lon="6.99763">
        <ele>1063</ele>
        <time>2016-12-29T14:58:07Z</time>
      </trkpt>
      <trkpt lat="47.92632" lon="6.99751">
        <ele>1062</ele>
        <time>2016-12-29T14:58:25Z</time>
      </trkpt>
      <trkpt lat="47.92638" lon="6.99739">
        <ele>1064</ele>
        <time>2016-12-29T14:58:35Z</time>
      </trkpt>
      <trkpt lat="47.92641" lon="6.99725">
        <ele>1067</ele>
        <time>2016-12-29T14:58:45Z</time>
      </trkpt>
      <trkpt lat="47.92645" lon="6.9971">
        <ele>1067</ele>
        <time>2016-12-29T14:58:53Z</time>
      </trkpt>
      <trkpt lat="47.92651" lon="6.99699">
        <ele>1077</ele>
        <time>2016-12-29T14:59:01Z</time>
      </trkpt>
      <trkpt lat="47.9266" lon="6.99681">
        <ele>1081</ele>
        <time>2016-12-29T14:59:13Z</time>
      </trkpt>
      <trkpt lat="47.92663" lon="6.99664">
        <ele>1066</ele>
        <time>2016-12-29T14:59:23Z</time>
      </trkpt>
      <trkpt lat="47.92668" lon="6.99652">
        <ele>1112</ele>
        <time>2016-12-29T14:59:31Z</time>
      </trkpt>
      <trkpt lat="47.92684" lon="6.9963">
        <ele>1122</ele>
        <time>2016-12-29T14:59:49Z</time>
      </trkpt>
      <trkpt lat="47.92692" lon="6.99621">
        <ele>1058</ele>
        <time>2016-12-29T14:59:57Z</time>
      </trkpt>
      <trkpt lat="47.92698" lon="6.99608">
        <ele>1089</ele>
        <time>2016-12-29T15:00:09Z</time>
      </trkpt>
      <trkpt lat="47.92704" lon="6.99596">
        <ele>1100</ele>
        <time>2016-12-29T15:00:19Z</time>
      </trkpt>
      <trkpt lat="47.92712" lon="6.99588">
        <ele>1060</ele>
        <time>2016-12-29T15:00:27Z</time>
      </trkpt>
      <trkpt lat="47.92737" lon="6.99555">
        <ele>1170</ele>
        <time>2016-12-29T15:00:59Z</time>
      </trkpt>
      <trkpt lat="47.92747" lon="6.99523">
        <ele>1102</ele>
        <time>2016-12-29T15:01:21Z</time>
      </trkpt>
      <trkpt lat="47.92749" lon="6.99505">
        <ele>1159</ele>
        <time>2016-12-29T15:01:29Z</time>
      </trkpt>
      <trkpt lat="47.92753" lon="6.9949">
        <ele>1041</ele>
        <time>2016-12-29T15:01:37Z</time>
      </trkpt>
      <trkpt lat="47.92756" lon="6.99452">
        <ele>1065</ele>
        <time>2016-12-29T15:02:03Z</time>
      </trkpt>
      <trkpt lat="47.92765" lon="6.99461">
        <ele>1057</ele>
        <time>2016-12-29T15:02:17Z</time>
      </trkpt>
      <trkpt lat="47.92777" lon="6.99471">
        <ele>1047</ele>
        <time>2016-12-29T15:02:27Z</time>
      </trkpt>
      <trkpt lat="47.92783" lon="6.99482">
        <ele>1062</ele>
        <time>2016-12-29T15:02:35Z</time>
      </trkpt>
      <trkpt lat="47.92792" lon="6.99492">
        <ele>1063</ele>
        <time>2016-12-29T15:02:43Z</time>
      </trkpt>
      <trkpt lat="47.92802" lon="6.99507">
        <ele>1059</ele>
        <time>2016-12-29T15:02:53Z</time>
      </trkpt>
      <trkpt lat="47.92809" lon="6.99516">
        <ele>1073</ele>
        <time>2016-12-29T15:03:01Z</time>
      </trkpt>
      <trkpt lat="47.92816" lon="6.99528">
        <ele>1069</ele>
        <time>2016-12-29T15:03:11Z</time>
      </trkpt>
      <trkpt lat="47.92826" lon="6.99519">
        <ele>1029</ele>
        <time>2016-12-29T15:03:20Z</time>
      </trkpt>
      <trkpt lat="47.92832" lon="6.99509">
        <ele>1027</ele>
        <time>2016-12-29T15:03:28Z</time>
      </trkpt>
      <trkpt lat="47.92831" lon="6.99495">
        <ele>1024</ele>
        <time>2016-12-29T15:03:38Z</time>
      </trkpt>
      <trkpt lat="47.92831" lon="6.9948">
        <ele>1016</ele>
        <time>2016-12-29T15:03:50Z</time>
      </trkpt>
      <trkpt lat="47.9283" lon="6.99466">
        <ele>1018</ele>
        <time>2016-12-29T15:04:00Z</time>
      </trkpt>
      <trkpt lat="47.92829" lon="6.99445">
        <ele>1019</ele>
        <time>2016-12-29T15:04:20Z</time>
      </trkpt>
      <trkpt lat="47.92823" lon="6.99434">
        <ele>1124</ele>
        <time>2016-12-29T15:04:36Z</time>
      </trkpt>
      <trkpt lat="47.92819" lon="6.9942">
        <ele>1076</ele>
        <time>2016-12-29T15:04:50Z</time>
      </trkpt>
      <trkpt lat="47.92815" lon="6.99382">
        <ele>1027</ele>
        <time>2016-12-29T15:05:16Z</time>
      </trkpt>
      <trkpt lat="47.92825" lon="6.99381">
        <ele>1000</ele>
        <time>2016-12-29T15:05:38Z</time>
      </trkpt>
      <trkpt lat="47.92836" lon="6.9938">
        <ele>1073</ele>
        <time>2016-12-29T15:05:50Z</time>
      </trkpt>
      <trkpt lat="47.92845" lon="6.99382">
        <ele>1020</ele>
        <time>2016-12-29T15:05:58Z</time>
      </trkpt>
      <trkpt lat="47.92866" lon="6.99388">
        <ele>1043</ele>
        <time>2016-12-29T15:06:16Z</time>
      </trkpt>
      <trkpt lat="47.92875" lon="6.99393">
        <ele>1006</ele>
        <time>2016-12-29T15:06:22Z</time>
      </trkpt>
      <trkpt lat="47.92885" lon="6.99398">
        <ele>1011</ele>
        <time>2016-12-29T15:06:30Z</time>
      </trkpt>
      <trkpt lat="47.92905" lon="6.99423">
        <ele>1011</ele>
        <time>2016-12-29T15:06:52Z</time>
      </trkpt>
      <trkpt lat="47.92914" lon="6.99434">
        <ele>1020</ele>
        <time>2016-12-29T15:07:00Z</time>
      </trkpt>
      <trkpt lat="47.92918" lon="6.99447">
        <ele>1137</ele>
        <time>2016-12-29T15:07:08Z</time>
      </trkpt>
      <trkpt lat="47.92925" lon="6.99458">
        <ele>1011</ele>
        <time>2016-12-29T15:07:16Z</time>
      </trkpt>
      <trkpt lat="47.92933" lon="6.99465">
        <ele>1004</ele>
        <time>2016-12-29T15:07:26Z</time>
      </trkpt>
      <trkpt lat="47.92944" lon="6.99476">
        <ele>1003</ele>
        <time>2016-12-29T15:07:52Z</time>
      </trkpt>
      <trkpt lat="47.92942" lon="6.99461">
        <ele>993</ele>
        <time>2016-12-29T15:08:02Z</time>
      </trkpt>
      <trkpt lat="47.92945" lon="6.99448">
        <ele>1024</ele>
        <time>2016-12-29T15:08:10Z</time>
      </trkpt>
      <trkpt lat="47.92944" lon="6.99434">
        <ele>1004</ele>
        <time>2016-12-29T15:08:20Z</time>
      </trkpt>
      <trkpt lat="47.92944" lon="6.99417">
        <ele>978</ele>
        <time>2016-12-29T15:08:46Z</time>
      </trkpt>
      <trkpt lat="47.92945" lon="6.99393">
        <ele>976</ele>
        <time>2016-12-29T15:08:56Z</time>
      </trkpt>
      <trkpt lat="47.92945" lon="6.99377">
        <ele>1105</ele>
        <time>2016-12-29T15:09:06Z</time>
      </trkpt>
      <trkpt lat="47.92942" lon="6.99328">
        <ele>1057</ele>
        <time>2016-12-29T15:09:30Z</time>
      </trkpt>
      <trkpt lat="47.92941" lon="6.99313">
        <ele>966</ele>
        <time>2016-12-29T15:09:36Z</time>
      </trkpt>
      <trkpt lat="47.92935" lon="6.99302">
        <ele>978</ele>
        <time>2016-12-29T15:09:42Z</time>
      </trkpt>
      <trkpt lat="47.92927" lon="6.99276">
        <ele>991</ele>
        <time>2016-12-29T15:10:02Z</time>
      </trkpt>
      <trkpt lat="47.92923" lon="6.99261">
        <ele>1026</ele>
        <time>2016-12-29T15:10:10Z</time>
      </trkpt>
      <trkpt lat="47.92911" lon="6.99241">
        <ele>955</ele>
        <time>2016-12-29T15:10:28Z</time>
      </trkpt>
      <trkpt lat="47.92902" lon="6.99234">
        <ele>957</ele>
        <time>2016-12-29T15:10:46Z</time>
      </trkpt>
      <trkpt lat="47.92899" lon="6.99217">
        <ele>963</ele>
        <time>2016-12-29T15:10:54Z</time>
      </trkpt>
      <trkpt lat="47.929" lon="6.99203">
        <ele>965</ele>
        <time>2016-12-29T15:11:04Z</time>
      </trkpt>
      <trkpt lat="47.92904" lon="6.99188">
        <ele>1033</ele>
        <time>2016-12-29T15:11:16Z</time>
      </trkpt>
      <trkpt lat="47.92908" lon="6.99172">
        <ele>1021</ele>
        <time>2016-12-29T15:11:24Z</time>
      </trkpt>
      <trkpt lat="47.92912" lon="6.99154">
        <ele>1008</ele>
        <time>2016-12-29T15:11:34Z</time>
      </trkpt>
      <trkpt lat="47.92915" lon="6.9914">
        <ele>1016</ele>
        <time>2016-12-29T15:11:44Z</time>
      </trkpt>
      <trkpt lat="47.92916" lon="6.99124">
        <ele>990</ele>
        <time>2016-12-29T15:11:54Z</time>
      </trkpt>
      <trkpt lat="47.92919" lon="6.99111">
        <ele>924</ele>
        <time>2016-12-29T15:12:02Z</time>
      </trkpt>
      <trkpt lat="47.92922" lon="6.99093">
        <ele>922</ele>
        <time>2016-12-29T15:12:10Z</time>
      </trkpt>
      <trkpt lat="47.92926" lon="6.99079">
        <ele>930</ele>
        <time>2016-12-29T15:12:18Z</time>
      </trkpt>
      <trkpt lat="47.92928" lon="6.99059">
        <ele>905</ele>
        <time>2016-12-29T15:12:28Z</time>
      </trkpt>
      <trkpt lat="47.92928" lon="6.99041">
        <ele>903</ele>
        <time>2016-12-29T15:12:38Z</time>
      </trkpt>
      <trkpt lat="47.92922" lon="6.99009">
        <ele>899</ele>
        <time>2016-12-29T15:12:54Z</time>
      </trkpt>
      <trkpt lat="47.92919" lon="6.98984">
        <ele>901</ele>
        <time>2016-12-29T15:13:07Z</time>
      </trkpt>
      <trkpt lat="47.92917" lon="6.98962">
        <ele>898</ele>
        <time>2016-12-29T15:13:19Z</time>
      </trkpt>
      <trkpt lat="47.9292" lon="6.98944">
        <ele>893</ele>
        <time>2016-12-29T15:13:31Z</time>
      </trkpt>
      <trkpt lat="47.92939" lon="6.98895">
        <ele>907</ele>
        <time>2016-12-29T15:13:59Z</time>
      </trkpt>
      <trkpt lat="47.92944" lon="6.98872">
        <ele>901</ele>
        <time>2016-12-29T15:14:11Z</time>
      </trkpt>
      <trkpt lat="47.92952" lon="6.98848">
        <ele>898</ele>
        <time>2016-12-29T15:14:26Z</time>
      </trkpt>
      <trkpt lat="47.92959" lon="6.98828">
        <ele>895</ele>
        <time>2016-12-29T15:14:38Z</time>
      </trkpt>
      <trkpt lat="47.92965" lon="6.98804">
        <ele>886</ele>
        <time>2016-12-29T15:14:52Z</time>
      </trkpt>
      <trkpt lat="47.92971" lon="6.98788">
        <ele>887</ele>
        <time>2016-12-29T15:15:01Z</time>
      </trkpt>
      <trkpt lat="47.92976" lon="6.98772">
        <ele>888</ele>
        <time>2016-12-29T15:15:11Z</time>
      </trkpt>
      <trkpt lat="47.92982" lon="6.98758">
        <ele>885</ele>
        <time>2016-12-29T15:25:21Z</time>
      </trkpt>
      <trkpt lat="47.92981" lon="6.98743">
        <ele>874</ele>
        <time>2016-12-29T15:25:35Z</time>
      </trkpt>
      <trkpt lat="47.92986" lon="6.98726">
        <ele>943</ele>
        <time>2016-12-29T15:25:45Z</time>
      </trkpt>
      <trkpt lat="47.92993" lon="6.98714">
        <ele>893</ele>
        <time>2016-12-29T15:25:55Z</time>
      </trkpt>
      <trkpt lat="47.92996" lon="6.987">
        <ele>876</ele>
        <time>2016-12-29T15:26:03Z</time>
      </trkpt>
      <trkpt lat="47.93" lon="6.9868">
        <ele>868</ele>
        <time>2016-12-29T15:26:17Z</time>
      </trkpt>
      <trkpt lat="47.93001" lon="6.98666">
        <ele>864</ele>
        <time>2016-12-29T15:26:25Z</time>
      </trkpt>
      <trkpt lat="47.93001" lon="6.98651">
        <ele>860</ele>
        <time>2016-12-29T15:26:35Z</time>
      </trkpt>
      <trkpt lat="47.93002" lon="6.98634">
        <ele>858</ele>
        <time>2016-12-29T15:26:45Z</time>
      </trkpt>
      <trkpt lat="47.93001" lon="6.9862">
        <ele>857</ele>
        <time>2016-12-29T15:26:55Z</time>
      </trkpt>
      <trkpt lat="47.93002" lon="6.98603">
        <ele>853</ele>
        <time>2016-12-29T15:27:11Z</time>
      </trkpt>
      <trkpt lat="47.93003" lon="6.98576">
        <ele>854</ele>
        <time>2016-12-29T15:27:31Z</time>
      </trkpt>
      <trkpt lat="47.92999" lon="6.9855">
        <ele>853</ele>
        <time>2016-12-29T15:27:49Z</time>
      </trkpt>
      <trkpt lat="47.92995" lon="6.98537">
        <ele>849</ele>
        <time>2016-12-29T15:28:01Z</time>
      </trkpt>
      <trkpt lat="47.92991" lon="6.98524">
        <ele>849</ele>
        <time>2016-12-29T15:28:11Z</time>
      </trkpt>
      <trkpt lat="47.92986" lon="6.98512">
        <ele>844</ele>
        <time>2016-12-29T15:28:25Z</time>
      </trkpt>
      <trkpt lat="47.92984" lon="6.98497">
        <ele>843</ele>
        <time>2016-12-29T15:28:37Z</time>
      </trkpt>
      <trkpt lat="47.92979" lon="6.98482">
        <ele>837</ele>
        <time>2016-12-29T15:28:53Z</time>
      </trkpt>
      <trkpt lat="47.92976" lon="6.98469">
        <ele>836</ele>
        <time>2016-12-29T15:29:07Z</time>
      </trkpt>
      <trkpt lat="47.9297" lon="6.98458">
        <ele>837</ele>
        <time>2016-12-29T15:29:21Z</time>
      </trkpt>
      <trkpt lat="47.92963" lon="6.98446">
        <ele>842</ele>
        <time>2016-12-29T15:29:31Z</time>
      </trkpt>
      <trkpt lat="47.92956" lon="6.98437">
        <ele>841</ele>
        <time>2016-12-29T15:29:39Z</time>
      </trkpt>
      <trkpt lat="47.92948" lon="6.98429">
        <ele>835</ele>
        <time>2016-12-29T15:30:01Z</time>
      </trkpt>
      <trkpt lat="47.92941" lon="6.98417">
        <ele>833</ele>
        <time>2016-12-29T15:30:13Z</time>
      </trkpt>
      <trkpt lat="47.92931" lon="6.98408">
        <ele>835</ele>
        <time>2016-12-29T15:30:23Z</time>
      </trkpt>
      <trkpt lat="47.92919" lon="6.98393">
        <ele>1018</ele>
        <time>2016-12-29T15:30:59Z</time>
      </trkpt>
      <trkpt lat="47.92911" lon="6.98384">
        <ele>872</ele>
        <time>2016-12-29T15:31:07Z</time>
      </trkpt>
      <trkpt lat="47.92903" lon="6.98376">
        <ele>910</ele>
        <time>2016-12-29T15:31:13Z</time>
      </trkpt>
      <trkpt lat="47.92911" lon="6.98369">
        <ele>880</ele>
        <time>2016-12-29T15:31:39Z</time>
      </trkpt>
      <trkpt lat="47.92942" lon="6.98384">
        <ele>840</ele>
        <time>2016-12-29T15:32:15Z</time>
      </trkpt>
      <trkpt lat="47.92977" lon="6.98387">
        <ele>822</ele>
        <time>2016-12-29T15:32:55Z</time>
      </trkpt>
      <trkpt lat="47.93" lon="6.98381">
        <ele>877</ele>
        <time>2016-12-29T15:33:19Z</time>
      </trkpt>
      <trkpt lat="47.93014" lon="6.98376">
        <ele>824</ele>
        <time>2016-12-29T15:33:33Z</time>
      </trkpt>
      <trkpt lat="47.93022" lon="6.98366">
        <ele>816</ele>
        <time>2016-12-29T15:33:45Z</time>
      </trkpt>
      <trkpt lat="47.93024" lon="6.9835">
        <ele>816</ele>
        <time>2016-12-29T15:33:55Z</time>
      </trkpt>
      <trkpt lat="47.93023" lon="6.98329">
        <ele>874</ele>
        <time>2016-12-29T15:34:09Z</time>
      </trkpt>
      <trkpt lat="47.93018" lon="6.98272">
        <ele>867</ele>
        <time>2016-12-29T15:37:31Z</time>
      </trkpt>
      <trkpt lat="47.93015" lon="6.98207">
        <ele>819</ele>
        <time>2016-12-29T15:38:05Z</time>
      </trkpt>
      <trkpt lat="47.93017" lon="6.98193">
        <ele>820</ele>
        <time>2016-12-29T15:38:13Z</time>
      </trkpt>
      <trkpt lat="47.93019" lon="6.98169">
        <ele>911</ele>
        <time>2016-12-29T15:38:27Z</time>
      </trkpt>
      <trkpt lat="47.93019" lon="6.98152">
        <ele>1000</ele>
        <time>2016-12-29T15:38:37Z</time>
      </trkpt>
      <trkpt lat="47.93013" lon="6.98141">
        <ele>830</ele>
        <time>2016-12-29T15:38:47Z</time>
      </trkpt>
      <trkpt lat="47.92997" lon="6.98124">
        <ele>832</ele>
        <time>2016-12-29T15:39:03Z</time>
      </trkpt>
      <trkpt lat="47.93006" lon="6.98114">
        <ele>811</ele>
        <time>2016-12-29T15:39:13Z</time>
      </trkpt>
      <trkpt lat="47.93022" lon="6.98105">
        <ele>945</ele>
        <time>2016-12-29T15:39:25Z</time>
      </trkpt>
      <trkpt lat="47.93032" lon="6.98105">
        <ele>808</ele>
        <time>2016-12-29T15:39:39Z</time>
      </trkpt>
      <trkpt lat="47.93041" lon="6.98099">
        <ele>896</ele>
        <time>2016-12-29T15:39:49Z</time>
      </trkpt>
      <trkpt lat="47.93049" lon="6.98093">
        <ele>802</ele>
        <time>2016-12-29T15:39:57Z</time>
      </trkpt>
      <trkpt lat="47.9306" lon="6.98084">
        <ele>833</ele>
        <time>2016-12-29T15:40:07Z</time>
      </trkpt>
      <trkpt lat="47.9307" lon="6.98074">
        <ele>862</ele>
        <time>2016-12-29T15:40:19Z</time>
      </trkpt>
      <trkpt lat="47.93093" lon="6.98053">
        <ele>945</ele>
        <time>2016-12-29T15:40:41Z</time>
      </trkpt>
      <trkpt lat="47.93099" lon="6.98042">
        <ele>862</ele>
        <time>2016-12-29T15:40:49Z</time>
      </trkpt>
      <trkpt lat="47.93116" lon="6.98026">
        <ele>864</ele>
        <time>2016-12-29T15:41:07Z</time>
      </trkpt>
      <trkpt lat="47.93132" lon="6.98016">
        <ele>798</ele>
        <time>2016-12-29T15:41:23Z</time>
      </trkpt>
      <trkpt lat="47.9314" lon="6.98008">
        <ele>812</ele>
        <time>2016-12-29T15:41:31Z</time>
      </trkpt>
      <trkpt lat="47.93149" lon="6.97999">
        <ele>815</ele>
        <time>2016-12-29T15:41:39Z</time>
      </trkpt>
      <trkpt lat="47.93156" lon="6.97989">
        <ele>857</ele>
        <time>2016-12-29T15:41:47Z</time>
      </trkpt>
      <trkpt lat="47.9316" lon="6.97975">
        <ele>789</ele>
        <time>2016-12-29T15:41:55Z</time>
      </trkpt>
      <trkpt lat="47.93157" lon="6.97961">
        <ele>805</ele>
        <time>2016-12-29T15:42:03Z</time>
      </trkpt>
      <trkpt lat="47.93156" lon="6.97947">
        <ele>820</ele>
        <time>2016-12-29T15:42:11Z</time>
      </trkpt>
      <trkpt lat="47.93153" lon="6.97934">
        <ele>852</ele>
        <time>2016-12-29T15:42:19Z</time>
      </trkpt>
      <trkpt lat="47.93146" lon="6.97925">
        <ele>787</ele>
        <time>2016-12-29T15:42:25Z</time>
      </trkpt>
      <trkpt lat="47.93139" lon="6.97914">
        <ele>797</ele>
        <time>2016-12-29T15:42:33Z</time>
      </trkpt>
      <trkpt lat="47.93132" lon="6.97903">
        <ele>799</ele>
        <time>2016-12-29T15:42:43Z</time>
      </trkpt>
      <trkpt lat="47.93124" lon="6.97894">
        <ele>794</ele>
        <time>2016-12-29T15:42:55Z</time>
      </trkpt>
      <trkpt lat="47.93115" lon="6.97891">
        <ele>799</ele>
        <time>2016-12-29T15:43:05Z</time>
      </trkpt>
      <trkpt lat="47.93106" lon="6.97885">
        <ele>817</ele>
        <time>2016-12-29T15:43:15Z</time>
      </trkpt>
      <trkpt lat="47.93097" lon="6.97882">
        <ele>839</ele>
        <time>2016-12-29T15:43:23Z</time>
      </trkpt>
      <trkpt lat="47.93088" lon="6.97882">
        <ele>863</ele>
        <time>2016-12-29T15:43:33Z</time>
      </trkpt>
      <trkpt lat="47.93074" lon="6.97885">
        <ele>1024</ele>
        <time>2016-12-29T15:43:49Z</time>
      </trkpt>
      <trkpt lat="47.93062" lon="6.97886">
        <ele>829</ele>
        <time>2016-12-29T15:43:57Z</time>
      </trkpt>
      <trkpt lat="47.93045" lon="6.97888">
        <ele>1045</ele>
        <time>2016-12-29T15:44:09Z</time>
      </trkpt>
      <trkpt lat="47.93036" lon="6.97884">
        <ele>830</ele>
        <time>2016-12-29T15:44:17Z</time>
      </trkpt>
      <trkpt lat="47.93026" lon="6.97884">
        <ele>833</ele>
        <time>2016-12-29T15:44:25Z</time>
      </trkpt>
      <trkpt lat="47.9299" lon="6.97884">
        <ele>853</ele>
        <time>2016-12-29T15:44:55Z</time>
      </trkpt>
      <trkpt lat="47.9298" lon="6.97881">
        <ele>881</ele>
        <time>2016-12-29T15:45:03Z</time>
      </trkpt>
      <trkpt lat="47.9297" lon="6.97877">
        <ele>917</ele>
        <time>2016-12-29T15:45:15Z</time>
      </trkpt>
      <trkpt lat="47.92961" lon="6.97874">
        <ele>1033</ele>
        <time>2016-12-29T15:45:23Z</time>
      </trkpt>
      <trkpt lat="47.92941" lon="6.97873">
        <ele>824</ele>
        <time>2016-12-29T15:45:41Z</time>
      </trkpt>
      <trkpt lat="47.92925" lon="6.9787">
        <ele>1029</ele>
        <time>2016-12-29T15:45:53Z</time>
      </trkpt>
      <trkpt lat="47.92915" lon="6.97867">
        <ele>1041</ele>
        <time>2016-12-29T15:46:03Z</time>
      </trkpt>
      <trkpt lat="47.92906" lon="6.97861">
        <ele>1054</ele>
        <time>2016-12-29T15:46:13Z</time>
      </trkpt>
      <trkpt lat="47.92897" lon="6.97859">
        <ele>810</ele>
        <time>2016-12-29T15:47:17Z</time>
      </trkpt>
      <trkpt lat="47.92888" lon="6.97856">
        <ele>817</ele>
        <time>2016-12-29T15:47:25Z</time>
      </trkpt>
      <trkpt lat="47.92878" lon="6.97849">
        <ele>825</ele>
        <time>2016-12-29T15:47:35Z</time>
      </trkpt>
      <trkpt lat="47.92865" lon="6.97837">
        <ele>815</ele>
        <time>2016-12-29T15:47:47Z</time>
      </trkpt>
      <trkpt lat="47.92855" lon="6.97833">
        <ele>990</ele>
        <time>2016-12-29T15:47:59Z</time>
      </trkpt>
      <trkpt lat="47.92846" lon="6.97825">
        <ele>834</ele>
        <time>2016-12-29T15:48:07Z</time>
      </trkpt>
      <trkpt lat="47.92832" lon="6.97807">
        <ele>850</ele>
        <time>2016-12-29T15:48:24Z</time>
      </trkpt>
      <trkpt lat="47.92824" lon="6.97793">
        <ele>828</ele>
        <time>2016-12-29T15:48:34Z</time>
      </trkpt>
      <trkpt lat="47.92817" lon="6.97777">
        <ele>942</ele>
        <time>2016-12-29T15:48:44Z</time>
      </trkpt>
      <trkpt lat="47.9281" lon="6.97752">
        <ele>802</ele>
        <time>2016-12-29T15:49:02Z</time>
      </trkpt>
      <trkpt lat="47.92808" lon="6.97738">
        <ele>838</ele>
        <time>2016-12-29T15:49:12Z</time>
      </trkpt>
      <trkpt lat="47.92808" lon="6.97722">
        <ele>937</ele>
        <time>2016-12-29T15:49:20Z</time>
      </trkpt>
      <trkpt lat="47.92807" lon="6.97707">
        <ele>818</ele>
        <time>2016-12-29T15:49:26Z</time>
      </trkpt>
      <trkpt lat="47.92808" lon="6.97693">
        <ele>850</ele>
        <time>2016-12-29T15:49:32Z</time>
      </trkpt>
      <trkpt lat="47.92813" lon="6.97706">
        <ele>874</ele>
        <time>2016-12-29T15:49:46Z</time>
      </trkpt>
      <trkpt lat="47.92823" lon="6.97734">
        <ele>913</ele>
        <time>2016-12-29T15:50:00Z</time>
      </trkpt>
      <trkpt lat="47.92829" lon="6.97746">
        <ele>798</ele>
        <time>2016-12-29T15:50:06Z</time>
      </trkpt>
      <trkpt lat="47.92836" lon="6.97758">
        <ele>813</ele>
        <time>2016-12-29T15:50:14Z</time>
      </trkpt>
      <trkpt lat="47.92851" lon="6.97771">
        <ele>791</ele>
        <time>2016-12-29T15:50:26Z</time>
      </trkpt>
      <trkpt lat="47.92868" lon="6.97786">
        <ele>799</ele>
        <time>2016-12-29T15:50:42Z</time>
      </trkpt>
      <trkpt lat="47.92871" lon="6.97772">
        <ele>874</ele>
        <time>2016-12-29T15:51:10Z</time>
      </trkpt>
      <trkpt lat="47.9287" lon="6.97745">
        <ele>833</ele>
        <time>2016-12-29T15:51:22Z</time>
      </trkpt>
      <trkpt lat="47.92865" lon="6.97711">
        <ele>776</ele>
        <time>2016-12-29T15:51:36Z</time>
      </trkpt>
      <trkpt lat="47.92867" lon="6.97672">
        <ele>805</ele>
        <time>2016-12-29T15:51:52Z</time>
      </trkpt>
      <trkpt lat="47.9287" lon="6.97659">
        <ele>1009</ele>
        <time>2016-12-29T15:51:58Z</time>
      </trkpt>
      <trkpt lat="47.92873" lon="6.97644">
        <ele>749</ele>
        <time>2016-12-29T15:52:08Z</time>
      </trkpt>
      <trkpt lat="47.92879" lon="6.97631">
        <ele>765</ele>
        <time>2016-12-29T15:52:16Z</time>
      </trkpt>
      <trkpt lat="47.92888" lon="6.9762">
        <ele>850</ele>
        <time>2016-12-29T15:52:22Z</time>
      </trkpt>
      <trkpt lat="47.92893" lon="6.97566">
        <ele>800</ele>
        <time>2016-12-29T15:52:52Z</time>
      </trkpt>
      <trkpt lat="47.92897" lon="6.97554">
        <ele>897</ele>
        <time>2016-12-29T15:53:00Z</time>
      </trkpt>
      <trkpt lat="47.92905" lon="6.97539">
        <ele>896</ele>
        <time>2016-12-29T15:53:10Z</time>
      </trkpt>
      <trkpt lat="47.92908" lon="6.97524">
        <ele>888</ele>
        <time>2016-12-29T15:53:20Z</time>
      </trkpt>
      <trkpt lat="47.92909" lon="6.97508">
        <ele>842</ele>
        <time>2016-12-29T15:53:58Z</time>
      </trkpt>
      <trkpt lat="47.92911" lon="6.97494">
        <ele>725</ele>
        <time>2016-12-29T15:54:06Z</time>
      </trkpt>
      <trkpt lat="47.92921" lon="6.97467">
        <ele>808</ele>
        <time>2016-12-29T15:54:20Z</time>
      </trkpt>
      <trkpt lat="47.92917" lon="6.97455">
        <ele>744</ele>
        <time>2016-12-29T15:55:06Z</time>
      </trkpt>
      <trkpt lat="47.92911" lon="6.97441">
        <ele>810</ele>
        <time>2016-12-29T15:55:12Z</time>
      </trkpt>
      <trkpt lat="47.92906" lon="6.97425">
        <ele>765</ele>
        <time>2016-12-29T15:55:24Z</time>
      </trkpt>
      <trkpt lat="47.92905" lon="6.97409">
        <ele>943</ele>
        <time>2016-12-29T15:55:29Z</time>
      </trkpt>
      <trkpt lat="47.92913" lon="6.97403">
        <ele>786</ele>
        <time>2016-12-29T15:56:30Z</time>
      </trkpt>
      <trkpt lat="47.92922" lon="6.97415">
        <ele>909</ele>
        <time>2016-12-29T15:56:38Z</time>
      </trkpt>
      <trkpt lat="47.92928" lon="6.97425">
        <ele>724</ele>
        <time>2016-12-29T15:56:44Z</time>
      </trkpt>
      <trkpt lat="47.92937" lon="6.97438">
        <ele>742</ele>
        <time>2016-12-29T15:56:52Z</time>
      </trkpt>
      <trkpt lat="47.92946" lon="6.97453">
        <ele>731</ele>
        <time>2016-12-29T15:57:04Z</time>
      </trkpt>
      <trkpt lat="47.92945" lon="6.97468">
        <ele>779</ele>
        <time>2016-12-29T15:58:10Z</time>
      </trkpt>
      <trkpt lat="47.92943" lon="6.97484">
        <ele>975</ele>
        <time>2016-12-29T15:58:18Z</time>
      </trkpt>
      <trkpt lat="47.92941" lon="6.97464">
        <ele>845</ele>
        <time>2016-12-29T15:58:50Z</time>
      </trkpt>
      <trkpt lat="47.92942" lon="6.97449">
        <ele>746</ele>
        <time>2016-12-29T15:59:02Z</time>
      </trkpt>
      <trkpt lat="47.92944" lon="6.97431">
        <ele>793</ele>
        <time>2016-12-29T15:59:10Z</time>
      </trkpt>
      <trkpt lat="47.92945" lon="6.9741">
        <ele>904</ele>
        <time>2016-12-29T15:59:18Z</time>
      </trkpt>
      <trkpt lat="47.92946" lon="6.97391">
        <ele>877</ele>
        <time>2016-12-29T15:59:28Z</time>
      </trkpt>
      <trkpt lat="47.9295" lon="6.97378">
        <ele>713</ele>
        <time>2016-12-29T15:59:34Z</time>
      </trkpt>
      <trkpt lat="47.92949" lon="6.97358">
        <ele>695</ele>
        <time>2016-12-29T15:59:46Z</time>
      </trkpt>
      <trkpt lat="47.92942" lon="6.97347">
        <ele>716</ele>
        <time>2016-12-29T15:59:54Z</time>
      </trkpt>
      <trkpt lat="47.92937" lon="6.97335">
        <ele>702</ele>
        <time>2016-12-29T16:00:04Z</time>
      </trkpt>
      <trkpt lat="47.92937" lon="6.97311">
        <ele>755</ele>
        <time>2016-12-29T16:00:22Z</time>
      </trkpt>
      <trkpt lat="47.92934" lon="6.97296">
        <ele>742</ele>
        <time>2016-12-29T16:00:40Z</time>
      </trkpt>
      <trkpt lat="47.92934" lon="6.97281">
        <ele>681</ele>
        <time>2016-12-29T16:00:56Z</time>
      </trkpt>
      <trkpt lat="47.92932" lon="6.97265">
        <ele>863</ele>
        <time>2016-12-29T16:01:09Z</time>
      </trkpt>
      <trkpt lat="47.92931" lon="6.97251">
        <ele>665</ele>
        <time>2016-12-29T16:01:22Z</time>
      </trkpt>
      <trkpt lat="47.92932" lon="6.97234">
        <ele>658</ele>
        <time>2016-12-29T16:01:30Z</time>
      </trkpt>
      <trkpt lat="47.92932" lon="6.9722">
        <ele>655</ele>
        <time>2016-12-29T16:01:37Z</time>
      </trkpt>
      <trkpt lat="47.92937" lon="6.97207">
        <ele>650</ele>
        <time>2016-12-29T16:02:03Z</time>
      </trkpt>
      <trkpt lat="47.92946" lon="6.97204">
        <ele>662</ele>
        <time>2016-12-29T16:02:31Z</time>
      </trkpt>
      <trkpt lat="47.92947" lon="6.9719">
        <ele>645</ele>
        <time>2016-12-29T16:02:55Z</time>
      </trkpt>
      <trkpt lat="47.92953" lon="6.97178">
        <ele>656</ele>
        <time>2016-12-29T16:03:11Z</time>
      </trkpt>
      <trkpt lat="47.92947" lon="6.97166">
        <ele>658</ele>
        <time>2016-12-29T16:03:21Z</time>
      </trkpt>
      <trkpt lat="47.92939" lon="6.97155">
        <ele>708</ele>
        <time>2016-12-29T16:03:47Z</time>
      </trkpt>
      <trkpt lat="47.92933" lon="6.97143">
        <ele>730</ele>
        <time>2016-12-29T16:03:57Z</time>
      </trkpt>
      <trkpt lat="47.92924" lon="6.97132">
        <ele>649</ele>
        <time>2016-12-29T16:04:05Z</time>
      </trkpt>
      <trkpt lat="47.92913" lon="6.97121">
        <ele>697</ele>
        <time>2016-12-29T16:04:19Z</time>
      </trkpt>
      <trkpt lat="47.92904" lon="6.97115">
        <ele>727</ele>
        <time>2016-12-29T16:04:47Z</time>
      </trkpt>
      <trkpt lat="47.92894" lon="6.97112">
        <ele>636</ele>
        <time>2016-12-29T16:04:57Z</time>
      </trkpt>
      <trkpt lat="47.9288" lon="6.97109">
        <ele>648</ele>
        <time>2016-12-29T16:05:15Z</time>
      </trkpt>
      <trkpt lat="47.9287" lon="6.97105">
        <ele>656</ele>
        <time>2016-12-29T16:05:25Z</time>
      </trkpt>
      <trkpt lat="47.92859" lon="6.97109">
        <ele>648</ele>
        <time>2016-12-29T16:05:45Z</time>
      </trkpt>
      <trkpt lat="47.92848" lon="6.97102">
        <ele>682</ele>
        <time>2016-12-29T16:05:53Z</time>
      </trkpt>
      <trkpt lat="47.92824" lon="6.97074">
        <ele>638</ele>
        <time>2016-12-29T16:06:22Z</time>
      </trkpt>
      <trkpt lat="47.92816" lon="6.97068">
        <ele>640</ele>
        <time>2016-12-29T16:06:30Z</time>
      </trkpt>
      <trkpt lat="47.92825" lon="6.97053">
        <ele>588</ele>
        <time>2016-12-29T16:06:56Z</time>
      </trkpt>
      <trkpt lat="47.928" lon="6.97019">
        <ele>577</ele>
        <time>2016-12-29T16:07:46Z</time>
      </trkpt>
      <trkpt lat="47.9279" lon="6.97012">
        <ele>576</ele>
        <time>2016-12-29T16:07:57Z</time>
      </trkpt>
      <trkpt lat="47.92761" lon="6.97009">
        <ele>570</ele>
        <time>2016-12-29T16:08:24Z</time>
      </trkpt>
      <trkpt lat="47.92774" lon="6.96971">
        <ele>545</ele>
        <time>2016-12-29T16:09:48Z</time>
      </trkpt>
      <trkpt lat="47.92782" lon="6.96962">
        <ele>542</ele>
        <time>2016-12-29T16:09:58Z</time>
      </trkpt>
      <trkpt lat="47.92789" lon="6.9695">
        <ele>541</ele>
        <time>2016-12-29T16:10:06Z</time>
      </trkpt>
      <trkpt lat="47.92799" lon="6.96936">
        <ele>539</ele>
        <time>2016-12-29T16:10:14Z</time>
      </trkpt>
      <trkpt lat="47.92807" lon="6.96928">
        <ele>535</ele>
        <time>2016-12-29T16:10:20Z</time>
      </trkpt>
      <trkpt lat="47.92815" lon="6.9692">
        <ele>531</ele>
        <time>2016-12-29T16:10:28Z</time>
      </trkpt>
      <trkpt lat="47.92822" lon="6.96909">
        <ele>525</ele>
        <time>2016-12-29T16:10:40Z</time>
      </trkpt>
      <trkpt lat="47.92835" lon="6.96897">
        <ele>516</ele>
        <time>2016-12-29T16:10:58Z</time>
      </trkpt>
      <trkpt lat="47.92842" lon="6.96883">
        <ele>520</ele>
        <time>2016-12-29T16:11:10Z</time>
      </trkpt>
      <trkpt lat="47.92849" lon="6.96874">
        <ele>520</ele>
        <time>2016-12-29T16:11:20Z</time>
      </trkpt>
      <trkpt lat="47.9284" lon="6.96871">
        <ele>514</ele>
        <time>2016-12-29T16:11:44Z</time>
      </trkpt>
      <trkpt lat="47.92829" lon="6.96874">
        <ele>511</ele>
        <time>2016-12-29T16:11:58Z</time>
      </trkpt>
      <trkpt lat="47.92822" lon="6.96883">
        <ele>512</ele>
        <time>2016-12-29T16:15:18Z</time>
      </trkpt>
      <trkpt lat="47.92814" lon="6.96889">
        <ele>509</ele>
        <time>2016-12-29T16:15:33Z</time>
      </trkpt>
      <trkpt lat="47.92805" lon="6.96896">
        <ele>507</ele>
        <time>2016-12-29T16:15:46Z</time>
      </trkpt>
      <trkpt lat="47.92788" lon="6.96906">
        <ele>509</ele>
        <time>2016-12-29T16:16:00Z</time>
      </trkpt>
      <trkpt lat="47.92777" lon="6.96905">
        <ele>506</ele>
        <time>2016-12-29T16:16:11Z</time>
      </trkpt>
      <trkpt lat="47.92768" lon="6.96909">
        <ele>514</ele>
        <time>2016-12-29T16:16:17Z</time>
      </trkpt>
      <trkpt lat="47.9276" lon="6.96916">
        <ele>517</ele>
        <time>2016-12-29T16:16:25Z</time>
      </trkpt>
      <trkpt lat="47.92726" lon="6.96918">
        <ele>527</ele>
        <time>2016-12-29T16:16:56Z</time>
      </trkpt>
      <trkpt lat="47.92717" lon="6.96914">
        <ele>518</ele>
        <time>2016-12-29T16:17:17Z</time>
      </trkpt>
      <trkpt lat="47.92707" lon="6.96913">
        <ele>515</ele>
        <time>2016-12-29T16:17:30Z</time>
      </trkpt>
      <trkpt lat="47.92696" lon="6.96911">
        <ele>513</ele>
        <time>2016-12-29T16:17:38Z</time>
      </trkpt>
      <trkpt lat="47.92686" lon="6.96906">
        <ele>511</ele>
        <time>2016-12-29T16:17:46Z</time>
      </trkpt>
      <trkpt lat="47.92668" lon="6.96901">
        <ele>510</ele>
        <time>2016-12-29T16:18:02Z</time>
      </trkpt>
      <trkpt lat="47.92656" lon="6.96897">
        <ele>508</ele>
        <time>2016-12-29T16:18:14Z</time>
      </trkpt>
      <trkpt lat="47.92642" lon="6.9689">
        <ele>505</ele>
        <time>2016-12-29T16:18:26Z</time>
      </trkpt>
      <trkpt lat="47.92614" lon="6.96896">
        <ele>502</ele>
        <time>2016-12-29T16:18:48Z</time>
      </trkpt>
      <trkpt lat="47.92603" lon="6.96891">
        <ele>485</ele>
        <time>2016-12-29T16:19:16Z</time>
      </trkpt>
      <trkpt lat="47.92593" lon="6.96891">
        <ele>482</ele>
        <time>2016-12-29T16:19:28Z</time>
      </trkpt>
      <trkpt lat="47.92581" lon="6.96891">
        <ele>479</ele>
        <time>2016-12-29T16:19:44Z</time>
      </trkpt>
      <trkpt lat="47.92557" lon="6.96905">
        <ele>463</ele>
        <time>2016-12-29T16:20:06Z</time>
      </trkpt>
      <trkpt lat="47.92545" lon="6.9691">
        <ele>465</ele>
        <time>2016-12-29T16:20:14Z</time>
      </trkpt>
      <trkpt lat="47.92529" lon="6.96911">
        <ele>472</ele>
        <time>2016-12-29T16:20:32Z</time>
      </trkpt>
      <trkpt lat="47.9252" lon="6.96904">
        <ele>473</ele>
        <time>2016-12-29T16:20:40Z</time>
      </trkpt>
      <trkpt lat="47.92511" lon="6.96901">
        <ele>467</ele>
        <time>2016-12-29T16:20:48Z</time>
      </trkpt>
      <trkpt lat="47.92502" lon="6.96898">
        <ele>474</ele>
        <time>2016-12-29T16:20:56Z</time>
      </trkpt>
      <trkpt lat="47.92494" lon="6.96891">
        <ele>482</ele>
        <time>2016-12-29T16:21:02Z</time>
      </trkpt>
      <trkpt lat="47.92489" lon="6.96873">
        <ele>476</ele>
        <time>2016-12-29T16:21:30Z</time>
      </trkpt>
      <trkpt lat="47.92482" lon="6.96855">
        <ele>473</ele>
        <time>2016-12-29T16:21:40Z</time>
      </trkpt>
      <trkpt lat="47.92473" lon="6.96854">
        <ele>472</ele>
        <time>2016-12-29T16:21:48Z</time>
      </trkpt>
      <trkpt lat="47.92461" lon="6.96858">
        <ele>474</ele>
        <time>2016-12-29T16:22:00Z</time>
      </trkpt>
      <trkpt lat="47.92413" lon="6.96867">
        <ele>481</ele>
        <time>2016-12-29T16:22:58Z</time>
      </trkpt>
      <trkpt lat="47.9241" lon="6.96883">
        <ele>478</ele>
        <time>2016-12-29T16:23:14Z</time>
      </trkpt>
      <trkpt lat="47.92402" lon="6.96891">
        <ele>479</ele>
        <time>2016-12-29T16:23:26Z</time>
      </trkpt>
      <trkpt lat="47.92396" lon="6.96901">
        <ele>478</ele>
        <time>2016-12-29T16:23:42Z</time>
      </trkpt>
      <trkpt lat="47.92387" lon="6.96909">
        <ele>481</ele>
        <time>2016-12-29T16:24:26Z</time>
      </trkpt>
      <trkpt lat="47.92378" lon="6.96911">
        <ele>479</ele>
        <time>2016-12-29T16:24:54Z</time>
      </trkpt>
      <trkpt lat="47.92368" lon="6.96914">
        <ele>479</ele>
        <time>2016-12-29T16:26:38Z</time>
      </trkpt>
      <trkpt lat="47.92359" lon="6.96917">
        <ele>481</ele>
        <time>2016-12-29T16:26:52Z</time>
      </trkpt>
      <trkpt lat="47.92358" lon="6.96923">
        <ele>482</ele>
        <time>2016-12-29T16:27:54Z</time>
      </trkpt>
    </trkseg>
  </trk>
</gpx>